<?xml version="1.0" encoding="UTF-8" standalone="no" ?>
<gpx xmlns="http://www.topografix.com/GPX/1/1" xmlns:xsi="http://www.w3.org/2001/XMLSchema-instance" xsi:schemaLocation="http://www.topografix.com/GPX/1/1 http://www.topografix.com/GPX/1/1/gpx.xsd" version="1.1" creator="VisuGPX - https://www.visugpx.com">
  <metadata>
    <name>VTT Le Forest à  Clapouse par piste de la  laupie </name>
    <desc><![CDATA[On peut gagner env 10 km de goudron A/R et  300m de déniv en montant en voiture jusqu'à Esparron Magnifique ballade  Pas beaucoup de monotrace mais suffisamment assez pour ceux qui aiment le ballades tranquilles en sous bois 
NE PAS DESCENDRE PAR LA PISTE DE LA PINEE SACCAGEE PAR LES FORESTIERS ]]></desc>
  </metadata>
  <trk>
    <name><![CDATA[N°39 Forest/Clapouse par Laupie]]></name>
    <trkseg>
      <trkpt lat="44.33164" lon="6.12587">
        <ele>799.4736328</ele>
        <time>2013-07-28T06:12:03Z</time>
      </trkpt>
      <trkpt lat="44.33" lon="6.12895">
        <ele>798.0317383</ele>
        <time>2013-07-28T06:13:25Z</time>
      </trkpt>
      <trkpt lat="44.32921" lon="6.13052">
        <ele>796.5898438</ele>
        <time>2013-07-28T06:13:57Z</time>
      </trkpt>
      <trkpt lat="44.32919" lon="6.13058">
        <ele>798.9929199</ele>
        <time>2013-07-28T06:13:59Z</time>
      </trkpt>
      <trkpt lat="44.32918" lon="6.1306">
        <ele>797.0703125</ele>
        <time>2013-07-28T06:14:41Z</time>
      </trkpt>
      <trkpt lat="44.32918" lon="6.13061">
        <ele>801.8769531</ele>
        <time>2013-07-28T06:14:44Z</time>
      </trkpt>
      <trkpt lat="44.32918" lon="6.13061">
        <ele>805.2414551</ele>
        <time>2013-07-28T06:14:50Z</time>
      </trkpt>
      <trkpt lat="44.32918" lon="6.1306">
        <ele>808.1254883</ele>
        <time>2013-07-28T06:14:59Z</time>
      </trkpt>
      <trkpt lat="44.32918" lon="6.13061">
        <ele>811.0092773</ele>
        <time>2013-07-28T06:15:06Z</time>
      </trkpt>
      <trkpt lat="44.32919" lon="6.13061">
        <ele>813.4128418</ele>
        <time>2013-07-28T06:15:16Z</time>
      </trkpt>
      <trkpt lat="44.32919" lon="6.1306">
        <ele>811.9707031</ele>
        <time>2013-07-28T06:15:23Z</time>
      </trkpt>
      <trkpt lat="44.32919" lon="6.1306">
        <ele>814.8547363</ele>
        <time>2013-07-28T06:15:25Z</time>
      </trkpt>
      <trkpt lat="44.32919" lon="6.1306">
        <ele>814.3740234</ele>
        <time>2013-07-28T06:15:30Z</time>
      </trkpt>
      <trkpt lat="44.32919" lon="6.13061">
        <ele>816.2966309</ele>
        <time>2013-07-28T06:15:32Z</time>
      </trkpt>
      <trkpt lat="44.32921" lon="6.13061">
        <ele>817.2580566</ele>
        <time>2013-07-28T06:16:56Z</time>
      </trkpt>
      <trkpt lat="44.32927" lon="6.13071">
        <ele>817.7385254</ele>
        <time>2013-07-28T06:17:01Z</time>
      </trkpt>
      <trkpt lat="44.32928" lon="6.13086">
        <ele>816.2966309</ele>
        <time>2013-07-28T06:17:05Z</time>
      </trkpt>
      <trkpt lat="44.32935" lon="6.1312">
        <ele>815.8161621</ele>
        <time>2013-07-28T06:17:12Z</time>
      </trkpt>
      <trkpt lat="44.32944" lon="6.13199">
        <ele>811.0092773</ele>
        <time>2013-07-28T06:17:21Z</time>
      </trkpt>
      <trkpt lat="44.32946" lon="6.1321">
        <ele>811.0092773</ele>
        <time>2013-07-28T06:17:22Z</time>
      </trkpt>
      <trkpt lat="44.32971" lon="6.13307">
        <ele>811.4899902</ele>
        <time>2013-07-28T06:17:34Z</time>
      </trkpt>
      <trkpt lat="44.32983" lon="6.13343">
        <ele>812.9321289</ele>
        <time>2013-07-28T06:17:45Z</time>
      </trkpt>
      <trkpt lat="44.32987" lon="6.1341">
        <ele>812.451416</ele>
        <time>2013-07-28T06:17:59Z</time>
      </trkpt>
      <trkpt lat="44.32972" lon="6.13447">
        <ele>813.4128418</ele>
        <time>2013-07-28T06:18:14Z</time>
      </trkpt>
      <trkpt lat="44.32941" lon="6.13474">
        <ele>813.4128418</ele>
        <time>2013-07-28T06:18:32Z</time>
      </trkpt>
      <trkpt lat="44.32922" lon="6.13493">
        <ele>813.4128418</ele>
        <time>2013-07-28T06:18:39Z</time>
      </trkpt>
      <trkpt lat="44.32902" lon="6.13514">
        <ele>814.3740234</ele>
        <time>2013-07-28T06:18:48Z</time>
      </trkpt>
      <trkpt lat="44.32879" lon="6.13545">
        <ele>815.8161621</ele>
        <time>2013-07-28T06:19:07Z</time>
      </trkpt>
      <trkpt lat="44.32863" lon="6.13568">
        <ele>817.7385254</ele>
        <time>2013-07-28T06:19:26Z</time>
      </trkpt>
      <trkpt lat="44.32852" lon="6.13582">
        <ele>819.1806641</ele>
        <time>2013-07-28T06:19:38Z</time>
      </trkpt>
      <trkpt lat="44.3285" lon="6.13586">
        <ele>819.1806641</ele>
        <time>2013-07-28T06:19:42Z</time>
      </trkpt>
      <trkpt lat="44.3285" lon="6.13586">
        <ele>820.6225586</ele>
        <time>2013-07-28T06:19:54Z</time>
      </trkpt>
      <trkpt lat="44.32837" lon="6.13614">
        <ele>823.5065918</ele>
        <time>2013-07-28T06:20:20Z</time>
      </trkpt>
      <trkpt lat="44.32814" lon="6.13655">
        <ele>825.909668</ele>
        <time>2013-07-28T06:20:41Z</time>
      </trkpt>
      <trkpt lat="44.32814" lon="6.13655">
        <ele>828.7939453</ele>
        <time>2013-07-28T06:21:03Z</time>
      </trkpt>
      <trkpt lat="44.32791" lon="6.13684">
        <ele>829.2744141</ele>
        <time>2013-07-28T06:21:10Z</time>
      </trkpt>
      <trkpt lat="44.32791" lon="6.13684">
        <ele>831.1972656</ele>
        <time>2013-07-28T06:21:26Z</time>
      </trkpt>
      <trkpt lat="44.32791" lon="6.13684">
        <ele>833.1196289</ele>
        <time>2013-07-28T06:21:43Z</time>
      </trkpt>
      <trkpt lat="44.32744" lon="6.13716">
        <ele>836.484375</ele>
        <time>2013-07-28T06:22:08Z</time>
      </trkpt>
      <trkpt lat="44.32724" lon="6.13727">
        <ele>836.9648438</ele>
        <time>2013-07-28T06:22:18Z</time>
      </trkpt>
      <trkpt lat="44.3271" lon="6.13738">
        <ele>837.9262695</ele>
        <time>2013-07-28T06:22:24Z</time>
      </trkpt>
      <trkpt lat="44.32702" lon="6.13747">
        <ele>839.848877</ele>
        <time>2013-07-28T06:22:41Z</time>
      </trkpt>
      <trkpt lat="44.32689" lon="6.13773">
        <ele>842.2521973</ele>
        <time>2013-07-28T06:23:04Z</time>
      </trkpt>
      <trkpt lat="44.32689" lon="6.13815">
        <ele>844.6555176</ele>
        <time>2013-07-28T06:23:28Z</time>
      </trkpt>
      <trkpt lat="44.32689" lon="6.13815">
        <ele>845.6169434</ele>
        <time>2013-07-28T06:23:35Z</time>
      </trkpt>
      <trkpt lat="44.32685" lon="6.1387">
        <ele>848.0202637</ele>
        <time>2013-07-28T06:23:58Z</time>
      </trkpt>
      <trkpt lat="44.32697" lon="6.13907">
        <ele>850.423584</ele>
        <time>2013-07-28T06:24:21Z</time>
      </trkpt>
      <trkpt lat="44.32696" lon="6.13948">
        <ele>852.8266602</ele>
        <time>2013-07-28T06:24:42Z</time>
      </trkpt>
      <trkpt lat="44.32696" lon="6.13949">
        <ele>853.307373</ele>
        <time>2013-07-28T06:24:48Z</time>
      </trkpt>
      <trkpt lat="44.32677" lon="6.1399">
        <ele>855.7106934</ele>
        <time>2013-07-28T06:25:13Z</time>
      </trkpt>
      <trkpt lat="44.32666" lon="6.13988">
        <ele>858.1140137</ele>
        <time>2013-07-28T06:25:33Z</time>
      </trkpt>
      <trkpt lat="44.32629" lon="6.13963">
        <ele>860.517334</ele>
        <time>2013-07-28T06:25:57Z</time>
      </trkpt>
      <trkpt lat="44.32625" lon="6.1396">
        <ele>860.9980469</ele>
        <time>2013-07-28T06:26:01Z</time>
      </trkpt>
      <trkpt lat="44.32602" lon="6.13943">
        <ele>863.4013672</ele>
        <time>2013-07-28T06:26:27Z</time>
      </trkpt>
      <trkpt lat="44.32595" lon="6.13938">
        <ele>864.8432617</ele>
        <time>2013-07-28T06:26:46Z</time>
      </trkpt>
      <trkpt lat="44.32549" lon="6.13929">
        <ele>867.7270508</ele>
        <time>2013-07-28T06:27:09Z</time>
      </trkpt>
      <trkpt lat="44.32534" lon="6.13938">
        <ele>868.6884766</ele>
        <time>2013-07-28T06:27:23Z</time>
      </trkpt>
      <trkpt lat="44.32525" lon="6.13935">
        <ele>871.0917969</ele>
        <time>2013-07-28T06:27:44Z</time>
      </trkpt>
      <trkpt lat="44.32494" lon="6.13897">
        <ele>873.9755859</ele>
        <time>2013-07-28T06:28:07Z</time>
      </trkpt>
      <trkpt lat="44.32477" lon="6.13887">
        <ele>874.9370117</ele>
        <time>2013-07-28T06:28:21Z</time>
      </trkpt>
      <trkpt lat="44.32452" lon="6.13906">
        <ele>877.3405762</ele>
        <time>2013-07-28T06:28:44Z</time>
      </trkpt>
      <trkpt lat="44.32448" lon="6.13908">
        <ele>877.3405762</ele>
        <time>2013-07-28T06:28:50Z</time>
      </trkpt>
      <trkpt lat="44.32429" lon="6.13907">
        <ele>880.2243652</ele>
        <time>2013-07-28T06:29:14Z</time>
      </trkpt>
      <trkpt lat="44.32429" lon="6.13907">
        <ele>880.2243652</ele>
        <time>2013-07-28T06:29:16Z</time>
      </trkpt>
      <trkpt lat="44.3241" lon="6.139">
        <ele>880.7050781</ele>
        <time>2013-07-28T06:29:22Z</time>
      </trkpt>
      <trkpt lat="44.3239" lon="6.13894">
        <ele>882.6276855</ele>
        <time>2013-07-28T06:29:43Z</time>
      </trkpt>
      <trkpt lat="44.32358" lon="6.13884">
        <ele>885.5114746</ele>
        <time>2013-07-28T06:30:08Z</time>
      </trkpt>
      <trkpt lat="44.32354" lon="6.13884">
        <ele>886.4729004</ele>
        <time>2013-07-28T06:30:20Z</time>
      </trkpt>
      <trkpt lat="44.32329" lon="6.13876">
        <ele>888.8762207</ele>
        <time>2013-07-28T06:30:40Z</time>
      </trkpt>
      <trkpt lat="44.32303" lon="6.13836">
        <ele>891.2792969</ele>
        <time>2013-07-28T06:31:01Z</time>
      </trkpt>
      <trkpt lat="44.32301" lon="6.13836">
        <ele>890.798584</ele>
        <time>2013-07-28T06:31:05Z</time>
      </trkpt>
      <trkpt lat="44.32263" lon="6.13839">
        <ele>891.7600098</ele>
        <time>2013-07-28T06:31:32Z</time>
      </trkpt>
      <trkpt lat="44.32245" lon="6.13842">
        <ele>893.6828613</ele>
        <time>2013-07-28T06:31:50Z</time>
      </trkpt>
      <trkpt lat="44.32236" lon="6.1384">
        <ele>895.1247559</ele>
        <time>2013-07-28T06:32:04Z</time>
      </trkpt>
      <trkpt lat="44.32236" lon="6.1384">
        <ele>898.0087891</ele>
        <time>2013-07-28T06:32:22Z</time>
      </trkpt>
      <trkpt lat="44.32236" lon="6.1384">
        <ele>901.373291</ele>
        <time>2013-07-28T06:32:43Z</time>
      </trkpt>
      <trkpt lat="44.32236" lon="6.1384">
        <ele>902.8151855</ele>
        <time>2013-07-28T06:32:59Z</time>
      </trkpt>
      <trkpt lat="44.32236" lon="6.1384">
        <ele>905.2185059</ele>
        <time>2013-07-28T06:33:12Z</time>
      </trkpt>
      <trkpt lat="44.32236" lon="6.1384">
        <ele>906.6604004</ele>
        <time>2013-07-28T06:33:27Z</time>
      </trkpt>
      <trkpt lat="44.32155" lon="6.13895">
        <ele>906.6604004</ele>
        <time>2013-07-28T06:33:30Z</time>
      </trkpt>
      <trkpt lat="44.3214" lon="6.13912">
        <ele>909.0639648</ele>
        <time>2013-07-28T06:33:49Z</time>
      </trkpt>
      <trkpt lat="44.32134" lon="6.13919">
        <ele>910.0251465</ele>
        <time>2013-07-28T06:33:56Z</time>
      </trkpt>
      <trkpt lat="44.3211" lon="6.13944">
        <ele>913.8703613</ele>
        <time>2013-07-28T06:34:20Z</time>
      </trkpt>
      <trkpt lat="44.32097" lon="6.13974">
        <ele>917.2351074</ele>
        <time>2013-07-28T06:34:41Z</time>
      </trkpt>
      <trkpt lat="44.32092" lon="6.14009">
        <ele>920.1188965</ele>
        <time>2013-07-28T06:35:06Z</time>
      </trkpt>
      <trkpt lat="44.3209" lon="6.1402">
        <ele>920.5996094</ele>
        <time>2013-07-28T06:35:13Z</time>
      </trkpt>
      <trkpt lat="44.32084" lon="6.14055">
        <ele>923.9641113</ele>
        <time>2013-07-28T06:35:36Z</time>
      </trkpt>
      <trkpt lat="44.32078" lon="6.14088">
        <ele>926.8483887</ele>
        <time>2013-07-28T06:35:58Z</time>
      </trkpt>
      <trkpt lat="44.3207" lon="6.14122">
        <ele>929.7321777</ele>
        <time>2013-07-28T06:36:21Z</time>
      </trkpt>
      <trkpt lat="44.32047" lon="6.1415">
        <ele>932.135498</ele>
        <time>2013-07-28T06:36:47Z</time>
      </trkpt>
      <trkpt lat="44.32042" lon="6.14156">
        <ele>933.0966797</ele>
        <time>2013-07-28T06:36:53Z</time>
      </trkpt>
      <trkpt lat="44.32021" lon="6.14174">
        <ele>935.5</ele>
        <time>2013-07-28T06:37:17Z</time>
      </trkpt>
      <trkpt lat="44.31998" lon="6.14196">
        <ele>939.3452148</ele>
        <time>2013-07-28T06:37:41Z</time>
      </trkpt>
      <trkpt lat="44.31995" lon="6.14228">
        <ele>941.2680664</ele>
        <time>2013-07-28T06:38:03Z</time>
      </trkpt>
      <trkpt lat="44.31995" lon="6.14235">
        <ele>942.2294922</ele>
        <time>2013-07-28T06:38:08Z</time>
      </trkpt>
      <trkpt lat="44.31986" lon="6.14254">
        <ele>944.1520996</ele>
        <time>2013-07-28T06:38:22Z</time>
      </trkpt>
      <trkpt lat="44.31985" lon="6.14256">
        <ele>944.1520996</ele>
        <time>2013-07-28T06:38:24Z</time>
      </trkpt>
      <trkpt lat="44.31967" lon="6.14287">
        <ele>947.5166016</ele>
        <time>2013-07-28T06:38:48Z</time>
      </trkpt>
      <trkpt lat="44.31949" lon="6.14316">
        <ele>950.4006348</ele>
        <time>2013-07-28T06:39:14Z</time>
      </trkpt>
      <trkpt lat="44.31935" lon="6.1435">
        <ele>953.2844238</ele>
        <time>2013-07-28T06:39:39Z</time>
      </trkpt>
      <trkpt lat="44.3193" lon="6.14367">
        <ele>954.7263184</ele>
        <time>2013-07-28T06:39:51Z</time>
      </trkpt>
      <trkpt lat="44.31916" lon="6.14391">
        <ele>958.0913086</ele>
        <time>2013-07-28T06:40:12Z</time>
      </trkpt>
      <trkpt lat="44.31911" lon="6.14399">
        <ele>958.5717773</ele>
        <time>2013-07-28T06:40:19Z</time>
      </trkpt>
      <trkpt lat="44.31908" lon="6.14401">
        <ele>959.0524902</ele>
        <time>2013-07-28T06:40:22Z</time>
      </trkpt>
      <trkpt lat="44.31892" lon="6.14429">
        <ele>961.9365234</ele>
        <time>2013-07-28T06:40:46Z</time>
      </trkpt>
      <trkpt lat="44.31882" lon="6.14452">
        <ele>964.3395996</ele>
        <time>2013-07-28T06:41:04Z</time>
      </trkpt>
      <trkpt lat="44.31873" lon="6.14468">
        <ele>965.7817383</ele>
        <time>2013-07-28T06:41:17Z</time>
      </trkpt>
      <trkpt lat="44.31871" lon="6.14472">
        <ele>965.7817383</ele>
        <time>2013-07-28T06:41:20Z</time>
      </trkpt>
      <trkpt lat="44.31869" lon="6.14475">
        <ele>966.262207</ele>
        <time>2013-07-28T06:41:22Z</time>
      </trkpt>
      <trkpt lat="44.31853" lon="6.14504">
        <ele>969.6269531</ele>
        <time>2013-07-28T06:41:45Z</time>
      </trkpt>
      <trkpt lat="44.31836" lon="6.14535">
        <ele>972.9916992</ele>
        <time>2013-07-28T06:42:10Z</time>
      </trkpt>
      <trkpt lat="44.31826" lon="6.14551">
        <ele>974.4335938</ele>
        <time>2013-07-28T06:42:23Z</time>
      </trkpt>
      <trkpt lat="44.31803" lon="6.14582">
        <ele>978.7595215</ele>
        <time>2013-07-28T06:42:51Z</time>
      </trkpt>
      <trkpt lat="44.31803" lon="6.14583">
        <ele>978.7595215</ele>
        <time>2013-07-28T06:42:52Z</time>
      </trkpt>
      <trkpt lat="44.31789" lon="6.14615">
        <ele>981.6433105</ele>
        <time>2013-07-28T06:43:17Z</time>
      </trkpt>
      <trkpt lat="44.31798" lon="6.1462">
        <ele>982.6047363</ele>
        <time>2013-07-28T06:43:26Z</time>
      </trkpt>
      <trkpt lat="44.31824" lon="6.14587">
        <ele>985.9692383</ele>
        <time>2013-07-28T06:43:54Z</time>
      </trkpt>
      <trkpt lat="44.31848" lon="6.14568">
        <ele>988.3728027</ele>
        <time>2013-07-28T06:44:18Z</time>
      </trkpt>
      <trkpt lat="44.31849" lon="6.14568">
        <ele>988.3728027</ele>
        <time>2013-07-28T06:44:19Z</time>
      </trkpt>
      <trkpt lat="44.31869" lon="6.14545">
        <ele>991.7373047</ele>
        <time>2013-07-28T06:44:42Z</time>
      </trkpt>
      <trkpt lat="44.31893" lon="6.14514">
        <ele>995.1018066</ele>
        <time>2013-07-28T06:45:10Z</time>
      </trkpt>
      <trkpt lat="44.31915" lon="6.14487">
        <ele>997.505127</ele>
        <time>2013-07-28T06:45:35Z</time>
      </trkpt>
      <trkpt lat="44.31916" lon="6.14486">
        <ele>997.505127</ele>
        <time>2013-07-28T06:45:36Z</time>
      </trkpt>
      <trkpt lat="44.31937" lon="6.14468">
        <ele>999.4277344</ele>
        <time>2013-07-28T06:45:56Z</time>
      </trkpt>
      <trkpt lat="44.3196" lon="6.14445">
        <ele>1002.3115234</ele>
        <time>2013-07-28T06:46:24Z</time>
      </trkpt>
      <trkpt lat="44.31991" lon="6.14422">
        <ele>1004.2346191</ele>
        <time>2013-07-28T06:46:52Z</time>
      </trkpt>
      <trkpt lat="44.32009" lon="6.144">
        <ele>1005.6765137</ele>
        <time>2013-07-28T06:47:13Z</time>
      </trkpt>
      <trkpt lat="44.32022" lon="6.14385">
        <ele>1006.1569824</ele>
        <time>2013-07-28T06:47:26Z</time>
      </trkpt>
      <trkpt lat="44.32043" lon="6.14357">
        <ele>1008.5603027</ele>
        <time>2013-07-28T06:47:48Z</time>
      </trkpt>
      <trkpt lat="44.32052" lon="6.14366">
        <ele>1009.0410156</ele>
        <time>2013-07-28T06:47:57Z</time>
      </trkpt>
      <trkpt lat="44.32031" lon="6.14402">
        <ele>1011.9250488</ele>
        <time>2013-07-28T06:48:21Z</time>
      </trkpt>
      <trkpt lat="44.32" lon="6.14439">
        <ele>1014.8088379</ele>
        <time>2013-07-28T06:48:51Z</time>
      </trkpt>
      <trkpt lat="44.31982" lon="6.14458">
        <ele>1015.7702637</ele>
        <time>2013-07-28T06:49:07Z</time>
      </trkpt>
      <trkpt lat="44.31961" lon="6.14479">
        <ele>1018.1733398</ele>
        <time>2013-07-28T06:49:27Z</time>
      </trkpt>
      <trkpt lat="44.31939" lon="6.14511">
        <ele>1021.0576172</ele>
        <time>2013-07-28T06:49:54Z</time>
      </trkpt>
      <trkpt lat="44.31925" lon="6.1454">
        <ele>1022.4995117</ele>
        <time>2013-07-28T06:50:15Z</time>
      </trkpt>
      <trkpt lat="44.31912" lon="6.14564">
        <ele>1023.9414063</ele>
        <time>2013-07-28T06:50:32Z</time>
      </trkpt>
      <trkpt lat="44.31907" lon="6.14608">
        <ele>1025.8640137</ele>
        <time>2013-07-28T06:50:58Z</time>
      </trkpt>
      <trkpt lat="44.31905" lon="6.14645">
        <ele>1027.3061523</ele>
        <time>2013-07-28T06:51:20Z</time>
      </trkpt>
      <trkpt lat="44.31899" lon="6.14695">
        <ele>1029.7092285</ele>
        <time>2013-07-28T06:51:48Z</time>
      </trkpt>
      <trkpt lat="44.31891" lon="6.1473">
        <ele>1032.5932617</ele>
        <time>2013-07-28T06:52:09Z</time>
      </trkpt>
      <trkpt lat="44.31866" lon="6.14736">
        <ele>1035.4770508</ele>
        <time>2013-07-28T06:52:32Z</time>
      </trkpt>
      <trkpt lat="44.31842" lon="6.14732">
        <ele>1037.3999023</ele>
        <time>2013-07-28T06:52:52Z</time>
      </trkpt>
      <trkpt lat="44.31821" lon="6.14731">
        <ele>1039.8032227</ele>
        <time>2013-07-28T06:53:08Z</time>
      </trkpt>
      <trkpt lat="44.31795" lon="6.14752">
        <ele>1042.206543</ele>
        <time>2013-07-28T06:53:35Z</time>
      </trkpt>
      <trkpt lat="44.31794" lon="6.14751">
        <ele>1042.6872559</ele>
        <time>2013-07-28T06:54:16Z</time>
      </trkpt>
      <trkpt lat="44.31794" lon="6.14752">
        <ele>1041.7258301</ele>
        <time>2013-07-28T06:54:25Z</time>
      </trkpt>
      <trkpt lat="44.31793" lon="6.14761">
        <ele>1044.1291504</ele>
        <time>2013-07-28T06:54:30Z</time>
      </trkpt>
      <trkpt lat="44.31782" lon="6.14788">
        <ele>1043.6484375</ele>
        <time>2013-07-28T06:54:46Z</time>
      </trkpt>
      <trkpt lat="44.31779" lon="6.14793">
        <ele>1046.0517578</ele>
        <time>2013-07-28T06:54:50Z</time>
      </trkpt>
      <trkpt lat="44.31756" lon="6.14818">
        <ele>1047.9743652</ele>
        <time>2013-07-28T06:55:13Z</time>
      </trkpt>
      <trkpt lat="44.31745" lon="6.14831">
        <ele>1050.8581543</ele>
        <time>2013-07-28T06:55:25Z</time>
      </trkpt>
      <trkpt lat="44.31737" lon="6.14842">
        <ele>1051.3388672</ele>
        <time>2013-07-28T06:55:34Z</time>
      </trkpt>
      <trkpt lat="44.31708" lon="6.14865">
        <ele>1053.7424316</ele>
        <time>2013-07-28T06:56:01Z</time>
      </trkpt>
      <trkpt lat="44.31684" lon="6.14883">
        <ele>1056.1455078</ele>
        <time>2013-07-28T06:56:23Z</time>
      </trkpt>
      <trkpt lat="44.31663" lon="6.14907">
        <ele>1058.5488281</ele>
        <time>2013-07-28T06:56:46Z</time>
      </trkpt>
      <trkpt lat="44.31634" lon="6.14929">
        <ele>1060.9521484</ele>
        <time>2013-07-28T06:57:14Z</time>
      </trkpt>
      <trkpt lat="44.3161" lon="6.14929">
        <ele>1063.8359375</ele>
        <time>2013-07-28T06:57:35Z</time>
      </trkpt>
      <trkpt lat="44.31584" lon="6.14943">
        <ele>1066.7199707</ele>
        <time>2013-07-28T06:58:00Z</time>
      </trkpt>
      <trkpt lat="44.31578" lon="6.14953">
        <ele>1067.6811523</ele>
        <time>2013-07-28T06:58:07Z</time>
      </trkpt>
      <trkpt lat="44.31575" lon="6.14959">
        <ele>1068.1621094</ele>
        <time>2013-07-28T06:58:12Z</time>
      </trkpt>
      <trkpt lat="44.31572" lon="6.14968">
        <ele>1069.1235352</ele>
        <time>2013-07-28T06:58:18Z</time>
      </trkpt>
      <trkpt lat="44.31573" lon="6.14982">
        <ele>1070.0847168</ele>
        <time>2013-07-28T06:58:26Z</time>
      </trkpt>
      <trkpt lat="44.31576" lon="6.15025">
        <ele>1073.4494629</ele>
        <time>2013-07-28T06:58:52Z</time>
      </trkpt>
      <trkpt lat="44.31576" lon="6.15036">
        <ele>1074.4106445</ele>
        <time>2013-07-28T06:58:59Z</time>
      </trkpt>
      <trkpt lat="44.31578" lon="6.15066">
        <ele>1076.8139648</ele>
        <time>2013-07-28T06:59:19Z</time>
      </trkpt>
      <trkpt lat="44.31584" lon="6.15108">
        <ele>1079.6977539</ele>
        <time>2013-07-28T06:59:45Z</time>
      </trkpt>
      <trkpt lat="44.31579" lon="6.15143">
        <ele>1082.5817871</ele>
        <time>2013-07-28T07:00:07Z</time>
      </trkpt>
      <trkpt lat="44.31564" lon="6.15171">
        <ele>1085.9465332</ele>
        <time>2013-07-28T07:00:30Z</time>
      </trkpt>
      <trkpt lat="44.31546" lon="6.15207">
        <ele>1089.3110352</ele>
        <time>2013-07-28T07:00:57Z</time>
      </trkpt>
      <trkpt lat="44.31527" lon="6.15233">
        <ele>1092.6757813</ele>
        <time>2013-07-28T07:01:21Z</time>
      </trkpt>
      <trkpt lat="44.31524" lon="6.15238">
        <ele>1092.6757813</ele>
        <time>2013-07-28T07:01:25Z</time>
      </trkpt>
      <trkpt lat="44.31503" lon="6.15264">
        <ele>1096.0402832</ele>
        <time>2013-07-28T07:01:51Z</time>
      </trkpt>
      <trkpt lat="44.31489" lon="6.15284">
        <ele>1097.9628906</ele>
        <time>2013-07-28T07:02:10Z</time>
      </trkpt>
      <trkpt lat="44.31466" lon="6.1529">
        <ele>1100.8469238</ele>
        <time>2013-07-28T07:02:34Z</time>
      </trkpt>
      <trkpt lat="44.31461" lon="6.15291">
        <ele>1101.8083496</ele>
        <time>2013-07-28T07:02:39Z</time>
      </trkpt>
      <trkpt lat="44.31443" lon="6.15288">
        <ele>1104.2116699</ele>
        <time>2013-07-28T07:02:55Z</time>
      </trkpt>
      <trkpt lat="44.31433" lon="6.15296">
        <ele>1105.1728516</ele>
        <time>2013-07-28T07:03:04Z</time>
      </trkpt>
      <trkpt lat="44.31405" lon="6.1531">
        <ele>1108.0568848</ele>
        <time>2013-07-28T07:03:29Z</time>
      </trkpt>
      <trkpt lat="44.31387" lon="6.15329">
        <ele>1110.9406738</ele>
        <time>2013-07-28T07:03:49Z</time>
      </trkpt>
      <trkpt lat="44.31372" lon="6.15343">
        <ele>1112.8632813</ele>
        <time>2013-07-28T07:04:05Z</time>
      </trkpt>
      <trkpt lat="44.31364" lon="6.1535">
        <ele>1114.3051758</ele>
        <time>2013-07-28T07:04:14Z</time>
      </trkpt>
      <trkpt lat="44.31345" lon="6.15371">
        <ele>1116.7087402</ele>
        <time>2013-07-28T07:04:36Z</time>
      </trkpt>
      <trkpt lat="44.31318" lon="6.1537">
        <ele>1119.5927734</ele>
        <time>2013-07-28T07:05:00Z</time>
      </trkpt>
      <trkpt lat="44.31307" lon="6.15393">
        <ele>1122.4765625</ele>
        <time>2013-07-28T07:05:19Z</time>
      </trkpt>
      <trkpt lat="44.31307" lon="6.15394">
        <ele>1122.4765625</ele>
        <time>2013-07-28T07:05:20Z</time>
      </trkpt>
      <trkpt lat="44.31318" lon="6.15428">
        <ele>1124.3991699</ele>
        <time>2013-07-28T07:05:42Z</time>
      </trkpt>
      <trkpt lat="44.31318" lon="6.1543">
        <ele>1124.3991699</ele>
        <time>2013-07-28T07:05:43Z</time>
      </trkpt>
      <trkpt lat="44.31321" lon="6.15447">
        <ele>1125.8410645</ele>
        <time>2013-07-28T07:05:55Z</time>
      </trkpt>
      <trkpt lat="44.3132" lon="6.15455">
        <ele>1125.8410645</ele>
        <time>2013-07-28T07:06:00Z</time>
      </trkpt>
      <trkpt lat="44.31315" lon="6.15459">
        <ele>1126.3217773</ele>
        <time>2013-07-28T07:06:05Z</time>
      </trkpt>
      <trkpt lat="44.31313" lon="6.1546">
        <ele>1126.8024902</ele>
        <time>2013-07-28T07:06:08Z</time>
      </trkpt>
      <trkpt lat="44.31297" lon="6.15447">
        <ele>1128.7250977</ele>
        <time>2013-07-28T07:06:25Z</time>
      </trkpt>
      <trkpt lat="44.31293" lon="6.15434">
        <ele>1130.1669922</ele>
        <time>2013-07-28T07:06:33Z</time>
      </trkpt>
      <trkpt lat="44.31284" lon="6.15403">
        <ele>1131.6088867</ele>
        <time>2013-07-28T07:06:53Z</time>
      </trkpt>
      <trkpt lat="44.31282" lon="6.15391">
        <ele>1132.5705566</ele>
        <time>2013-07-28T07:07:01Z</time>
      </trkpt>
      <trkpt lat="44.31272" lon="6.15384">
        <ele>1133.5317383</ele>
        <time>2013-07-28T07:07:10Z</time>
      </trkpt>
      <trkpt lat="44.31264" lon="6.15392">
        <ele>1134.0124512</ele>
        <time>2013-07-28T07:07:17Z</time>
      </trkpt>
      <trkpt lat="44.31264" lon="6.15399">
        <ele>1134.4931641</ele>
        <time>2013-07-28T07:07:21Z</time>
      </trkpt>
      <trkpt lat="44.31268" lon="6.1543">
        <ele>1135.9350586</ele>
        <time>2013-07-28T07:07:40Z</time>
      </trkpt>
      <trkpt lat="44.31258" lon="6.15459">
        <ele>1137.857666</ele>
        <time>2013-07-28T07:07:59Z</time>
      </trkpt>
      <trkpt lat="44.31251" lon="6.15467">
        <ele>1138.8190918</ele>
        <time>2013-07-28T07:08:06Z</time>
      </trkpt>
      <trkpt lat="44.31218" lon="6.15485">
        <ele>1142.1835938</ele>
        <time>2013-07-28T07:08:36Z</time>
      </trkpt>
      <trkpt lat="44.31215" lon="6.15486">
        <ele>1142.1835938</ele>
        <time>2013-07-28T07:08:39Z</time>
      </trkpt>
      <trkpt lat="44.31188" lon="6.15487">
        <ele>1145.0673828</ele>
        <time>2013-07-28T07:09:03Z</time>
      </trkpt>
      <trkpt lat="44.31179" lon="6.15462">
        <ele>1147.4707031</ele>
        <time>2013-07-28T07:09:21Z</time>
      </trkpt>
      <trkpt lat="44.3118" lon="6.15456">
        <ele>1147.951416</ele>
        <time>2013-07-28T07:09:24Z</time>
      </trkpt>
      <trkpt lat="44.31192" lon="6.15437">
        <ele>1149.8742676</ele>
        <time>2013-07-28T07:09:39Z</time>
      </trkpt>
      <trkpt lat="44.31202" lon="6.15408">
        <ele>1151.3161621</ele>
        <time>2013-07-28T07:09:57Z</time>
      </trkpt>
      <trkpt lat="44.31205" lon="6.15399">
        <ele>1151.796875</ele>
        <time>2013-07-28T07:10:03Z</time>
      </trkpt>
      <trkpt lat="44.31221" lon="6.15368">
        <ele>1155.161377</ele>
        <time>2013-07-28T07:10:25Z</time>
      </trkpt>
      <trkpt lat="44.31226" lon="6.15357">
        <ele>1154.6806641</ele>
        <time>2013-07-28T07:10:33Z</time>
      </trkpt>
      <trkpt lat="44.31235" lon="6.15337">
        <ele>1156.1225586</ele>
        <time>2013-07-28T07:10:48Z</time>
      </trkpt>
      <trkpt lat="44.31235" lon="6.15329">
        <ele>1157.0839844</ele>
        <time>2013-07-28T07:10:53Z</time>
      </trkpt>
      <trkpt lat="44.31231" lon="6.15324">
        <ele>1157.5646973</ele>
        <time>2013-07-28T07:10:58Z</time>
      </trkpt>
      <trkpt lat="44.31225" lon="6.15325">
        <ele>1158.0454102</ele>
        <time>2013-07-28T07:11:03Z</time>
      </trkpt>
      <trkpt lat="44.31219" lon="6.15334">
        <ele>1158.5258789</ele>
        <time>2013-07-28T07:11:10Z</time>
      </trkpt>
      <trkpt lat="44.3121" lon="6.15344">
        <ele>1159.9677734</ele>
        <time>2013-07-28T07:11:20Z</time>
      </trkpt>
      <trkpt lat="44.31208" lon="6.1535">
        <ele>1159.9677734</ele>
        <time>2013-07-28T07:11:24Z</time>
      </trkpt>
      <trkpt lat="44.31187" lon="6.15385">
        <ele>1162.3710938</ele>
        <time>2013-07-28T07:11:50Z</time>
      </trkpt>
      <trkpt lat="44.31172" lon="6.154">
        <ele>1165.2553711</ele>
        <time>2013-07-28T07:12:07Z</time>
      </trkpt>
      <trkpt lat="44.31156" lon="6.1542">
        <ele>1167.6584473</ele>
        <time>2013-07-28T07:12:26Z</time>
      </trkpt>
      <trkpt lat="44.31141" lon="6.15427">
        <ele>1169.5812988</ele>
        <time>2013-07-28T07:12:39Z</time>
      </trkpt>
      <trkpt lat="44.31122" lon="6.1542">
        <ele>1171.984375</ele>
        <time>2013-07-28T07:12:58Z</time>
      </trkpt>
      <trkpt lat="44.3112" lon="6.15418">
        <ele>1172.4650879</ele>
        <time>2013-07-28T07:13:00Z</time>
      </trkpt>
      <trkpt lat="44.31094" lon="6.15403">
        <ele>1174.8684082</ele>
        <time>2013-07-28T07:13:24Z</time>
      </trkpt>
      <trkpt lat="44.3109" lon="6.15399">
        <ele>1175.8295898</ele>
        <time>2013-07-28T07:13:29Z</time>
      </trkpt>
      <trkpt lat="44.31079" lon="6.15393">
        <ele>1176.7910156</ele>
        <time>2013-07-28T07:13:39Z</time>
      </trkpt>
      <trkpt lat="44.31074" lon="6.15395">
        <ele>1177.7521973</ele>
        <time>2013-07-28T07:13:45Z</time>
      </trkpt>
      <trkpt lat="44.31053" lon="6.15419">
        <ele>1181.1171875</ele>
        <time>2013-07-28T07:14:07Z</time>
      </trkpt>
      <trkpt lat="44.31044" lon="6.15419">
        <ele>1182.0783691</ele>
        <time>2013-07-28T07:14:15Z</time>
      </trkpt>
      <trkpt lat="44.31019" lon="6.15415">
        <ele>1184.4816895</ele>
        <time>2013-07-28T07:14:36Z</time>
      </trkpt>
      <trkpt lat="44.31013" lon="6.15416">
        <ele>1184.9624023</ele>
        <time>2013-07-28T07:14:41Z</time>
      </trkpt>
      <trkpt lat="44.31006" lon="6.15414">
        <ele>1185.923584</ele>
        <time>2013-07-28T07:14:47Z</time>
      </trkpt>
      <trkpt lat="44.31003" lon="6.15415">
        <ele>1185.923584</ele>
        <time>2013-07-28T07:14:49Z</time>
      </trkpt>
      <trkpt lat="44.30986" lon="6.15413">
        <ele>1187.8461914</ele>
        <time>2013-07-28T07:15:03Z</time>
      </trkpt>
      <trkpt lat="44.30958" lon="6.15411">
        <ele>1191.2106934</ele>
        <time>2013-07-28T07:15:26Z</time>
      </trkpt>
      <trkpt lat="44.30952" lon="6.15409">
        <ele>1192.1721191</ele>
        <time>2013-07-28T07:15:41Z</time>
      </trkpt>
      <trkpt lat="44.30947" lon="6.15409">
        <ele>1192.652832</ele>
        <time>2013-07-28T07:15:59Z</time>
      </trkpt>
      <trkpt lat="44.30947" lon="6.15408">
        <ele>1191.6914063</ele>
        <time>2013-07-28T07:16:14Z</time>
      </trkpt>
      <trkpt lat="44.30936" lon="6.154">
        <ele>1194.5751953</ele>
        <time>2013-07-28T07:16:25Z</time>
      </trkpt>
      <trkpt lat="44.30933" lon="6.15397">
        <ele>1195.0559082</ele>
        <time>2013-07-28T07:16:28Z</time>
      </trkpt>
      <trkpt lat="44.30919" lon="6.1538">
        <ele>1196.498291</ele>
        <time>2013-07-28T07:16:47Z</time>
      </trkpt>
      <trkpt lat="44.30898" lon="6.15349">
        <ele>1198.4206543</ele>
        <time>2013-07-28T07:17:13Z</time>
      </trkpt>
      <trkpt lat="44.30896" lon="6.15347">
        <ele>1198.4206543</ele>
        <time>2013-07-28T07:17:15Z</time>
      </trkpt>
      <trkpt lat="44.30891" lon="6.15338">
        <ele>1198.9013672</ele>
        <time>2013-07-28T07:17:23Z</time>
      </trkpt>
      <trkpt lat="44.30889" lon="6.15335">
        <ele>1199.3820801</ele>
        <time>2013-07-28T07:17:26Z</time>
      </trkpt>
      <trkpt lat="44.30886" lon="6.15331">
        <ele>1199.3820801</ele>
        <time>2013-07-28T07:17:30Z</time>
      </trkpt>
      <trkpt lat="44.30875" lon="6.1533">
        <ele>1200.8239746</ele>
        <time>2013-07-28T07:17:50Z</time>
      </trkpt>
      <trkpt lat="44.30875" lon="6.1533">
        <ele>1202.746582</ele>
        <time>2013-07-28T07:18:07Z</time>
      </trkpt>
      <trkpt lat="44.30875" lon="6.15332">
        <ele>1202.746582</ele>
        <time>2013-07-28T07:18:11Z</time>
      </trkpt>
      <trkpt lat="44.30895" lon="6.15372">
        <ele>1203.2272949</ele>
        <time>2013-07-28T07:18:32Z</time>
      </trkpt>
      <trkpt lat="44.30906" lon="6.15403">
        <ele>1205.1499023</ele>
        <time>2013-07-28T07:18:47Z</time>
      </trkpt>
      <trkpt lat="44.3092" lon="6.15442">
        <ele>1206.111084</ele>
        <time>2013-07-28T07:19:07Z</time>
      </trkpt>
      <trkpt lat="44.30931" lon="6.15477">
        <ele>1208.0339355</ele>
        <time>2013-07-28T07:19:24Z</time>
      </trkpt>
      <trkpt lat="44.30932" lon="6.1553">
        <ele>1209.4758301</ele>
        <time>2013-07-28T07:19:48Z</time>
      </trkpt>
      <trkpt lat="44.3091" lon="6.15585">
        <ele>1209.9562988</ele>
        <time>2013-07-28T07:20:13Z</time>
      </trkpt>
      <trkpt lat="44.30888" lon="6.1563">
        <ele>1211.3984375</ele>
        <time>2013-07-28T07:20:35Z</time>
      </trkpt>
      <trkpt lat="44.30868" lon="6.1568">
        <ele>1214.2824707</ele>
        <time>2013-07-28T07:21:00Z</time>
      </trkpt>
      <trkpt lat="44.30857" lon="6.15723">
        <ele>1216.2050781</ele>
        <time>2013-07-28T07:21:20Z</time>
      </trkpt>
      <trkpt lat="44.30841" lon="6.1577">
        <ele>1215.7246094</ele>
        <time>2013-07-28T07:21:40Z</time>
      </trkpt>
      <trkpt lat="44.3082" lon="6.15831">
        <ele>1214.2824707</ele>
        <time>2013-07-28T07:21:54Z</time>
      </trkpt>
      <trkpt lat="44.30819" lon="6.15885">
        <ele>1212.3598633</ele>
        <time>2013-07-28T07:22:05Z</time>
      </trkpt>
      <trkpt lat="44.30823" lon="6.15895">
        <ele>1211.8791504</ele>
        <time>2013-07-28T07:22:10Z</time>
      </trkpt>
      <trkpt lat="44.30821" lon="6.15905">
        <ele>1212.3598633</ele>
        <time>2013-07-28T07:22:15Z</time>
      </trkpt>
      <trkpt lat="44.30818" lon="6.15908">
        <ele>1212.8405762</ele>
        <time>2013-07-28T07:22:28Z</time>
      </trkpt>
      <trkpt lat="44.30818" lon="6.15908">
        <ele>1212.8405762</ele>
        <time>2013-07-28T07:22:37Z</time>
      </trkpt>
      <trkpt lat="44.30818" lon="6.15908">
        <ele>1213.8017578</ele>
        <time>2013-07-28T07:22:55Z</time>
      </trkpt>
      <trkpt lat="44.30818" lon="6.15908">
        <ele>1214.7631836</ele>
        <time>2013-07-28T07:23:14Z</time>
      </trkpt>
      <trkpt lat="44.30818" lon="6.15908">
        <ele>1214.7631836</ele>
        <time>2013-07-28T07:23:33Z</time>
      </trkpt>
      <trkpt lat="44.30818" lon="6.15908">
        <ele>1213.3212891</ele>
        <time>2013-07-28T07:23:45Z</time>
      </trkpt>
      <trkpt lat="44.30818" lon="6.15908">
        <ele>1213.3212891</ele>
        <time>2013-07-28T07:24:50Z</time>
      </trkpt>
      <trkpt lat="44.30818" lon="6.15908">
        <ele>1213.8017578</ele>
        <time>2013-07-28T07:26:26Z</time>
      </trkpt>
      <trkpt lat="44.30818" lon="6.15908">
        <ele>1214.2824707</ele>
        <time>2013-07-28T07:26:53Z</time>
      </trkpt>
      <trkpt lat="44.30801" lon="6.15924">
        <ele>1214.7631836</ele>
        <time>2013-07-28T07:27:08Z</time>
      </trkpt>
      <trkpt lat="44.30776" lon="6.15947">
        <ele>1217.1665039</ele>
        <time>2013-07-28T07:27:26Z</time>
      </trkpt>
      <trkpt lat="44.30757" lon="6.15962">
        <ele>1219.0891113</ele>
        <time>2013-07-28T07:27:45Z</time>
      </trkpt>
      <trkpt lat="44.30757" lon="6.15962">
        <ele>1219.0891113</ele>
        <time>2013-07-28T07:27:56Z</time>
      </trkpt>
      <trkpt lat="44.30746" lon="6.15989">
        <ele>1219.5698242</ele>
        <time>2013-07-28T07:28:04Z</time>
      </trkpt>
      <trkpt lat="44.30742" lon="6.16005">
        <ele>1220.050293</ele>
        <time>2013-07-28T07:28:11Z</time>
      </trkpt>
      <trkpt lat="44.30728" lon="6.1602">
        <ele>1221.9729004</ele>
        <time>2013-07-28T07:28:26Z</time>
      </trkpt>
      <trkpt lat="44.30728" lon="6.1602">
        <ele>1222.4536133</ele>
        <time>2013-07-28T07:28:38Z</time>
      </trkpt>
      <trkpt lat="44.30728" lon="6.1602">
        <ele>1223.8955078</ele>
        <time>2013-07-28T07:28:54Z</time>
      </trkpt>
      <trkpt lat="44.30703" lon="6.16035">
        <ele>1225.3374023</ele>
        <time>2013-07-28T07:29:06Z</time>
      </trkpt>
      <trkpt lat="44.30687" lon="6.16063">
        <ele>1226.2988281</ele>
        <time>2013-07-28T07:29:21Z</time>
      </trkpt>
      <trkpt lat="44.30668" lon="6.16076">
        <ele>1227.7407227</ele>
        <time>2013-07-28T07:29:38Z</time>
      </trkpt>
      <trkpt lat="44.30665" lon="6.16077">
        <ele>1228.2216797</ele>
        <time>2013-07-28T07:29:40Z</time>
      </trkpt>
      <trkpt lat="44.30643" lon="6.16095">
        <ele>1229.6635742</ele>
        <time>2013-07-28T07:29:54Z</time>
      </trkpt>
      <trkpt lat="44.30627" lon="6.16118">
        <ele>1232.5476074</ele>
        <time>2013-07-28T07:30:12Z</time>
      </trkpt>
      <trkpt lat="44.30607" lon="6.16134">
        <ele>1234.9509277</ele>
        <time>2013-07-28T07:30:29Z</time>
      </trkpt>
      <trkpt lat="44.30596" lon="6.16141">
        <ele>1235.4313965</ele>
        <time>2013-07-28T07:30:37Z</time>
      </trkpt>
      <trkpt lat="44.30576" lon="6.16152">
        <ele>1236.873291</ele>
        <time>2013-07-28T07:30:54Z</time>
      </trkpt>
      <trkpt lat="44.3055" lon="6.16163">
        <ele>1239.2766113</ele>
        <time>2013-07-28T07:31:12Z</time>
      </trkpt>
      <trkpt lat="44.30519" lon="6.16195">
        <ele>1241.1992188</ele>
        <time>2013-07-28T07:31:34Z</time>
      </trkpt>
      <trkpt lat="44.30504" lon="6.16226">
        <ele>1242.6413574</ele>
        <time>2013-07-28T07:31:54Z</time>
      </trkpt>
      <trkpt lat="44.305" lon="6.16234">
        <ele>1243.1218262</ele>
        <time>2013-07-28T07:31:59Z</time>
      </trkpt>
      <trkpt lat="44.30498" lon="6.1624">
        <ele>1243.6025391</ele>
        <time>2013-07-28T07:32:03Z</time>
      </trkpt>
      <trkpt lat="44.3048" lon="6.16272">
        <ele>1246.4868164</ele>
        <time>2013-07-28T07:32:24Z</time>
      </trkpt>
      <trkpt lat="44.30477" lon="6.16277">
        <ele>1246.4868164</ele>
        <time>2013-07-28T07:32:28Z</time>
      </trkpt>
      <trkpt lat="44.30474" lon="6.16282">
        <ele>1246.9672852</ele>
        <time>2013-07-28T07:32:33Z</time>
      </trkpt>
      <trkpt lat="44.3046" lon="6.16302">
        <ele>1248.4091797</ele>
        <time>2013-07-28T07:32:47Z</time>
      </trkpt>
      <trkpt lat="44.30453" lon="6.16319">
        <ele>1249.8513184</ele>
        <time>2013-07-28T07:32:58Z</time>
      </trkpt>
      <trkpt lat="44.30443" lon="6.16361">
        <ele>1253.2158203</ele>
        <time>2013-07-28T07:33:23Z</time>
      </trkpt>
      <trkpt lat="44.30442" lon="6.16366">
        <ele>1254.1772461</ele>
        <time>2013-07-28T07:33:26Z</time>
      </trkpt>
      <trkpt lat="44.30437" lon="6.16375">
        <ele>1254.6577148</ele>
        <time>2013-07-28T07:33:32Z</time>
      </trkpt>
      <trkpt lat="44.30435" lon="6.16379">
        <ele>1254.6577148</ele>
        <time>2013-07-28T07:33:35Z</time>
      </trkpt>
      <trkpt lat="44.30431" lon="6.16389">
        <ele>1255.1384277</ele>
        <time>2013-07-28T07:33:42Z</time>
      </trkpt>
      <trkpt lat="44.30417" lon="6.16419">
        <ele>1256.0996094</ele>
        <time>2013-07-28T07:34:00Z</time>
      </trkpt>
      <trkpt lat="44.30412" lon="6.16427">
        <ele>1258.5029297</ele>
        <time>2013-07-28T07:34:05Z</time>
      </trkpt>
      <trkpt lat="44.30405" lon="6.16436">
        <ele>1258.5029297</ele>
        <time>2013-07-28T07:34:17Z</time>
      </trkpt>
      <trkpt lat="44.30401" lon="6.16441">
        <ele>1259.4643555</ele>
        <time>2013-07-28T07:34:24Z</time>
      </trkpt>
      <trkpt lat="44.30386" lon="6.16455">
        <ele>1260.9064941</ele>
        <time>2013-07-28T07:34:41Z</time>
      </trkpt>
      <trkpt lat="44.30379" lon="6.1646">
        <ele>1261.387207</ele>
        <time>2013-07-28T07:34:47Z</time>
      </trkpt>
      <trkpt lat="44.30378" lon="6.16461">
        <ele>1261.8679199</ele>
        <time>2013-07-28T07:34:49Z</time>
      </trkpt>
      <trkpt lat="44.30376" lon="6.16462">
        <ele>1262.3483887</ele>
        <time>2013-07-28T07:34:52Z</time>
      </trkpt>
      <trkpt lat="44.30358" lon="6.16475">
        <ele>1263.3098145</ele>
        <time>2013-07-28T07:35:08Z</time>
      </trkpt>
      <trkpt lat="44.30348" lon="6.16481">
        <ele>1263.3098145</ele>
        <time>2013-07-28T07:35:12Z</time>
      </trkpt>
      <trkpt lat="44.30315" lon="6.16491">
        <ele>1266.1936035</ele>
        <time>2013-07-28T07:35:34Z</time>
      </trkpt>
      <trkpt lat="44.3031" lon="6.16492">
        <ele>1266.1936035</ele>
        <time>2013-07-28T07:35:39Z</time>
      </trkpt>
      <trkpt lat="44.30301" lon="6.16495">
        <ele>1266.6743164</ele>
        <time>2013-07-28T07:35:45Z</time>
      </trkpt>
      <trkpt lat="44.30276" lon="6.16525">
        <ele>1268.5969238</ele>
        <time>2013-07-28T07:36:04Z</time>
      </trkpt>
      <trkpt lat="44.30274" lon="6.16528">
        <ele>1269.0776367</ele>
        <time>2013-07-28T07:36:06Z</time>
      </trkpt>
      <trkpt lat="44.30269" lon="6.16534">
        <ele>1269.0776367</ele>
        <time>2013-07-28T07:36:10Z</time>
      </trkpt>
      <trkpt lat="44.30262" lon="6.16542">
        <ele>1270.0388184</ele>
        <time>2013-07-28T07:36:16Z</time>
      </trkpt>
      <trkpt lat="44.3025" lon="6.1656">
        <ele>1271.4807129</ele>
        <time>2013-07-28T07:36:29Z</time>
      </trkpt>
      <trkpt lat="44.30244" lon="6.16573">
        <ele>1272.4421387</ele>
        <time>2013-07-28T07:36:37Z</time>
      </trkpt>
      <trkpt lat="44.30241" lon="6.1658">
        <ele>1273.4035645</ele>
        <time>2013-07-28T07:36:42Z</time>
      </trkpt>
      <trkpt lat="44.30239" lon="6.16584">
        <ele>1273.4035645</ele>
        <time>2013-07-28T07:36:44Z</time>
      </trkpt>
      <trkpt lat="44.30232" lon="6.16599">
        <ele>1273.4035645</ele>
        <time>2013-07-28T07:36:53Z</time>
      </trkpt>
      <trkpt lat="44.30227" lon="6.16609">
        <ele>1274.845459</ele>
        <time>2013-07-28T07:37:00Z</time>
      </trkpt>
      <trkpt lat="44.30225" lon="6.16617">
        <ele>1274.845459</ele>
        <time>2013-07-28T07:37:04Z</time>
      </trkpt>
      <trkpt lat="44.30221" lon="6.16642">
        <ele>1275.8066406</ele>
        <time>2013-07-28T07:37:17Z</time>
      </trkpt>
      <trkpt lat="44.30217" lon="6.16656">
        <ele>1276.2875977</ele>
        <time>2013-07-28T07:37:26Z</time>
      </trkpt>
      <trkpt lat="44.30212" lon="6.16664">
        <ele>1276.2875977</ele>
        <time>2013-07-28T07:37:31Z</time>
      </trkpt>
      <trkpt lat="44.30207" lon="6.1667">
        <ele>1277.2490234</ele>
        <time>2013-07-28T07:37:37Z</time>
      </trkpt>
      <trkpt lat="44.30192" lon="6.16687">
        <ele>1280.6135254</ele>
        <time>2013-07-28T07:37:56Z</time>
      </trkpt>
      <trkpt lat="44.30182" lon="6.167">
        <ele>1281.574707</ele>
        <time>2013-07-28T07:38:08Z</time>
      </trkpt>
      <trkpt lat="44.30174" lon="6.16711">
        <ele>1283.0166016</ele>
        <time>2013-07-28T07:38:22Z</time>
      </trkpt>
      <trkpt lat="44.30155" lon="6.16715">
        <ele>1285.9006348</ele>
        <time>2013-07-28T07:38:45Z</time>
      </trkpt>
      <trkpt lat="44.30126" lon="6.16724">
        <ele>1289.2651367</ele>
        <time>2013-07-28T07:39:07Z</time>
      </trkpt>
      <trkpt lat="44.30126" lon="6.16724">
        <ele>1291.1877441</ele>
        <time>2013-07-28T07:39:21Z</time>
      </trkpt>
      <trkpt lat="44.30103" lon="6.16748">
        <ele>1292.1494141</ele>
        <time>2013-07-28T07:39:28Z</time>
      </trkpt>
      <trkpt lat="44.301" lon="6.1676">
        <ele>1292.630127</ele>
        <time>2013-07-28T07:39:35Z</time>
      </trkpt>
      <trkpt lat="44.30099" lon="6.16763">
        <ele>1293.5913086</ele>
        <time>2013-07-28T07:39:37Z</time>
      </trkpt>
      <trkpt lat="44.30099" lon="6.16763">
        <ele>1293.1105957</ele>
        <time>2013-07-28T07:39:39Z</time>
      </trkpt>
      <trkpt lat="44.30095" lon="6.16775">
        <ele>1293.5913086</ele>
        <time>2013-07-28T07:39:46Z</time>
      </trkpt>
      <trkpt lat="44.30091" lon="6.16781">
        <ele>1294.0720215</ele>
        <time>2013-07-28T07:39:51Z</time>
      </trkpt>
      <trkpt lat="44.30086" lon="6.16786">
        <ele>1294.5524902</ele>
        <time>2013-07-28T07:39:55Z</time>
      </trkpt>
      <trkpt lat="44.30079" lon="6.16792">
        <ele>1295.9946289</ele>
        <time>2013-07-28T07:40:06Z</time>
      </trkpt>
      <trkpt lat="44.30066" lon="6.16814">
        <ele>1297.9172363</ele>
        <time>2013-07-28T07:40:20Z</time>
      </trkpt>
      <trkpt lat="44.30066" lon="6.16817">
        <ele>1297.9172363</ele>
        <time>2013-07-28T07:40:22Z</time>
      </trkpt>
      <trkpt lat="44.30063" lon="6.16835">
        <ele>1298.878418</ele>
        <time>2013-07-28T07:40:32Z</time>
      </trkpt>
      <trkpt lat="44.30063" lon="6.16842">
        <ele>1299.8398438</ele>
        <time>2013-07-28T07:40:36Z</time>
      </trkpt>
      <trkpt lat="44.3006" lon="6.16859">
        <ele>1300.3205566</ele>
        <time>2013-07-28T07:40:46Z</time>
      </trkpt>
      <trkpt lat="44.30055" lon="6.1688">
        <ele>1302.2429199</ele>
        <time>2013-07-28T07:41:03Z</time>
      </trkpt>
      <trkpt lat="44.30051" lon="6.16893">
        <ele>1302.7236328</ele>
        <time>2013-07-28T07:41:08Z</time>
      </trkpt>
      <trkpt lat="44.30047" lon="6.16905">
        <ele>1303.6850586</ele>
        <time>2013-07-28T07:41:16Z</time>
      </trkpt>
      <trkpt lat="44.30028" lon="6.16946">
        <ele>1306.0881348</ele>
        <time>2013-07-28T07:41:45Z</time>
      </trkpt>
      <trkpt lat="44.30017" lon="6.16988">
        <ele>1307.5302734</ele>
        <time>2013-07-28T07:42:09Z</time>
      </trkpt>
      <trkpt lat="44.30016" lon="6.16989">
        <ele>1307.5302734</ele>
        <time>2013-07-28T07:42:10Z</time>
      </trkpt>
      <trkpt lat="44.30011" lon="6.17009">
        <ele>1309.453125</ele>
        <time>2013-07-28T07:42:22Z</time>
      </trkpt>
      <trkpt lat="44.29996" lon="6.17038">
        <ele>1310.8950195</ele>
        <time>2013-07-28T07:42:44Z</time>
      </trkpt>
      <trkpt lat="44.29985" lon="6.17063">
        <ele>1312.3369141</ele>
        <time>2013-07-28T07:43:01Z</time>
      </trkpt>
      <trkpt lat="44.29979" lon="6.17077">
        <ele>1313.2983398</ele>
        <time>2013-07-28T07:43:14Z</time>
      </trkpt>
      <trkpt lat="44.29983" lon="6.17129">
        <ele>1315.7016602</ele>
        <time>2013-07-28T07:43:38Z</time>
      </trkpt>
      <trkpt lat="44.2998" lon="6.1715">
        <ele>1318.5854492</ele>
        <time>2013-07-28T07:43:58Z</time>
      </trkpt>
      <trkpt lat="44.2998" lon="6.1715">
        <ele>1319.546875</ele>
        <time>2013-07-28T07:44:03Z</time>
      </trkpt>
      <trkpt lat="44.29978" lon="6.1717">
        <ele>1319.546875</ele>
        <time>2013-07-28T07:44:18Z</time>
      </trkpt>
      <trkpt lat="44.29978" lon="6.1717">
        <ele>1321.9499512</ele>
        <time>2013-07-28T07:44:26Z</time>
      </trkpt>
      <trkpt lat="44.29978" lon="6.1717">
        <ele>1321.9499512</ele>
        <time>2013-07-28T07:44:56Z</time>
      </trkpt>
      <trkpt lat="44.29978" lon="6.1717">
        <ele>1320.0273438</ele>
        <time>2013-07-28T07:45:17Z</time>
      </trkpt>
      <trkpt lat="44.29978" lon="6.1717">
        <ele>1321.9499512</ele>
        <time>2013-07-28T07:45:49Z</time>
      </trkpt>
      <trkpt lat="44.29978" lon="6.1717">
        <ele>1320.0273438</ele>
        <time>2013-07-28T07:45:51Z</time>
      </trkpt>
      <trkpt lat="44.29978" lon="6.1717">
        <ele>1320.5080566</ele>
        <time>2013-07-28T07:46:18Z</time>
      </trkpt>
      <trkpt lat="44.29973" lon="6.17192">
        <ele>1321.4692383</ele>
        <time>2013-07-28T07:46:20Z</time>
      </trkpt>
      <trkpt lat="44.29972" lon="6.17218">
        <ele>1322.911377</ele>
        <time>2013-07-28T07:46:35Z</time>
      </trkpt>
      <trkpt lat="44.29972" lon="6.17223">
        <ele>1324.8342285</ele>
        <time>2013-07-28T07:46:38Z</time>
      </trkpt>
      <trkpt lat="44.2997" lon="6.17255">
        <ele>1326.276123</ele>
        <time>2013-07-28T07:46:58Z</time>
      </trkpt>
      <trkpt lat="44.29955" lon="6.17284">
        <ele>1329.1599121</ele>
        <time>2013-07-28T07:47:18Z</time>
      </trkpt>
      <trkpt lat="44.29937" lon="6.17321">
        <ele>1332.0439453</ele>
        <time>2013-07-28T07:47:45Z</time>
      </trkpt>
      <trkpt lat="44.29926" lon="6.17351">
        <ele>1335.4084473</ele>
        <time>2013-07-28T07:48:05Z</time>
      </trkpt>
      <trkpt lat="44.29904" lon="6.17387">
        <ele>1337.3310547</ele>
        <time>2013-07-28T07:48:32Z</time>
      </trkpt>
      <trkpt lat="44.29889" lon="6.17411">
        <ele>1340.215332</ele>
        <time>2013-07-28T07:48:51Z</time>
      </trkpt>
      <trkpt lat="44.2987" lon="6.17436">
        <ele>1341.6572266</ele>
        <time>2013-07-28T07:49:13Z</time>
      </trkpt>
      <trkpt lat="44.29858" lon="6.17452">
        <ele>1345.0217285</ele>
        <time>2013-07-28T07:49:26Z</time>
      </trkpt>
      <trkpt lat="44.29846" lon="6.17494">
        <ele>1345.9831543</ele>
        <time>2013-07-28T07:49:51Z</time>
      </trkpt>
      <trkpt lat="44.2984" lon="6.17529">
        <ele>1348.3862305</ele>
        <time>2013-07-28T07:50:13Z</time>
      </trkpt>
      <trkpt lat="44.29839" lon="6.17532">
        <ele>1347.9057617</ele>
        <time>2013-07-28T07:50:15Z</time>
      </trkpt>
      <trkpt lat="44.29836" lon="6.1755">
        <ele>1349.8283691</ele>
        <time>2013-07-28T07:50:26Z</time>
      </trkpt>
      <trkpt lat="44.29825" lon="6.17585">
        <ele>1353.1928711</ele>
        <time>2013-07-28T07:50:49Z</time>
      </trkpt>
      <trkpt lat="44.29825" lon="6.17606">
        <ele>1354.1542969</ele>
        <time>2013-07-28T07:51:02Z</time>
      </trkpt>
      <trkpt lat="44.29833" lon="6.17628">
        <ele>1354.1542969</ele>
        <time>2013-07-28T07:51:15Z</time>
      </trkpt>
      <trkpt lat="44.29834" lon="6.17663">
        <ele>1353.673584</ele>
        <time>2013-07-28T07:51:33Z</time>
      </trkpt>
      <trkpt lat="44.29822" lon="6.17706">
        <ele>1353.1928711</ele>
        <time>2013-07-28T07:51:51Z</time>
      </trkpt>
      <trkpt lat="44.29819" lon="6.17719">
        <ele>1353.673584</ele>
        <time>2013-07-28T07:51:57Z</time>
      </trkpt>
      <trkpt lat="44.29817" lon="6.17768">
        <ele>1353.673584</ele>
        <time>2013-07-28T07:52:18Z</time>
      </trkpt>
      <trkpt lat="44.29836" lon="6.1781">
        <ele>1356.0769043</ele>
        <time>2013-07-28T07:52:40Z</time>
      </trkpt>
      <trkpt lat="44.29844" lon="6.1784">
        <ele>1356.5576172</ele>
        <time>2013-07-28T07:52:57Z</time>
      </trkpt>
      <trkpt lat="44.29848" lon="6.17894">
        <ele>1357.519043</ele>
        <time>2013-07-28T07:53:19Z</time>
      </trkpt>
      <trkpt lat="44.29864" lon="6.17936">
        <ele>1356.0769043</ele>
        <time>2013-07-28T07:53:32Z</time>
      </trkpt>
      <trkpt lat="44.29864" lon="6.17936">
        <ele>1353.1928711</ele>
        <time>2013-07-28T07:53:55Z</time>
      </trkpt>
      <trkpt lat="44.29864" lon="6.17936">
        <ele>1354.6347656</ele>
        <time>2013-07-28T07:54:09Z</time>
      </trkpt>
      <trkpt lat="44.29863" lon="6.17937">
        <ele>1355.1154785</ele>
        <time>2013-07-28T07:54:37Z</time>
      </trkpt>
      <trkpt lat="44.29861" lon="6.17939">
        <ele>1355.1154785</ele>
        <time>2013-07-28T07:54:53Z</time>
      </trkpt>
      <trkpt lat="44.2986" lon="6.17939">
        <ele>1355.5961914</ele>
        <time>2013-07-28T07:54:56Z</time>
      </trkpt>
      <trkpt lat="44.29853" lon="6.17942">
        <ele>1355.1154785</ele>
        <time>2013-07-28T07:55:05Z</time>
      </trkpt>
      <trkpt lat="44.2985" lon="6.17941">
        <ele>1356.5576172</ele>
        <time>2013-07-28T07:55:29Z</time>
      </trkpt>
      <trkpt lat="44.2985" lon="6.17942">
        <ele>1356.0769043</ele>
        <time>2013-07-28T07:55:53Z</time>
      </trkpt>
      <trkpt lat="44.29846" lon="6.17938">
        <ele>1356.5576172</ele>
        <time>2013-07-28T07:55:56Z</time>
      </trkpt>
      <trkpt lat="44.29824" lon="6.17942">
        <ele>1357.9997559</ele>
        <time>2013-07-28T07:56:12Z</time>
      </trkpt>
      <trkpt lat="44.2981" lon="6.1797">
        <ele>1361.3642578</ele>
        <time>2013-07-28T07:56:29Z</time>
      </trkpt>
      <trkpt lat="44.29794" lon="6.18005">
        <ele>1363.767334</ele>
        <time>2013-07-28T07:56:53Z</time>
      </trkpt>
      <trkpt lat="44.29775" lon="6.18053">
        <ele>1364.2480469</ele>
        <time>2013-07-28T07:57:15Z</time>
      </trkpt>
      <trkpt lat="44.29762" lon="6.18077">
        <ele>1362.3254395</ele>
        <time>2013-07-28T07:57:24Z</time>
      </trkpt>
      <trkpt lat="44.29741" lon="6.1812">
        <ele>1359.4416504</ele>
        <time>2013-07-28T07:57:38Z</time>
      </trkpt>
      <trkpt lat="44.29706" lon="6.1814">
        <ele>1357.9997559</ele>
        <time>2013-07-28T07:57:49Z</time>
      </trkpt>
      <trkpt lat="44.29673" lon="6.18143">
        <ele>1358.4802246</ele>
        <time>2013-07-28T07:58:02Z</time>
      </trkpt>
      <trkpt lat="44.29637" lon="6.1814">
        <ele>1358.4802246</ele>
        <time>2013-07-28T07:58:16Z</time>
      </trkpt>
      <trkpt lat="44.29601" lon="6.18155">
        <ele>1359.9221191</ele>
        <time>2013-07-28T07:58:33Z</time>
      </trkpt>
      <trkpt lat="44.29573" lon="6.1817">
        <ele>1361.3642578</ele>
        <time>2013-07-28T07:58:48Z</time>
      </trkpt>
      <trkpt lat="44.29547" lon="6.18195">
        <ele>1362.3254395</ele>
        <time>2013-07-28T07:59:01Z</time>
      </trkpt>
      <trkpt lat="44.29531" lon="6.18232">
        <ele>1363.2868652</ele>
        <time>2013-07-28T07:59:18Z</time>
      </trkpt>
      <trkpt lat="44.29512" lon="6.18242">
        <ele>1363.767334</ele>
        <time>2013-07-28T07:59:43Z</time>
      </trkpt>
      <trkpt lat="44.29487" lon="6.1827">
        <ele>1365.6901855</ele>
        <time>2013-07-28T08:00:03Z</time>
      </trkpt>
      <trkpt lat="44.29467" lon="6.18297">
        <ele>1368.0932617</ele>
        <time>2013-07-28T08:00:22Z</time>
      </trkpt>
      <trkpt lat="44.29457" lon="6.18326">
        <ele>1370.496582</ele>
        <time>2013-07-28T08:00:41Z</time>
      </trkpt>
      <trkpt lat="44.29457" lon="6.18329">
        <ele>1370.496582</ele>
        <time>2013-07-28T08:00:43Z</time>
      </trkpt>
      <trkpt lat="44.29456" lon="6.18331">
        <ele>1370.9772949</ele>
        <time>2013-07-28T08:00:47Z</time>
      </trkpt>
      <trkpt lat="44.29442" lon="6.18371">
        <ele>1373.3808594</ele>
        <time>2013-07-28T08:01:09Z</time>
      </trkpt>
      <trkpt lat="44.29421" lon="6.18386">
        <ele>1375.3032227</ele>
        <time>2013-07-28T08:01:28Z</time>
      </trkpt>
      <trkpt lat="44.29396" lon="6.18415">
        <ele>1378.1872559</ele>
        <time>2013-07-28T08:01:51Z</time>
      </trkpt>
      <trkpt lat="44.2938" lon="6.18446">
        <ele>1379.6291504</ele>
        <time>2013-07-28T08:02:10Z</time>
      </trkpt>
      <trkpt lat="44.29358" lon="6.1847">
        <ele>1381.0712891</ele>
        <time>2013-07-28T08:02:30Z</time>
      </trkpt>
      <trkpt lat="44.29346" lon="6.185">
        <ele>1382.9936523</ele>
        <time>2013-07-28T08:02:49Z</time>
      </trkpt>
      <trkpt lat="44.2932" lon="6.18526">
        <ele>1384.435791</ele>
        <time>2013-07-28T08:03:12Z</time>
      </trkpt>
      <trkpt lat="44.29291" lon="6.18553">
        <ele>1387.3195801</ele>
        <time>2013-07-28T08:03:38Z</time>
      </trkpt>
      <trkpt lat="44.29281" lon="6.1857">
        <ele>1388.7619629</ele>
        <time>2013-07-28T08:03:49Z</time>
      </trkpt>
      <trkpt lat="44.29271" lon="6.18571">
        <ele>1389.7231445</ele>
        <time>2013-07-28T08:04:00Z</time>
      </trkpt>
      <trkpt lat="44.29271" lon="6.18562">
        <ele>1390.2038574</ele>
        <time>2013-07-28T08:04:05Z</time>
      </trkpt>
      <trkpt lat="44.29287" lon="6.18526">
        <ele>1392.1264648</ele>
        <time>2013-07-28T08:04:29Z</time>
      </trkpt>
      <trkpt lat="44.29288" lon="6.18523">
        <ele>1392.6071777</ele>
        <time>2013-07-28T08:04:31Z</time>
      </trkpt>
      <trkpt lat="44.29304" lon="6.18485">
        <ele>1395.4909668</ele>
        <time>2013-07-28T08:04:59Z</time>
      </trkpt>
      <trkpt lat="44.29306" lon="6.18477">
        <ele>1397.8942871</ele>
        <time>2013-07-28T08:05:19Z</time>
      </trkpt>
      <trkpt lat="44.2931" lon="6.18439">
        <ele>1398.3747559</ele>
        <time>2013-07-28T08:05:29Z</time>
      </trkpt>
      <trkpt lat="44.29289" lon="6.18415">
        <ele>1400.2976074</ele>
        <time>2013-07-28T08:05:48Z</time>
      </trkpt>
      <trkpt lat="44.2927" lon="6.18398">
        <ele>1402.2199707</ele>
        <time>2013-07-28T08:06:06Z</time>
      </trkpt>
      <trkpt lat="44.29252" lon="6.18375">
        <ele>1404.1430664</ele>
        <time>2013-07-28T08:06:25Z</time>
      </trkpt>
      <trkpt lat="44.29252" lon="6.18375">
        <ele>1404.6235352</ele>
        <time>2013-07-28T08:06:30Z</time>
      </trkpt>
      <trkpt lat="44.29249" lon="6.18367">
        <ele>1405.104248</ele>
        <time>2013-07-28T08:06:32Z</time>
      </trkpt>
      <trkpt lat="44.29256" lon="6.18352">
        <ele>1406.0654297</ele>
        <time>2013-07-28T08:06:47Z</time>
      </trkpt>
      <trkpt lat="44.29259" lon="6.18352">
        <ele>1406.0654297</ele>
        <time>2013-07-28T08:06:51Z</time>
      </trkpt>
      <trkpt lat="44.29264" lon="6.18352">
        <ele>1407.0268555</ele>
        <time>2013-07-28T08:06:58Z</time>
      </trkpt>
      <trkpt lat="44.2928" lon="6.18324">
        <ele>1409.4301758</ele>
        <time>2013-07-28T08:07:22Z</time>
      </trkpt>
      <trkpt lat="44.29282" lon="6.18309">
        <ele>1409.9106445</ele>
        <time>2013-07-28T08:07:27Z</time>
      </trkpt>
      <trkpt lat="44.29285" lon="6.18289">
        <ele>1411.3527832</ele>
        <time>2013-07-28T08:07:45Z</time>
      </trkpt>
      <trkpt lat="44.29294" lon="6.18252">
        <ele>1413.7558594</ele>
        <time>2013-07-28T08:08:09Z</time>
      </trkpt>
      <trkpt lat="44.29296" lon="6.18214">
        <ele>1415.197998</ele>
        <time>2013-07-28T08:08:26Z</time>
      </trkpt>
      <trkpt lat="44.29296" lon="6.18214">
        <ele>1415.197998</ele>
        <time>2013-07-28T08:08:41Z</time>
      </trkpt>
      <trkpt lat="44.29296" lon="6.18214">
        <ele>1416.6398926</ele>
        <time>2013-07-28T08:09:19Z</time>
      </trkpt>
      <trkpt lat="44.29296" lon="6.18214">
        <ele>1416.6398926</ele>
        <time>2013-07-28T08:10:29Z</time>
      </trkpt>
      <trkpt lat="44.29273" lon="6.18245">
        <ele>1419.0432129</ele>
        <time>2013-07-28T08:10:53Z</time>
      </trkpt>
      <trkpt lat="44.29253" lon="6.18264">
        <ele>1420.4853516</ele>
        <time>2013-07-28T08:11:12Z</time>
      </trkpt>
      <trkpt lat="44.29228" lon="6.18267">
        <ele>1422.407959</ele>
        <time>2013-07-28T08:11:34Z</time>
      </trkpt>
      <trkpt lat="44.29222" lon="6.18265">
        <ele>1423.3693848</ele>
        <time>2013-07-28T08:11:43Z</time>
      </trkpt>
      <trkpt lat="44.29191" lon="6.18258">
        <ele>1426.2531738</ele>
        <time>2013-07-28T08:12:05Z</time>
      </trkpt>
      <trkpt lat="44.29168" lon="6.18264">
        <ele>1428.1757813</ele>
        <time>2013-07-28T08:12:24Z</time>
      </trkpt>
      <trkpt lat="44.29167" lon="6.18266">
        <ele>1428.6564941</ele>
        <time>2013-07-28T08:12:25Z</time>
      </trkpt>
      <trkpt lat="44.29164" lon="6.18296">
        <ele>1430.5791016</ele>
        <time>2013-07-28T08:12:48Z</time>
      </trkpt>
      <trkpt lat="44.29164" lon="6.18296">
        <ele>1432.0209961</ele>
        <time>2013-07-28T08:13:03Z</time>
      </trkpt>
      <trkpt lat="44.29156" lon="6.18336">
        <ele>1432.9821777</ele>
        <time>2013-07-28T08:13:11Z</time>
      </trkpt>
      <trkpt lat="44.29153" lon="6.18357">
        <ele>1435.8662109</ele>
        <time>2013-07-28T08:13:33Z</time>
      </trkpt>
      <trkpt lat="44.29159" lon="6.18376">
        <ele>1436.8276367</ele>
        <time>2013-07-28T08:13:43Z</time>
      </trkpt>
      <trkpt lat="44.29162" lon="6.18384">
        <ele>1438.2697754</ele>
        <time>2013-07-28T08:13:53Z</time>
      </trkpt>
      <trkpt lat="44.29164" lon="6.18399">
        <ele>1439.230957</ele>
        <time>2013-07-28T08:13:55Z</time>
      </trkpt>
      <trkpt lat="44.29164" lon="6.18403">
        <ele>1439.230957</ele>
        <time>2013-07-28T08:13:57Z</time>
      </trkpt>
      <trkpt lat="44.29146" lon="6.18428">
        <ele>1441.1535645</ele>
        <time>2013-07-28T08:14:16Z</time>
      </trkpt>
      <trkpt lat="44.29119" lon="6.1842">
        <ele>1442.1149902</ele>
        <time>2013-07-28T08:14:39Z</time>
      </trkpt>
      <trkpt lat="44.29111" lon="6.18414">
        <ele>1443.0761719</ele>
        <time>2013-07-28T08:14:46Z</time>
      </trkpt>
      <trkpt lat="44.29087" lon="6.18428">
        <ele>1444.5180664</ele>
        <time>2013-07-28T08:15:07Z</time>
      </trkpt>
      <trkpt lat="44.29064" lon="6.18442">
        <ele>1446.440918</ele>
        <time>2013-07-28T08:15:25Z</time>
      </trkpt>
      <trkpt lat="44.29059" lon="6.18447">
        <ele>1446.9213867</ele>
        <time>2013-07-28T08:15:29Z</time>
      </trkpt>
      <trkpt lat="44.29037" lon="6.18476">
        <ele>1448.8439941</ele>
        <time>2013-07-28T08:15:51Z</time>
      </trkpt>
      <trkpt lat="44.29033" lon="6.18479">
        <ele>1448.8439941</ele>
        <time>2013-07-28T08:15:55Z</time>
      </trkpt>
      <trkpt lat="44.29005" lon="6.18492">
        <ele>1450.7666016</ele>
        <time>2013-07-28T08:16:17Z</time>
      </trkpt>
      <trkpt lat="44.28975" lon="6.18499">
        <ele>1452.2087402</ele>
        <time>2013-07-28T08:16:40Z</time>
      </trkpt>
      <trkpt lat="44.28941" lon="6.18505">
        <ele>1453.170166</ele>
        <time>2013-07-28T08:17:03Z</time>
      </trkpt>
      <trkpt lat="44.28903" lon="6.18491">
        <ele>1451.2473145</ele>
        <time>2013-07-28T08:17:25Z</time>
      </trkpt>
      <trkpt lat="44.28874" lon="6.18455">
        <ele>1450.7666016</ele>
        <time>2013-07-28T08:17:39Z</time>
      </trkpt>
      <trkpt lat="44.28864" lon="6.18476">
        <ele>1450.7666016</ele>
        <time>2013-07-28T08:17:47Z</time>
      </trkpt>
      <trkpt lat="44.28839" lon="6.18528">
        <ele>1449.324707</ele>
        <time>2013-07-28T08:18:01Z</time>
      </trkpt>
      <trkpt lat="44.28788" lon="6.1858">
        <ele>1448.8439941</ele>
        <time>2013-07-28T08:18:18Z</time>
      </trkpt>
      <trkpt lat="44.28732" lon="6.18618">
        <ele>1448.8439941</ele>
        <time>2013-07-28T08:18:35Z</time>
      </trkpt>
      <trkpt lat="44.28695" lon="6.18621">
        <ele>1448.3632813</ele>
        <time>2013-07-28T08:18:46Z</time>
      </trkpt>
      <trkpt lat="44.28665" lon="6.18624">
        <ele>1448.3632813</ele>
        <time>2013-07-28T08:18:56Z</time>
      </trkpt>
      <trkpt lat="44.28664" lon="6.18641">
        <ele>1447.8828125</ele>
        <time>2013-07-28T08:19:01Z</time>
      </trkpt>
      <trkpt lat="44.28688" lon="6.18682">
        <ele>1448.8439941</ele>
        <time>2013-07-28T08:19:17Z</time>
      </trkpt>
      <trkpt lat="44.28726" lon="6.18732">
        <ele>1450.2861328</ele>
        <time>2013-07-28T08:19:36Z</time>
      </trkpt>
      <trkpt lat="44.28741" lon="6.1877">
        <ele>1450.2861328</ele>
        <time>2013-07-28T08:19:49Z</time>
      </trkpt>
      <trkpt lat="44.28741" lon="6.18788">
        <ele>1449.324707</ele>
        <time>2013-07-28T08:20:04Z</time>
      </trkpt>
      <trkpt lat="44.28741" lon="6.18788">
        <ele>1449.324707</ele>
        <time>2013-07-28T08:20:29Z</time>
      </trkpt>
      <trkpt lat="44.28723" lon="6.18844">
        <ele>1449.324707</ele>
        <time>2013-07-28T08:20:44Z</time>
      </trkpt>
      <trkpt lat="44.28705" lon="6.18911">
        <ele>1446.440918</ele>
        <time>2013-07-28T08:21:01Z</time>
      </trkpt>
      <trkpt lat="44.28693" lon="6.18946">
        <ele>1446.9213867</ele>
        <time>2013-07-28T08:21:14Z</time>
      </trkpt>
      <trkpt lat="44.28693" lon="6.18946">
        <ele>1446.9213867</ele>
        <time>2013-07-28T08:21:30Z</time>
      </trkpt>
      <trkpt lat="44.28693" lon="6.18946">
        <ele>1447.8828125</ele>
        <time>2013-07-28T08:26:47Z</time>
      </trkpt>
      <trkpt lat="44.28693" lon="6.18946">
        <ele>1447.8828125</ele>
        <time>2013-07-28T08:26:57Z</time>
      </trkpt>
      <trkpt lat="44.28686" lon="6.18986">
        <ele>1447.4020996</ele>
        <time>2013-07-28T08:27:10Z</time>
      </trkpt>
      <trkpt lat="44.28721" lon="6.19006">
        <ele>1447.8828125</ele>
        <time>2013-07-28T08:27:25Z</time>
      </trkpt>
      <trkpt lat="44.2876" lon="6.18993">
        <ele>1448.3632813</ele>
        <time>2013-07-28T08:27:41Z</time>
      </trkpt>
      <trkpt lat="44.28773" lon="6.19035">
        <ele>1447.8828125</ele>
        <time>2013-07-28T08:27:55Z</time>
      </trkpt>
      <trkpt lat="44.28771" lon="6.19091">
        <ele>1449.324707</ele>
        <time>2013-07-28T08:28:13Z</time>
      </trkpt>
      <trkpt lat="44.28766" lon="6.19137">
        <ele>1448.8439941</ele>
        <time>2013-07-28T08:28:27Z</time>
      </trkpt>
      <trkpt lat="44.28747" lon="6.19183">
        <ele>1449.324707</ele>
        <time>2013-07-28T08:28:42Z</time>
      </trkpt>
      <trkpt lat="44.28723" lon="6.19221">
        <ele>1449.324707</ele>
        <time>2013-07-28T08:28:58Z</time>
      </trkpt>
      <trkpt lat="44.28686" lon="6.19267">
        <ele>1450.2861328</ele>
        <time>2013-07-28T08:29:19Z</time>
      </trkpt>
      <trkpt lat="44.28643" lon="6.19285">
        <ele>1450.2861328</ele>
        <time>2013-07-28T08:29:38Z</time>
      </trkpt>
      <trkpt lat="44.28594" lon="6.19295">
        <ele>1452.2087402</ele>
        <time>2013-07-28T08:30:00Z</time>
      </trkpt>
      <trkpt lat="44.28577" lon="6.19322">
        <ele>1452.2087402</ele>
        <time>2013-07-28T08:30:13Z</time>
      </trkpt>
      <trkpt lat="44.28564" lon="6.19368">
        <ele>1452.6894531</ele>
        <time>2013-07-28T08:30:27Z</time>
      </trkpt>
      <trkpt lat="44.28537" lon="6.1938">
        <ele>1452.6894531</ele>
        <time>2013-07-28T08:30:38Z</time>
      </trkpt>
      <trkpt lat="44.28531" lon="6.194">
        <ele>1453.170166</ele>
        <time>2013-07-28T08:30:45Z</time>
      </trkpt>
      <trkpt lat="44.28528" lon="6.19434">
        <ele>1453.170166</ele>
        <time>2013-07-28T08:30:55Z</time>
      </trkpt>
      <trkpt lat="44.28526" lon="6.19436">
        <ele>1453.170166</ele>
        <time>2013-07-28T08:30:56Z</time>
      </trkpt>
      <trkpt lat="44.28485" lon="6.19466">
        <ele>1454.1315918</ele>
        <time>2013-07-28T08:31:16Z</time>
      </trkpt>
      <trkpt lat="44.28429" lon="6.19471">
        <ele>1455.0927734</ele>
        <time>2013-07-28T08:31:39Z</time>
      </trkpt>
      <trkpt lat="44.28378" lon="6.19494">
        <ele>1454.1315918</ele>
        <time>2013-07-28T08:32:00Z</time>
      </trkpt>
      <trkpt lat="44.28346" lon="6.19525">
        <ele>1454.6120605</ele>
        <time>2013-07-28T08:32:17Z</time>
      </trkpt>
      <trkpt lat="44.28346" lon="6.1957">
        <ele>1456.0539551</ele>
        <time>2013-07-28T08:32:34Z</time>
      </trkpt>
      <trkpt lat="44.28332" lon="6.19614">
        <ele>1458.4572754</ele>
        <time>2013-07-28T08:32:51Z</time>
      </trkpt>
      <trkpt lat="44.28334" lon="6.19633">
        <ele>1458.9379883</ele>
        <time>2013-07-28T08:33:01Z</time>
      </trkpt>
      <trkpt lat="44.28372" lon="6.19632">
        <ele>1458.4572754</ele>
        <time>2013-07-28T08:33:20Z</time>
      </trkpt>
      <trkpt lat="44.28399" lon="6.19614">
        <ele>1458.9379883</ele>
        <time>2013-07-28T08:33:36Z</time>
      </trkpt>
      <trkpt lat="44.28407" lon="6.19616">
        <ele>1459.4187012</ele>
        <time>2013-07-28T08:33:40Z</time>
      </trkpt>
      <trkpt lat="44.28422" lon="6.1963">
        <ele>1459.4187012</ele>
        <time>2013-07-28T08:33:48Z</time>
      </trkpt>
      <trkpt lat="44.28449" lon="6.19672">
        <ele>1461.3413086</ele>
        <time>2013-07-28T08:34:08Z</time>
      </trkpt>
      <trkpt lat="44.28445" lon="6.19705">
        <ele>1463.263916</ele>
        <time>2013-07-28T08:34:23Z</time>
      </trkpt>
      <trkpt lat="44.28444" lon="6.19706">
        <ele>1463.263916</ele>
        <time>2013-07-28T08:34:24Z</time>
      </trkpt>
      <trkpt lat="44.28437" lon="6.19745">
        <ele>1463.7443848</ele>
        <time>2013-07-28T08:34:40Z</time>
      </trkpt>
      <trkpt lat="44.28455" lon="6.19762">
        <ele>1463.7443848</ele>
        <time>2013-07-28T08:34:53Z</time>
      </trkpt>
      <trkpt lat="44.28477" lon="6.19765">
        <ele>1464.7058105</ele>
        <time>2013-07-28T08:35:06Z</time>
      </trkpt>
      <trkpt lat="44.28483" lon="6.19809">
        <ele>1465.1865234</ele>
        <time>2013-07-28T08:35:21Z</time>
      </trkpt>
      <trkpt lat="44.28468" lon="6.19852">
        <ele>1465.6672363</ele>
        <time>2013-07-28T08:35:37Z</time>
      </trkpt>
      <trkpt lat="44.28423" lon="6.19875">
        <ele>1467.5895996</ele>
        <time>2013-07-28T08:35:59Z</time>
      </trkpt>
      <trkpt lat="44.2839" lon="6.19911">
        <ele>1468.0705566</ele>
        <time>2013-07-28T08:36:18Z</time>
      </trkpt>
      <trkpt lat="44.28356" lon="6.19951">
        <ele>1467.1091309</ele>
        <time>2013-07-28T08:36:36Z</time>
      </trkpt>
      <trkpt lat="44.28358" lon="6.1998">
        <ele>1467.1091309</ele>
        <time>2013-07-28T08:36:46Z</time>
      </trkpt>
      <trkpt lat="44.28389" lon="6.19989">
        <ele>1467.5895996</ele>
        <time>2013-07-28T08:37:00Z</time>
      </trkpt>
      <trkpt lat="44.28446" lon="6.19987">
        <ele>1469.0319824</ele>
        <time>2013-07-28T08:37:24Z</time>
      </trkpt>
      <trkpt lat="44.28493" lon="6.19991">
        <ele>1470.473877</ele>
        <time>2013-07-28T08:37:44Z</time>
      </trkpt>
      <trkpt lat="44.28531" lon="6.20031">
        <ele>1471.9157715</ele>
        <time>2013-07-28T08:38:04Z</time>
      </trkpt>
      <trkpt lat="44.28541" lon="6.20081">
        <ele>1474.3190918</ele>
        <time>2013-07-28T08:38:24Z</time>
      </trkpt>
      <trkpt lat="44.28549" lon="6.2013">
        <ele>1476.2416992</ele>
        <time>2013-07-28T08:38:45Z</time>
      </trkpt>
      <trkpt lat="44.28553" lon="6.20169">
        <ele>1477.6835938</ele>
        <time>2013-07-28T08:39:03Z</time>
      </trkpt>
      <trkpt lat="44.28555" lon="6.20202">
        <ele>1479.1254883</ele>
        <time>2013-07-28T08:39:18Z</time>
      </trkpt>
      <trkpt lat="44.2855" lon="6.20256">
        <ele>1482.4902344</ele>
        <time>2013-07-28T08:39:45Z</time>
      </trkpt>
      <trkpt lat="44.28549" lon="6.20263">
        <ele>1481.5288086</ele>
        <time>2013-07-28T08:40:02Z</time>
      </trkpt>
      <trkpt lat="44.28549" lon="6.20263">
        <ele>1482.9707031</ele>
        <time>2013-07-28T08:40:07Z</time>
      </trkpt>
      <trkpt lat="44.28549" lon="6.20263">
        <ele>1482.4902344</ele>
        <time>2013-07-28T08:40:32Z</time>
      </trkpt>
      <trkpt lat="44.28549" lon="6.20263">
        <ele>1481.0483398</ele>
        <time>2013-07-28T08:41:03Z</time>
      </trkpt>
      <trkpt lat="44.28549" lon="6.20263">
        <ele>1481.5288086</ele>
        <time>2013-07-28T08:41:41Z</time>
      </trkpt>
      <trkpt lat="44.28549" lon="6.20263">
        <ele>1482.4902344</ele>
        <time>2013-07-28T08:42:17Z</time>
      </trkpt>
      <trkpt lat="44.28549" lon="6.20263">
        <ele>1482.9707031</ele>
        <time>2013-07-28T08:42:20Z</time>
      </trkpt>
      <trkpt lat="44.28546" lon="6.20309">
        <ele>1486.3356934</ele>
        <time>2013-07-28T08:42:37Z</time>
      </trkpt>
      <trkpt lat="44.28546" lon="6.20326">
        <ele>1487.7775879</ele>
        <time>2013-07-28T08:42:51Z</time>
      </trkpt>
      <trkpt lat="44.28546" lon="6.20344">
        <ele>1490.1809082</ele>
        <time>2013-07-28T08:43:12Z</time>
      </trkpt>
      <trkpt lat="44.28548" lon="6.204">
        <ele>1493.0646973</ele>
        <time>2013-07-28T08:43:32Z</time>
      </trkpt>
      <trkpt lat="44.28526" lon="6.20408">
        <ele>1494.026123</ele>
        <time>2013-07-28T08:43:51Z</time>
      </trkpt>
      <trkpt lat="44.28515" lon="6.20373">
        <ele>1495.4680176</ele>
        <time>2013-07-28T08:44:12Z</time>
      </trkpt>
      <trkpt lat="44.28512" lon="6.20365">
        <ele>1495.9487305</ele>
        <time>2013-07-28T08:44:17Z</time>
      </trkpt>
      <trkpt lat="44.28516" lon="6.20328">
        <ele>1499.3132324</ele>
        <time>2013-07-28T08:44:41Z</time>
      </trkpt>
      <trkpt lat="44.28519" lon="6.20288">
        <ele>1503.1586914</ele>
        <time>2013-07-28T08:45:07Z</time>
      </trkpt>
      <trkpt lat="44.28519" lon="6.2026">
        <ele>1504.6005859</ele>
        <time>2013-07-28T08:45:24Z</time>
      </trkpt>
      <trkpt lat="44.28513" lon="6.20233">
        <ele>1506.5231934</ele>
        <time>2013-07-28T08:45:39Z</time>
      </trkpt>
      <trkpt lat="44.28505" lon="6.202">
        <ele>1508.9265137</ele>
        <time>2013-07-28T08:46:00Z</time>
      </trkpt>
      <trkpt lat="44.28498" lon="6.20175">
        <ele>1511.329834</ele>
        <time>2013-07-28T08:46:19Z</time>
      </trkpt>
      <trkpt lat="44.28483" lon="6.20148">
        <ele>1512.2910156</ele>
        <time>2013-07-28T08:46:36Z</time>
      </trkpt>
      <trkpt lat="44.28475" lon="6.20142">
        <ele>1513.2524414</ele>
        <time>2013-07-28T08:46:47Z</time>
      </trkpt>
      <trkpt lat="44.28447" lon="6.20138">
        <ele>1515.6557617</ele>
        <time>2013-07-28T08:47:11Z</time>
      </trkpt>
      <trkpt lat="44.28447" lon="6.20138">
        <ele>1517.0979004</ele>
        <time>2013-07-28T08:47:26Z</time>
      </trkpt>
      <trkpt lat="44.28447" lon="6.20138">
        <ele>1520.4624023</ele>
        <time>2013-07-28T08:47:47Z</time>
      </trkpt>
      <trkpt lat="44.28447" lon="6.20138">
        <ele>1522.8657227</ele>
        <time>2013-07-28T08:48:05Z</time>
      </trkpt>
      <trkpt lat="44.28365" lon="6.20162">
        <ele>1525.7495117</ele>
        <time>2013-07-28T08:48:26Z</time>
      </trkpt>
      <trkpt lat="44.28349" lon="6.2017">
        <ele>1526.7109375</ele>
        <time>2013-07-28T08:48:40Z</time>
      </trkpt>
      <trkpt lat="44.28329" lon="6.20176">
        <ele>1528.152832</ele>
        <time>2013-07-28T08:49:01Z</time>
      </trkpt>
      <trkpt lat="44.28329" lon="6.20176">
        <ele>1531.0368652</ele>
        <time>2013-07-28T08:49:26Z</time>
      </trkpt>
      <trkpt lat="44.28329" lon="6.20176">
        <ele>1533.4401855</ele>
        <time>2013-07-28T08:49:49Z</time>
      </trkpt>
      <trkpt lat="44.28329" lon="6.20176">
        <ele>1536.3242188</ele>
        <time>2013-07-28T08:50:06Z</time>
      </trkpt>
      <trkpt lat="44.28239" lon="6.20184">
        <ele>1538.7275391</ele>
        <time>2013-07-28T08:50:25Z</time>
      </trkpt>
      <trkpt lat="44.28225" lon="6.20185">
        <ele>1542.092041</ele>
        <time>2013-07-28T08:50:47Z</time>
      </trkpt>
      <trkpt lat="44.28184" lon="6.20167">
        <ele>1544.0146484</ele>
        <time>2013-07-28T08:51:10Z</time>
      </trkpt>
      <trkpt lat="44.28177" lon="6.20174">
        <ele>1544.4951172</ele>
        <time>2013-07-28T08:51:29Z</time>
      </trkpt>
      <trkpt lat="44.28177" lon="6.20174">
        <ele>1545.456543</ele>
        <time>2013-07-28T08:52:22Z</time>
      </trkpt>
      <trkpt lat="44.28177" lon="6.20174">
        <ele>1544.4951172</ele>
        <time>2013-07-28T08:52:53Z</time>
      </trkpt>
      <trkpt lat="44.28177" lon="6.20174">
        <ele>1545.9372559</ele>
        <time>2013-07-28T08:53:17Z</time>
      </trkpt>
      <trkpt lat="44.28177" lon="6.20174">
        <ele>1544.0146484</ele>
        <time>2013-07-28T08:54:23Z</time>
      </trkpt>
      <trkpt lat="44.28182" lon="6.20181">
        <ele>1544.4951172</ele>
        <time>2013-07-28T08:54:28Z</time>
      </trkpt>
      <trkpt lat="44.282" lon="6.20195">
        <ele>1546.8984375</ele>
        <time>2013-07-28T08:54:51Z</time>
      </trkpt>
      <trkpt lat="44.282" lon="6.20195">
        <ele>1549.7827148</ele>
        <time>2013-07-28T08:55:14Z</time>
      </trkpt>
      <trkpt lat="44.28241" lon="6.20243">
        <ele>1551.7053223</ele>
        <time>2013-07-28T08:55:35Z</time>
      </trkpt>
      <trkpt lat="44.28259" lon="6.20263">
        <ele>1554.1086426</ele>
        <time>2013-07-28T08:55:57Z</time>
      </trkpt>
      <trkpt lat="44.28272" lon="6.20272">
        <ele>1555.0698242</ele>
        <time>2013-07-28T08:56:17Z</time>
      </trkpt>
      <trkpt lat="44.28272" lon="6.20272">
        <ele>1558.4343262</ele>
        <time>2013-07-28T08:56:39Z</time>
      </trkpt>
      <trkpt lat="44.28315" lon="6.20277">
        <ele>1561.3183594</ele>
        <time>2013-07-28T08:57:01Z</time>
      </trkpt>
      <trkpt lat="44.28315" lon="6.20277">
        <ele>1562.279541</ele>
        <time>2013-07-28T08:57:09Z</time>
      </trkpt>
      <trkpt lat="44.28346" lon="6.20276">
        <ele>1562.7602539</ele>
        <time>2013-07-28T08:57:13Z</time>
      </trkpt>
      <trkpt lat="44.28347" lon="6.20304">
        <ele>1566.125</ele>
        <time>2013-07-28T08:57:32Z</time>
      </trkpt>
      <trkpt lat="44.28333" lon="6.20335">
        <ele>1567.0864258</ele>
        <time>2013-07-28T08:57:54Z</time>
      </trkpt>
      <trkpt lat="44.28327" lon="6.20343">
        <ele>1568.0476074</ele>
        <time>2013-07-28T08:58:09Z</time>
      </trkpt>
      <trkpt lat="44.28317" lon="6.20361">
        <ele>1570.4509277</ele>
        <time>2013-07-28T08:58:26Z</time>
      </trkpt>
      <trkpt lat="44.28317" lon="6.20361">
        <ele>1570.4509277</ele>
        <time>2013-07-28T08:58:33Z</time>
      </trkpt>
      <trkpt lat="44.28317" lon="6.20361">
        <ele>1571.4121094</ele>
        <time>2013-07-28T08:58:35Z</time>
      </trkpt>
      <trkpt lat="44.28314" lon="6.20394">
        <ele>1570.9316406</ele>
        <time>2013-07-28T08:58:37Z</time>
      </trkpt>
      <trkpt lat="44.28315" lon="6.20416">
        <ele>1574.2961426</ele>
        <time>2013-07-28T08:58:56Z</time>
      </trkpt>
      <trkpt lat="44.28319" lon="6.20441">
        <ele>1576.21875</ele>
        <time>2013-07-28T08:59:11Z</time>
      </trkpt>
      <trkpt lat="44.28319" lon="6.20441">
        <ele>1576.21875</ele>
        <time>2013-07-28T08:59:13Z</time>
      </trkpt>
      <trkpt lat="44.28323" lon="6.20456">
        <ele>1578.1413574</ele>
        <time>2013-07-28T08:59:26Z</time>
      </trkpt>
      <trkpt lat="44.28323" lon="6.20456">
        <ele>1579.1025391</ele>
        <time>2013-07-28T08:59:29Z</time>
      </trkpt>
      <trkpt lat="44.28332" lon="6.20472">
        <ele>1579.583252</ele>
        <time>2013-07-28T08:59:33Z</time>
      </trkpt>
      <trkpt lat="44.28345" lon="6.20489">
        <ele>1581.0256348</ele>
        <time>2013-07-28T08:59:45Z</time>
      </trkpt>
      <trkpt lat="44.28345" lon="6.20489">
        <ele>1581.5061035</ele>
        <time>2013-07-28T08:59:50Z</time>
      </trkpt>
      <trkpt lat="44.28345" lon="6.20489">
        <ele>1582.4675293</ele>
        <time>2013-07-28T08:59:53Z</time>
      </trkpt>
      <trkpt lat="44.28353" lon="6.205">
        <ele>1582.947998</ele>
        <time>2013-07-28T08:59:55Z</time>
      </trkpt>
      <trkpt lat="44.28353" lon="6.205">
        <ele>1584.3901367</ele>
        <time>2013-07-28T09:00:14Z</time>
      </trkpt>
      <trkpt lat="44.28353" lon="6.205">
        <ele>1586.3127441</ele>
        <time>2013-07-28T09:00:29Z</time>
      </trkpt>
      <trkpt lat="44.28374" lon="6.20554">
        <ele>1586.7932129</ele>
        <time>2013-07-28T09:00:35Z</time>
      </trkpt>
      <trkpt lat="44.2838" lon="6.20572">
        <ele>1587.7546387</ele>
        <time>2013-07-28T09:00:46Z</time>
      </trkpt>
      <trkpt lat="44.28393" lon="6.20594">
        <ele>1589.1965332</ele>
        <time>2013-07-28T09:01:06Z</time>
      </trkpt>
      <trkpt lat="44.28393" lon="6.20594">
        <ele>1589.6772461</ele>
        <time>2013-07-28T09:01:09Z</time>
      </trkpt>
      <trkpt lat="44.28404" lon="6.20607">
        <ele>1590.157959</ele>
        <time>2013-07-28T09:01:16Z</time>
      </trkpt>
      <trkpt lat="44.28404" lon="6.20607">
        <ele>1591.1191406</ele>
        <time>2013-07-28T09:01:21Z</time>
      </trkpt>
      <trkpt lat="44.28411" lon="6.20614">
        <ele>1591.5998535</ele>
        <time>2013-07-28T09:01:27Z</time>
      </trkpt>
      <trkpt lat="44.28411" lon="6.20614">
        <ele>1593.041748</ele>
        <time>2013-07-28T09:01:33Z</time>
      </trkpt>
      <trkpt lat="44.28411" lon="6.20614">
        <ele>1593.5224609</ele>
        <time>2013-07-28T09:01:38Z</time>
      </trkpt>
      <trkpt lat="44.28423" lon="6.20635">
        <ele>1594.0031738</ele>
        <time>2013-07-28T09:01:49Z</time>
      </trkpt>
      <trkpt lat="44.28423" lon="6.20635">
        <ele>1593.5224609</ele>
        <time>2013-07-28T09:02:39Z</time>
      </trkpt>
      <trkpt lat="44.28423" lon="6.20635">
        <ele>1594.0031738</ele>
        <time>2013-07-28T09:03:02Z</time>
      </trkpt>
      <trkpt lat="44.28419" lon="6.20644">
        <ele>1595.4450684</ele>
        <time>2013-07-28T09:03:05Z</time>
      </trkpt>
      <trkpt lat="44.28413" lon="6.20659">
        <ele>1597.3679199</ele>
        <time>2013-07-28T09:03:17Z</time>
      </trkpt>
      <trkpt lat="44.28404" lon="6.20671">
        <ele>1597.8486328</ele>
        <time>2013-07-28T09:03:28Z</time>
      </trkpt>
      <trkpt lat="44.28404" lon="6.20671">
        <ele>1598.8098145</ele>
        <time>2013-07-28T09:03:41Z</time>
      </trkpt>
      <trkpt lat="44.28404" lon="6.20671">
        <ele>1599.2905273</ele>
        <time>2013-07-28T09:03:53Z</time>
      </trkpt>
      <trkpt lat="44.28404" lon="6.20671">
        <ele>1601.2131348</ele>
        <time>2013-07-28T09:04:01Z</time>
      </trkpt>
      <trkpt lat="44.28385" lon="6.20738">
        <ele>1603.1357422</ele>
        <time>2013-07-28T09:04:12Z</time>
      </trkpt>
      <trkpt lat="44.28385" lon="6.20738">
        <ele>1603.1357422</ele>
        <time>2013-07-28T09:04:14Z</time>
      </trkpt>
      <trkpt lat="44.28385" lon="6.20738">
        <ele>1604.097168</ele>
        <time>2013-07-28T09:04:17Z</time>
      </trkpt>
      <trkpt lat="44.28385" lon="6.20738">
        <ele>1606.980957</ele>
        <time>2013-07-28T09:04:27Z</time>
      </trkpt>
      <trkpt lat="44.28381" lon="6.20782">
        <ele>1607.9423828</ele>
        <time>2013-07-28T09:04:34Z</time>
      </trkpt>
      <trkpt lat="44.28366" lon="6.20808">
        <ele>1609.3842773</ele>
        <time>2013-07-28T09:04:57Z</time>
      </trkpt>
      <trkpt lat="44.28354" lon="6.208">
        <ele>1609.8647461</ele>
        <time>2013-07-28T09:05:10Z</time>
      </trkpt>
      <trkpt lat="44.2836" lon="6.20792">
        <ele>1609.8647461</ele>
        <time>2013-07-28T09:05:24Z</time>
      </trkpt>
      <trkpt lat="44.2836" lon="6.20792">
        <ele>1610.8261719</ele>
        <time>2013-07-28T09:06:41Z</time>
      </trkpt>
      <trkpt lat="44.2836" lon="6.20792">
        <ele>1612.7490234</ele>
        <time>2013-07-28T09:07:22Z</time>
      </trkpt>
      <trkpt lat="44.2836" lon="6.20792">
        <ele>1611.7875977</ele>
        <time>2013-07-28T09:07:49Z</time>
      </trkpt>
      <trkpt lat="44.28364" lon="6.20785">
        <ele>1612.2683105</ele>
        <time>2013-07-28T09:07:53Z</time>
      </trkpt>
      <trkpt lat="44.28369" lon="6.20774">
        <ele>1612.7490234</ele>
        <time>2013-07-28T09:08:02Z</time>
      </trkpt>
      <trkpt lat="44.28369" lon="6.20774">
        <ele>1612.7490234</ele>
        <time>2013-07-28T09:08:04Z</time>
      </trkpt>
      <trkpt lat="44.28368" lon="6.20761">
        <ele>1613.7102051</ele>
        <time>2013-07-28T09:08:08Z</time>
      </trkpt>
      <trkpt lat="44.28366" lon="6.20751">
        <ele>1614.190918</ele>
        <time>2013-07-28T09:08:15Z</time>
      </trkpt>
      <trkpt lat="44.28366" lon="6.20751">
        <ele>1614.190918</ele>
        <time>2013-07-28T09:08:18Z</time>
      </trkpt>
      <trkpt lat="44.28366" lon="6.20742">
        <ele>1614.6716309</ele>
        <time>2013-07-28T09:08:25Z</time>
      </trkpt>
      <trkpt lat="44.28367" lon="6.20729">
        <ele>1615.6330566</ele>
        <time>2013-07-28T09:08:34Z</time>
      </trkpt>
      <trkpt lat="44.28368" lon="6.20726">
        <ele>1615.6330566</ele>
        <time>2013-07-28T09:08:38Z</time>
      </trkpt>
      <trkpt lat="44.28354" lon="6.20715">
        <ele>1616.5942383</ele>
        <time>2013-07-28T09:08:42Z</time>
      </trkpt>
      <trkpt lat="44.28355" lon="6.20685">
        <ele>1616.5942383</ele>
        <time>2013-07-28T09:08:57Z</time>
      </trkpt>
      <trkpt lat="44.28354" lon="6.20682">
        <ele>1618.5168457</ele>
        <time>2013-07-28T09:08:59Z</time>
      </trkpt>
      <trkpt lat="44.28351" lon="6.2068">
        <ele>1617.5554199</ele>
        <time>2013-07-28T09:09:03Z</time>
      </trkpt>
      <trkpt lat="44.2835" lon="6.20674">
        <ele>1618.9975586</ele>
        <time>2013-07-28T09:09:06Z</time>
      </trkpt>
      <trkpt lat="44.28348" lon="6.20667">
        <ele>1619.9587402</ele>
        <time>2013-07-28T09:09:11Z</time>
      </trkpt>
      <trkpt lat="44.28347" lon="6.20662">
        <ele>1621.4006348</ele>
        <time>2013-07-28T09:09:14Z</time>
      </trkpt>
      <trkpt lat="44.28331" lon="6.20643">
        <ele>1624.284668</ele>
        <time>2013-07-28T09:09:35Z</time>
      </trkpt>
      <trkpt lat="44.28309" lon="6.20626">
        <ele>1626.6879883</ele>
        <time>2013-07-28T09:09:54Z</time>
      </trkpt>
      <trkpt lat="44.28284" lon="6.20623">
        <ele>1628.6108398</ele>
        <time>2013-07-28T09:10:17Z</time>
      </trkpt>
      <trkpt lat="44.28266" lon="6.20635">
        <ele>1630.5334473</ele>
        <time>2013-07-28T09:10:38Z</time>
      </trkpt>
      <trkpt lat="44.28252" lon="6.20652">
        <ele>1633.4172363</ele>
        <time>2013-07-28T09:10:58Z</time>
      </trkpt>
      <trkpt lat="44.28233" lon="6.20674">
        <ele>1635.8205566</ele>
        <time>2013-07-28T09:11:18Z</time>
      </trkpt>
      <trkpt lat="44.28224" lon="6.20687">
        <ele>1637.7431641</ele>
        <time>2013-07-28T09:11:29Z</time>
      </trkpt>
      <trkpt lat="44.28214" lon="6.20703">
        <ele>1638.7045898</ele>
        <time>2013-07-28T09:11:41Z</time>
      </trkpt>
      <trkpt lat="44.28199" lon="6.20727">
        <ele>1641.107666</ele>
        <time>2013-07-28T09:12:03Z</time>
      </trkpt>
      <trkpt lat="44.2819" lon="6.20744">
        <ele>1642.5498047</ele>
        <time>2013-07-28T09:12:16Z</time>
      </trkpt>
      <trkpt lat="44.28177" lon="6.20753">
        <ele>1643.9916992</ele>
        <time>2013-07-28T09:12:30Z</time>
      </trkpt>
      <trkpt lat="44.28156" lon="6.20767">
        <ele>1646.8757324</ele>
        <time>2013-07-28T09:12:50Z</time>
      </trkpt>
      <trkpt lat="44.28133" lon="6.20776">
        <ele>1650.2404785</ele>
        <time>2013-07-28T09:13:10Z</time>
      </trkpt>
      <trkpt lat="44.28131" lon="6.20778">
        <ele>1650.2404785</ele>
        <time>2013-07-28T09:13:12Z</time>
      </trkpt>
      <trkpt lat="44.28124" lon="6.20794">
        <ele>1652.1628418</ele>
        <time>2013-07-28T09:13:24Z</time>
      </trkpt>
      <trkpt lat="44.28119" lon="6.20814">
        <ele>1653.6049805</ele>
        <time>2013-07-28T09:13:39Z</time>
      </trkpt>
      <trkpt lat="44.2811" lon="6.20819">
        <ele>1654.5661621</ele>
        <time>2013-07-28T09:13:48Z</time>
      </trkpt>
      <trkpt lat="44.28106" lon="6.20807">
        <ele>1655.046875</ele>
        <time>2013-07-28T09:13:56Z</time>
      </trkpt>
      <trkpt lat="44.28101" lon="6.208">
        <ele>1655.5275879</ele>
        <time>2013-07-28T09:14:02Z</time>
      </trkpt>
      <trkpt lat="44.28092" lon="6.20803">
        <ele>1655.046875</ele>
        <time>2013-07-28T09:14:19Z</time>
      </trkpt>
      <trkpt lat="44.28091" lon="6.20807">
        <ele>1654.0856934</ele>
        <time>2013-07-28T09:14:41Z</time>
      </trkpt>
      <trkpt lat="44.28088" lon="6.20811">
        <ele>1652.6435547</ele>
        <time>2013-07-28T09:14:49Z</time>
      </trkpt>
      <trkpt lat="44.28086" lon="6.20814">
        <ele>1652.1628418</ele>
        <time>2013-07-28T09:14:55Z</time>
      </trkpt>
      <trkpt lat="44.2808" lon="6.20817">
        <ele>1652.1628418</ele>
        <time>2013-07-28T09:15:10Z</time>
      </trkpt>
      <trkpt lat="44.2808" lon="6.20816">
        <ele>1653.6049805</ele>
        <time>2013-07-28T09:15:12Z</time>
      </trkpt>
      <trkpt lat="44.28071" lon="6.20806">
        <ele>1654.5661621</ele>
        <time>2013-07-28T09:15:29Z</time>
      </trkpt>
      <trkpt lat="44.28052" lon="6.20811">
        <ele>1654.0856934</ele>
        <time>2013-07-28T09:15:49Z</time>
      </trkpt>
      <trkpt lat="44.2805" lon="6.20811">
        <ele>1655.046875</ele>
        <time>2013-07-28T09:15:52Z</time>
      </trkpt>
      <trkpt lat="44.28045" lon="6.20813">
        <ele>1653.6049805</ele>
        <time>2013-07-28T09:15:56Z</time>
      </trkpt>
      <trkpt lat="44.28029" lon="6.2082">
        <ele>1654.5661621</ele>
        <time>2013-07-28T09:16:18Z</time>
      </trkpt>
      <trkpt lat="44.28016" lon="6.20827">
        <ele>1655.5275879</ele>
        <time>2013-07-28T09:16:37Z</time>
      </trkpt>
      <trkpt lat="44.28014" lon="6.20828">
        <ele>1657.9309082</ele>
        <time>2013-07-28T09:16:40Z</time>
      </trkpt>
      <trkpt lat="44.27995" lon="6.20838">
        <ele>1660.3342285</ele>
        <time>2013-07-28T09:17:07Z</time>
      </trkpt>
      <trkpt lat="44.27987" lon="6.20844">
        <ele>1661.7763672</ele>
        <time>2013-07-28T09:17:32Z</time>
      </trkpt>
      <trkpt lat="44.27985" lon="6.20848">
        <ele>1662.2568359</ele>
        <time>2013-07-28T09:17:53Z</time>
      </trkpt>
      <trkpt lat="44.27983" lon="6.20852">
        <ele>1661.2956543</ele>
        <time>2013-07-28T09:17:59Z</time>
      </trkpt>
      <trkpt lat="44.27981" lon="6.20857">
        <ele>1660.3342285</ele>
        <time>2013-07-28T09:18:21Z</time>
      </trkpt>
      <trkpt lat="44.27979" lon="6.20861">
        <ele>1659.8532715</ele>
        <time>2013-07-28T09:18:36Z</time>
      </trkpt>
      <trkpt lat="44.27977" lon="6.20864">
        <ele>1660.3342285</ele>
        <time>2013-07-28T09:19:25Z</time>
      </trkpt>
      <trkpt lat="44.27973" lon="6.20864">
        <ele>1662.2568359</ele>
        <time>2013-07-28T09:19:42Z</time>
      </trkpt>
      <trkpt lat="44.27968" lon="6.20864">
        <ele>1662.7375488</ele>
        <time>2013-07-28T09:19:55Z</time>
      </trkpt>
      <trkpt lat="44.27966" lon="6.20869">
        <ele>1663.2182617</ele>
        <time>2013-07-28T09:20:10Z</time>
      </trkpt>
      <trkpt lat="44.27966" lon="6.20871">
        <ele>1660.8149414</ele>
        <time>2013-07-28T09:20:13Z</time>
      </trkpt>
      <trkpt lat="44.27963" lon="6.20873">
        <ele>1659.3728027</ele>
        <time>2013-07-28T09:20:28Z</time>
      </trkpt>
      <trkpt lat="44.27955" lon="6.20878">
        <ele>1659.3728027</ele>
        <time>2013-07-28T09:20:46Z</time>
      </trkpt>
      <trkpt lat="44.27945" lon="6.20875">
        <ele>1661.2956543</ele>
        <time>2013-07-28T09:21:03Z</time>
      </trkpt>
      <trkpt lat="44.2794" lon="6.20873">
        <ele>1663.2182617</ele>
        <time>2013-07-28T09:21:11Z</time>
      </trkpt>
      <trkpt lat="44.2793" lon="6.20884">
        <ele>1664.6601563</ele>
        <time>2013-07-28T09:21:29Z</time>
      </trkpt>
      <trkpt lat="44.27915" lon="6.20898">
        <ele>1666.5827637</ele>
        <time>2013-07-28T09:21:52Z</time>
      </trkpt>
      <trkpt lat="44.27898" lon="6.20921">
        <ele>1668.0246582</ele>
        <time>2013-07-28T09:22:20Z</time>
      </trkpt>
      <trkpt lat="44.27888" lon="6.20941">
        <ele>1669.9472656</ele>
        <time>2013-07-28T09:22:44Z</time>
      </trkpt>
      <trkpt lat="44.27874" lon="6.20976">
        <ele>1670.9086914</ele>
        <time>2013-07-28T09:23:19Z</time>
      </trkpt>
      <trkpt lat="44.27862" lon="6.21005">
        <ele>1670.4279785</ele>
        <time>2013-07-28T09:23:45Z</time>
      </trkpt>
      <trkpt lat="44.27851" lon="6.21028">
        <ele>1670.4279785</ele>
        <time>2013-07-28T09:24:07Z</time>
      </trkpt>
      <trkpt lat="44.27845" lon="6.21037">
        <ele>1671.869873</ele>
        <time>2013-07-28T09:24:21Z</time>
      </trkpt>
      <trkpt lat="44.27832" lon="6.21051">
        <ele>1671.3891602</ele>
        <time>2013-07-28T09:24:41Z</time>
      </trkpt>
      <trkpt lat="44.27826" lon="6.21056">
        <ele>1671.869873</ele>
        <time>2013-07-28T09:25:02Z</time>
      </trkpt>
      <trkpt lat="44.27818" lon="6.21067">
        <ele>1672.3505859</ele>
        <time>2013-07-28T09:25:22Z</time>
      </trkpt>
      <trkpt lat="44.27814" lon="6.2107">
        <ele>1672.8312988</ele>
        <time>2013-07-28T09:25:38Z</time>
      </trkpt>
      <trkpt lat="44.27804" lon="6.21076">
        <ele>1672.3505859</ele>
        <time>2013-07-28T09:26:01Z</time>
      </trkpt>
      <trkpt lat="44.27792" lon="6.21091">
        <ele>1671.869873</ele>
        <time>2013-07-28T09:26:22Z</time>
      </trkpt>
      <trkpt lat="44.27779" lon="6.21101">
        <ele>1671.869873</ele>
        <time>2013-07-28T09:26:42Z</time>
      </trkpt>
      <trkpt lat="44.27777" lon="6.2111">
        <ele>1675.234375</ele>
        <time>2013-07-28T09:26:59Z</time>
      </trkpt>
      <trkpt lat="44.27775" lon="6.21119">
        <ele>1674.7539063</ele>
        <time>2013-07-28T09:27:45Z</time>
      </trkpt>
      <trkpt lat="44.27772" lon="6.2113">
        <ele>1674.2731934</ele>
        <time>2013-07-28T09:28:00Z</time>
      </trkpt>
      <trkpt lat="44.27761" lon="6.21136">
        <ele>1673.7924805</ele>
        <time>2013-07-28T09:28:17Z</time>
      </trkpt>
      <trkpt lat="44.27754" lon="6.21132">
        <ele>1674.7539063</ele>
        <time>2013-07-28T09:28:32Z</time>
      </trkpt>
      <trkpt lat="44.27742" lon="6.21135">
        <ele>1676.1960449</ele>
        <time>2013-07-28T09:28:53Z</time>
      </trkpt>
      <trkpt lat="44.27733" lon="6.21137">
        <ele>1678.1186523</ele>
        <time>2013-07-28T09:29:13Z</time>
      </trkpt>
      <trkpt lat="44.27718" lon="6.21144">
        <ele>1680.0412598</ele>
        <time>2013-07-28T09:29:36Z</time>
      </trkpt>
      <trkpt lat="44.27701" lon="6.21155">
        <ele>1682.4445801</ele>
        <time>2013-07-28T09:30:01Z</time>
      </trkpt>
      <trkpt lat="44.2768" lon="6.21166">
        <ele>1683.4057617</ele>
        <time>2013-07-28T09:30:30Z</time>
      </trkpt>
      <trkpt lat="44.27657" lon="6.21178">
        <ele>1681.4831543</ele>
        <time>2013-07-28T09:31:07Z</time>
      </trkpt>
      <trkpt lat="44.27642" lon="6.21186">
        <ele>1679.5605469</ele>
        <time>2013-07-28T09:31:32Z</time>
      </trkpt>
      <trkpt lat="44.27628" lon="6.21198">
        <ele>1676.6767578</ele>
        <time>2013-07-28T09:32:02Z</time>
      </trkpt>
      <trkpt lat="44.27618" lon="6.21202">
        <ele>1676.1960449</ele>
        <time>2013-07-28T09:32:19Z</time>
      </trkpt>
      <trkpt lat="44.27604" lon="6.21204">
        <ele>1673.3120117</ele>
        <time>2013-07-28T09:32:46Z</time>
      </trkpt>
      <trkpt lat="44.27605" lon="6.21203">
        <ele>1676.1960449</ele>
        <time>2013-07-28T09:39:22Z</time>
      </trkpt>
      <trkpt lat="44.27605" lon="6.21202">
        <ele>1673.3120117</ele>
        <time>2013-07-28T09:43:00Z</time>
      </trkpt>
      <trkpt lat="44.27606" lon="6.21201">
        <ele>1676.6767578</ele>
        <time>2013-07-28T09:43:33Z</time>
      </trkpt>
      <trkpt lat="44.27605" lon="6.21199">
        <ele>1676.1960449</ele>
        <time>2013-07-28T09:43:41Z</time>
      </trkpt>
      <trkpt lat="44.27603" lon="6.21194">
        <ele>1676.1960449</ele>
        <time>2013-07-28T09:43:45Z</time>
      </trkpt>
      <trkpt lat="44.27599" lon="6.21185">
        <ele>1677.6379395</ele>
        <time>2013-07-28T09:43:52Z</time>
      </trkpt>
      <trkpt lat="44.27596" lon="6.21177">
        <ele>1678.1186523</ele>
        <time>2013-07-28T09:43:59Z</time>
      </trkpt>
      <trkpt lat="44.27598" lon="6.21155">
        <ele>1680.5219727</ele>
        <time>2013-07-28T09:44:19Z</time>
      </trkpt>
      <trkpt lat="44.27599" lon="6.21154">
        <ele>1680.5219727</ele>
        <time>2013-07-28T09:44:20Z</time>
      </trkpt>
      <trkpt lat="44.27602" lon="6.21155">
        <ele>1680.0412598</ele>
        <time>2013-07-28T09:44:23Z</time>
      </trkpt>
      <trkpt lat="44.27617" lon="6.21147">
        <ele>1681.0026855</ele>
        <time>2013-07-28T09:44:41Z</time>
      </trkpt>
      <trkpt lat="44.27619" lon="6.21142">
        <ele>1683.4057617</ele>
        <time>2013-07-28T09:44:46Z</time>
      </trkpt>
      <trkpt lat="44.27618" lon="6.21139">
        <ele>1683.8864746</ele>
        <time>2013-07-28T09:44:48Z</time>
      </trkpt>
      <trkpt lat="44.27621" lon="6.21107">
        <ele>1682.4445801</ele>
        <time>2013-07-28T09:45:11Z</time>
      </trkpt>
      <trkpt lat="44.27621" lon="6.21104">
        <ele>1683.4057617</ele>
        <time>2013-07-28T09:45:13Z</time>
      </trkpt>
      <trkpt lat="44.27627" lon="6.21075">
        <ele>1681.4831543</ele>
        <time>2013-07-28T09:45:37Z</time>
      </trkpt>
      <trkpt lat="44.27626" lon="6.21063">
        <ele>1682.4445801</ele>
        <time>2013-07-28T09:45:56Z</time>
      </trkpt>
      <trkpt lat="44.27622" lon="6.21041">
        <ele>1681.4831543</ele>
        <time>2013-07-28T09:46:08Z</time>
      </trkpt>
      <trkpt lat="44.27614" lon="6.21015">
        <ele>1680.5219727</ele>
        <time>2013-07-28T09:46:20Z</time>
      </trkpt>
      <trkpt lat="44.27612" lon="6.21012">
        <ele>1680.0412598</ele>
        <time>2013-07-28T09:46:35Z</time>
      </trkpt>
      <trkpt lat="44.27609" lon="6.21003">
        <ele>1679.5605469</ele>
        <time>2013-07-28T09:46:47Z</time>
      </trkpt>
      <trkpt lat="44.27597" lon="6.2099">
        <ele>1680.0412598</ele>
        <time>2013-07-28T09:47:09Z</time>
      </trkpt>
      <trkpt lat="44.27593" lon="6.20989">
        <ele>1679.5605469</ele>
        <time>2013-07-28T09:47:22Z</time>
      </trkpt>
      <trkpt lat="44.27571" lon="6.20972">
        <ele>1676.1960449</ele>
        <time>2013-07-28T09:47:36Z</time>
      </trkpt>
      <trkpt lat="44.2756" lon="6.20963">
        <ele>1672.8312988</ele>
        <time>2013-07-28T09:47:43Z</time>
      </trkpt>
      <trkpt lat="44.2754" lon="6.20951">
        <ele>1669.4667969</ele>
        <time>2013-07-28T09:47:54Z</time>
      </trkpt>
      <trkpt lat="44.27534" lon="6.20947">
        <ele>1668.0246582</ele>
        <time>2013-07-28T09:47:58Z</time>
      </trkpt>
      <trkpt lat="44.27524" lon="6.20937">
        <ele>1665.1408691</ele>
        <time>2013-07-28T09:48:13Z</time>
      </trkpt>
      <trkpt lat="44.2752" lon="6.20935">
        <ele>1664.1794434</ele>
        <time>2013-07-28T09:48:29Z</time>
      </trkpt>
      <trkpt lat="44.27516" lon="6.20929">
        <ele>1662.7375488</ele>
        <time>2013-07-28T09:48:44Z</time>
      </trkpt>
      <trkpt lat="44.27509" lon="6.20921">
        <ele>1661.7763672</ele>
        <time>2013-07-28T09:49:05Z</time>
      </trkpt>
      <trkpt lat="44.27503" lon="6.20908">
        <ele>1658.411377</ele>
        <time>2013-07-28T09:49:25Z</time>
      </trkpt>
      <trkpt lat="44.27493" lon="6.20893">
        <ele>1656.0080566</ele>
        <time>2013-07-28T09:49:49Z</time>
      </trkpt>
      <trkpt lat="44.27488" lon="6.20885">
        <ele>1655.046875</ele>
        <time>2013-07-28T09:50:04Z</time>
      </trkpt>
      <trkpt lat="44.27482" lon="6.20878">
        <ele>1651.682373</ele>
        <time>2013-07-28T09:50:20Z</time>
      </trkpt>
      <trkpt lat="44.27476" lon="6.2087">
        <ele>1648.7983398</ele>
        <time>2013-07-28T09:50:41Z</time>
      </trkpt>
      <trkpt lat="44.27467" lon="6.20859">
        <ele>1645.9145508</ele>
        <time>2013-07-28T09:51:01Z</time>
      </trkpt>
      <trkpt lat="44.27462" lon="6.20847">
        <ele>1644.4724121</ele>
        <time>2013-07-28T09:51:18Z</time>
      </trkpt>
      <trkpt lat="44.27458" lon="6.20839">
        <ele>1643.5109863</ele>
        <time>2013-07-28T09:51:35Z</time>
      </trkpt>
      <trkpt lat="44.2745" lon="6.20818">
        <ele>1640.1464844</ele>
        <time>2013-07-28T09:51:44Z</time>
      </trkpt>
      <trkpt lat="44.27449" lon="6.20815">
        <ele>1640.1464844</ele>
        <time>2013-07-28T09:51:45Z</time>
      </trkpt>
      <trkpt lat="44.27443" lon="6.20796">
        <ele>1636.3012695</ele>
        <time>2013-07-28T09:51:55Z</time>
      </trkpt>
      <trkpt lat="44.27436" lon="6.20766">
        <ele>1633.8979492</ele>
        <time>2013-07-28T09:52:08Z</time>
      </trkpt>
      <trkpt lat="44.27427" lon="6.20737">
        <ele>1633.8979492</ele>
        <time>2013-07-28T09:52:21Z</time>
      </trkpt>
      <trkpt lat="44.27406" lon="6.2071">
        <ele>1631.9753418</ele>
        <time>2013-07-28T09:52:33Z</time>
      </trkpt>
      <trkpt lat="44.27403" lon="6.20702">
        <ele>1632.4560547</ele>
        <time>2013-07-28T09:52:45Z</time>
      </trkpt>
      <trkpt lat="44.27397" lon="6.20691">
        <ele>1631.9753418</ele>
        <time>2013-07-28T09:52:59Z</time>
      </trkpt>
      <trkpt lat="44.27396" lon="6.20689">
        <ele>1631.4946289</ele>
        <time>2013-07-28T09:53:01Z</time>
      </trkpt>
      <trkpt lat="44.27402" lon="6.20677">
        <ele>1631.9753418</ele>
        <time>2013-07-28T09:53:17Z</time>
      </trkpt>
      <trkpt lat="44.27419" lon="6.20658">
        <ele>1632.4560547</ele>
        <time>2013-07-28T09:53:40Z</time>
      </trkpt>
      <trkpt lat="44.27431" lon="6.20636">
        <ele>1632.4560547</ele>
        <time>2013-07-28T09:54:01Z</time>
      </trkpt>
      <trkpt lat="44.27433" lon="6.20633">
        <ele>1632.4560547</ele>
        <time>2013-07-28T09:54:08Z</time>
      </trkpt>
      <trkpt lat="44.27414" lon="6.20626">
        <ele>1635.3398438</ele>
        <time>2013-07-28T09:54:31Z</time>
      </trkpt>
      <trkpt lat="44.27405" lon="6.20621">
        <ele>1638.223877</ele>
        <time>2013-07-28T09:54:44Z</time>
      </trkpt>
      <trkpt lat="44.27382" lon="6.20617">
        <ele>1640.6269531</ele>
        <time>2013-07-28T09:55:16Z</time>
      </trkpt>
      <trkpt lat="44.27366" lon="6.20602">
        <ele>1641.107666</ele>
        <time>2013-07-28T09:55:35Z</time>
      </trkpt>
      <trkpt lat="44.2736" lon="6.20573">
        <ele>1642.0690918</ele>
        <time>2013-07-28T09:55:59Z</time>
      </trkpt>
      <trkpt lat="44.27368" lon="6.20565">
        <ele>1640.1464844</ele>
        <time>2013-07-28T09:56:19Z</time>
      </trkpt>
      <trkpt lat="44.2737" lon="6.20565">
        <ele>1639.6657715</ele>
        <time>2013-07-28T09:56:21Z</time>
      </trkpt>
      <trkpt lat="44.27379" lon="6.2057">
        <ele>1640.6269531</ele>
        <time>2013-07-28T09:56:37Z</time>
      </trkpt>
      <trkpt lat="44.27385" lon="6.20565">
        <ele>1642.0690918</ele>
        <time>2013-07-28T09:56:46Z</time>
      </trkpt>
      <trkpt lat="44.27396" lon="6.20542">
        <ele>1644.4724121</ele>
        <time>2013-07-28T09:57:10Z</time>
      </trkpt>
      <trkpt lat="44.27405" lon="6.20529">
        <ele>1643.5109863</ele>
        <time>2013-07-28T09:57:31Z</time>
      </trkpt>
      <trkpt lat="44.2741" lon="6.20524">
        <ele>1643.0302734</ele>
        <time>2013-07-28T09:57:51Z</time>
      </trkpt>
      <trkpt lat="44.27411" lon="6.20523">
        <ele>1642.5498047</ele>
        <time>2013-07-28T09:58:02Z</time>
      </trkpt>
      <trkpt lat="44.27427" lon="6.2052">
        <ele>1639.6657715</ele>
        <time>2013-07-28T09:58:13Z</time>
      </trkpt>
      <trkpt lat="44.27428" lon="6.20519">
        <ele>1639.6657715</ele>
        <time>2013-07-28T09:58:14Z</time>
      </trkpt>
      <trkpt lat="44.27442" lon="6.20515">
        <ele>1636.3012695</ele>
        <time>2013-07-28T09:58:24Z</time>
      </trkpt>
      <trkpt lat="44.27444" lon="6.20513">
        <ele>1635.8205566</ele>
        <time>2013-07-28T09:58:26Z</time>
      </trkpt>
      <trkpt lat="44.27459" lon="6.20509">
        <ele>1633.4172363</ele>
        <time>2013-07-28T09:58:35Z</time>
      </trkpt>
      <trkpt lat="44.27482" lon="6.20507">
        <ele>1629.0913086</ele>
        <time>2013-07-28T09:58:42Z</time>
      </trkpt>
      <trkpt lat="44.27488" lon="6.20506">
        <ele>1628.130127</ele>
        <time>2013-07-28T09:58:44Z</time>
      </trkpt>
      <trkpt lat="44.27505" lon="6.20507">
        <ele>1624.7653809</ele>
        <time>2013-07-28T09:58:50Z</time>
      </trkpt>
      <trkpt lat="44.27509" lon="6.20507">
        <ele>1624.7653809</ele>
        <time>2013-07-28T09:58:51Z</time>
      </trkpt>
      <trkpt lat="44.27522" lon="6.205">
        <ele>1622.8427734</ele>
        <time>2013-07-28T09:59:00Z</time>
      </trkpt>
      <trkpt lat="44.27522" lon="6.205">
        <ele>1622.3620605</ele>
        <time>2013-07-28T09:59:07Z</time>
      </trkpt>
      <trkpt lat="44.27531" lon="6.20499">
        <ele>1621.8813477</ele>
        <time>2013-07-28T09:59:12Z</time>
      </trkpt>
      <trkpt lat="44.2755" lon="6.20485">
        <ele>1619.4782715</ele>
        <time>2013-07-28T09:59:19Z</time>
      </trkpt>
      <trkpt lat="44.27563" lon="6.20476">
        <ele>1618.0361328</ele>
        <time>2013-07-28T09:59:23Z</time>
      </trkpt>
      <trkpt lat="44.27578" lon="6.20465">
        <ele>1615.1523438</ele>
        <time>2013-07-28T09:59:28Z</time>
      </trkpt>
      <trkpt lat="44.27605" lon="6.2045">
        <ele>1611.7875977</ele>
        <time>2013-07-28T09:59:38Z</time>
      </trkpt>
      <trkpt lat="44.27626" lon="6.20431">
        <ele>1608.9035645</ele>
        <time>2013-07-28T09:59:48Z</time>
      </trkpt>
      <trkpt lat="44.27647" lon="6.20408">
        <ele>1605.5390625</ele>
        <time>2013-07-28T09:59:57Z</time>
      </trkpt>
      <trkpt lat="44.27656" lon="6.20397">
        <ele>1603.6164551</ele>
        <time>2013-07-28T10:00:09Z</time>
      </trkpt>
      <trkpt lat="44.27655" lon="6.20395">
        <ele>1603.1357422</ele>
        <time>2013-07-28T10:00:36Z</time>
      </trkpt>
      <trkpt lat="44.27668" lon="6.20376">
        <ele>1602.1743164</ele>
        <time>2013-07-28T10:01:03Z</time>
      </trkpt>
      <trkpt lat="44.27701" lon="6.20329">
        <ele>1600.7324219</ele>
        <time>2013-07-28T10:01:17Z</time>
      </trkpt>
      <trkpt lat="44.27716" lon="6.20297">
        <ele>1598.3291016</ele>
        <time>2013-07-28T10:01:28Z</time>
      </trkpt>
      <trkpt lat="44.27725" lon="6.20272">
        <ele>1596.887207</ele>
        <time>2013-07-28T10:01:41Z</time>
      </trkpt>
      <trkpt lat="44.27734" lon="6.20227">
        <ele>1595.9257813</ele>
        <time>2013-07-28T10:01:56Z</time>
      </trkpt>
      <trkpt lat="44.27736" lon="6.2019">
        <ele>1594.4836426</ele>
        <time>2013-07-28T10:02:06Z</time>
      </trkpt>
      <trkpt lat="44.27755" lon="6.20147">
        <ele>1593.041748</ele>
        <time>2013-07-28T10:02:21Z</time>
      </trkpt>
      <trkpt lat="44.27765" lon="6.20123">
        <ele>1593.041748</ele>
        <time>2013-07-28T10:02:32Z</time>
      </trkpt>
      <trkpt lat="44.27772" lon="6.2009">
        <ele>1592.5612793</ele>
        <time>2013-07-28T10:02:48Z</time>
      </trkpt>
      <trkpt lat="44.27771" lon="6.20088">
        <ele>1589.1965332</ele>
        <time>2013-07-28T10:03:00Z</time>
      </trkpt>
      <trkpt lat="44.27771" lon="6.20088">
        <ele>1589.1965332</ele>
        <time>2013-07-28T10:03:01Z</time>
      </trkpt>
      <trkpt lat="44.27771" lon="6.20088">
        <ele>1590.157959</ele>
        <time>2013-07-28T10:03:03Z</time>
      </trkpt>
      <trkpt lat="44.27772" lon="6.20075">
        <ele>1588.2353516</ele>
        <time>2013-07-28T10:03:19Z</time>
      </trkpt>
      <trkpt lat="44.27768" lon="6.20064">
        <ele>1587.7546387</ele>
        <time>2013-07-28T10:03:26Z</time>
      </trkpt>
      <trkpt lat="44.27765" lon="6.20058">
        <ele>1588.7160645</ele>
        <time>2013-07-28T10:03:33Z</time>
      </trkpt>
      <trkpt lat="44.27764" lon="6.20058">
        <ele>1587.2739258</ele>
        <time>2013-07-28T10:03:34Z</time>
      </trkpt>
      <trkpt lat="44.27757" lon="6.20049">
        <ele>1586.7932129</ele>
        <time>2013-07-28T10:03:42Z</time>
      </trkpt>
      <trkpt lat="44.27748" lon="6.20023">
        <ele>1589.1965332</ele>
        <time>2013-07-28T10:03:52Z</time>
      </trkpt>
      <trkpt lat="44.27748" lon="6.19967">
        <ele>1587.2739258</ele>
        <time>2013-07-28T10:04:11Z</time>
      </trkpt>
      <trkpt lat="44.27746" lon="6.19954">
        <ele>1585.8320313</ele>
        <time>2013-07-28T10:04:22Z</time>
      </trkpt>
      <trkpt lat="44.27746" lon="6.19952">
        <ele>1586.3127441</ele>
        <time>2013-07-28T10:04:23Z</time>
      </trkpt>
      <trkpt lat="44.27751" lon="6.19944">
        <ele>1586.7932129</ele>
        <time>2013-07-28T10:04:36Z</time>
      </trkpt>
      <trkpt lat="44.27765" lon="6.1995">
        <ele>1588.7160645</ele>
        <time>2013-07-28T10:04:52Z</time>
      </trkpt>
      <trkpt lat="44.2777" lon="6.19948">
        <ele>1588.2353516</ele>
        <time>2013-07-28T10:04:57Z</time>
      </trkpt>
      <trkpt lat="44.27783" lon="6.19942">
        <ele>1589.6772461</ele>
        <time>2013-07-28T10:05:12Z</time>
      </trkpt>
      <trkpt lat="44.27795" lon="6.19936">
        <ele>1591.5998535</ele>
        <time>2013-07-28T10:05:27Z</time>
      </trkpt>
      <trkpt lat="44.27805" lon="6.1993">
        <ele>1593.5224609</ele>
        <time>2013-07-28T10:05:40Z</time>
      </trkpt>
      <trkpt lat="44.27805" lon="6.19926">
        <ele>1594.0031738</ele>
        <time>2013-07-28T10:05:43Z</time>
      </trkpt>
      <trkpt lat="44.27811" lon="6.19911">
        <ele>1595.4450684</ele>
        <time>2013-07-28T10:05:56Z</time>
      </trkpt>
      <trkpt lat="44.27812" lon="6.19907">
        <ele>1595.9257813</ele>
        <time>2013-07-28T10:06:00Z</time>
      </trkpt>
      <trkpt lat="44.27823" lon="6.19891">
        <ele>1595.4450684</ele>
        <time>2013-07-28T10:06:16Z</time>
      </trkpt>
      <trkpt lat="44.27826" lon="6.19888">
        <ele>1595.4450684</ele>
        <time>2013-07-28T10:06:20Z</time>
      </trkpt>
      <trkpt lat="44.27828" lon="6.1988">
        <ele>1595.4450684</ele>
        <time>2013-07-28T10:06:29Z</time>
      </trkpt>
      <trkpt lat="44.27835" lon="6.19872">
        <ele>1596.4067383</ele>
        <time>2013-07-28T10:06:38Z</time>
      </trkpt>
      <trkpt lat="44.27845" lon="6.19861">
        <ele>1597.3679199</ele>
        <time>2013-07-28T10:06:48Z</time>
      </trkpt>
      <trkpt lat="44.27847" lon="6.19859">
        <ele>1597.8486328</ele>
        <time>2013-07-28T10:06:50Z</time>
      </trkpt>
      <trkpt lat="44.27853" lon="6.19852">
        <ele>1597.8486328</ele>
        <time>2013-07-28T10:06:57Z</time>
      </trkpt>
      <trkpt lat="44.27853" lon="6.19849">
        <ele>1598.3291016</ele>
        <time>2013-07-28T10:07:00Z</time>
      </trkpt>
      <trkpt lat="44.27858" lon="6.19835">
        <ele>1599.2905273</ele>
        <time>2013-07-28T10:07:15Z</time>
      </trkpt>
      <trkpt lat="44.27859" lon="6.19829">
        <ele>1600.2519531</ele>
        <time>2013-07-28T10:07:41Z</time>
      </trkpt>
      <trkpt lat="44.27859" lon="6.19829">
        <ele>1601.2131348</ele>
        <time>2013-07-28T10:08:07Z</time>
      </trkpt>
      <trkpt lat="44.27866" lon="6.19817">
        <ele>1601.6938477</ele>
        <time>2013-07-28T10:08:14Z</time>
      </trkpt>
      <trkpt lat="44.27884" lon="6.19784">
        <ele>1601.6938477</ele>
        <time>2013-07-28T10:08:28Z</time>
      </trkpt>
      <trkpt lat="44.27887" lon="6.19777">
        <ele>1601.2131348</ele>
        <time>2013-07-28T10:08:31Z</time>
      </trkpt>
      <trkpt lat="44.27886" lon="6.19764">
        <ele>1600.7324219</ele>
        <time>2013-07-28T10:08:35Z</time>
      </trkpt>
      <trkpt lat="44.27877" lon="6.19741">
        <ele>1599.7712402</ele>
        <time>2013-07-28T10:08:48Z</time>
      </trkpt>
      <trkpt lat="44.27865" lon="6.19714">
        <ele>1597.3679199</ele>
        <time>2013-07-28T10:08:55Z</time>
      </trkpt>
      <trkpt lat="44.27856" lon="6.19696">
        <ele>1596.887207</ele>
        <time>2013-07-28T10:09:00Z</time>
      </trkpt>
      <trkpt lat="44.27856" lon="6.19695">
        <ele>1597.3679199</ele>
        <time>2013-07-28T10:09:07Z</time>
      </trkpt>
      <trkpt lat="44.27856" lon="6.19695">
        <ele>1598.3291016</ele>
        <time>2013-07-28T10:09:08Z</time>
      </trkpt>
      <trkpt lat="44.27857" lon="6.1969">
        <ele>1597.8486328</ele>
        <time>2013-07-28T10:09:10Z</time>
      </trkpt>
      <trkpt lat="44.27856" lon="6.19686">
        <ele>1597.3679199</ele>
        <time>2013-07-28T10:09:12Z</time>
      </trkpt>
      <trkpt lat="44.27846" lon="6.1966">
        <ele>1597.8486328</ele>
        <time>2013-07-28T10:09:17Z</time>
      </trkpt>
      <trkpt lat="44.27843" lon="6.19643">
        <ele>1597.8486328</ele>
        <time>2013-07-28T10:09:23Z</time>
      </trkpt>
      <trkpt lat="44.27841" lon="6.19636">
        <ele>1599.7712402</ele>
        <time>2013-07-28T10:09:31Z</time>
      </trkpt>
      <trkpt lat="44.27845" lon="6.19634">
        <ele>1599.7712402</ele>
        <time>2013-07-28T10:09:36Z</time>
      </trkpt>
      <trkpt lat="44.27846" lon="6.19631">
        <ele>1600.2519531</ele>
        <time>2013-07-28T10:09:39Z</time>
      </trkpt>
      <trkpt lat="44.27838" lon="6.19607">
        <ele>1598.8098145</ele>
        <time>2013-07-28T10:09:53Z</time>
      </trkpt>
      <trkpt lat="44.27841" lon="6.19596">
        <ele>1599.7712402</ele>
        <time>2013-07-28T10:10:04Z</time>
      </trkpt>
      <trkpt lat="44.27853" lon="6.19582">
        <ele>1601.6938477</ele>
        <time>2013-07-28T10:10:19Z</time>
      </trkpt>
      <trkpt lat="44.27856" lon="6.19578">
        <ele>1602.1743164</ele>
        <time>2013-07-28T10:10:24Z</time>
      </trkpt>
      <trkpt lat="44.27863" lon="6.19563">
        <ele>1602.6550293</ele>
        <time>2013-07-28T10:10:38Z</time>
      </trkpt>
      <trkpt lat="44.27866" lon="6.19552">
        <ele>1602.6550293</ele>
        <time>2013-07-28T10:10:54Z</time>
      </trkpt>
      <trkpt lat="44.27865" lon="6.19553">
        <ele>1602.1743164</ele>
        <time>2013-07-28T10:10:57Z</time>
      </trkpt>
      <trkpt lat="44.27867" lon="6.19545">
        <ele>1602.1743164</ele>
        <time>2013-07-28T10:11:01Z</time>
      </trkpt>
      <trkpt lat="44.27869" lon="6.1954">
        <ele>1602.1743164</ele>
        <time>2013-07-28T10:11:03Z</time>
      </trkpt>
      <trkpt lat="44.27874" lon="6.19532">
        <ele>1603.1357422</ele>
        <time>2013-07-28T10:11:07Z</time>
      </trkpt>
      <trkpt lat="44.27884" lon="6.19509">
        <ele>1605.0583496</ele>
        <time>2013-07-28T10:11:16Z</time>
      </trkpt>
      <trkpt lat="44.27889" lon="6.19475">
        <ele>1605.5390625</ele>
        <time>2013-07-28T10:11:27Z</time>
      </trkpt>
      <trkpt lat="44.27891" lon="6.19468">
        <ele>1606.0195313</ele>
        <time>2013-07-28T10:11:30Z</time>
      </trkpt>
      <trkpt lat="44.279" lon="6.19427">
        <ele>1605.5390625</ele>
        <time>2013-07-28T10:11:44Z</time>
      </trkpt>
      <trkpt lat="44.27915" lon="6.19389">
        <ele>1604.097168</ele>
        <time>2013-07-28T10:11:56Z</time>
      </trkpt>
      <trkpt lat="44.27923" lon="6.19366">
        <ele>1603.6164551</ele>
        <time>2013-07-28T10:12:02Z</time>
      </trkpt>
      <trkpt lat="44.27927" lon="6.19358">
        <ele>1603.6164551</ele>
        <time>2013-07-28T10:12:05Z</time>
      </trkpt>
      <trkpt lat="44.2793" lon="6.19352">
        <ele>1603.1357422</ele>
        <time>2013-07-28T10:12:07Z</time>
      </trkpt>
      <trkpt lat="44.27947" lon="6.19305">
        <ele>1603.1357422</ele>
        <time>2013-07-28T10:12:24Z</time>
      </trkpt>
      <trkpt lat="44.2795" lon="6.19302">
        <ele>1604.097168</ele>
        <time>2013-07-28T10:12:26Z</time>
      </trkpt>
      <trkpt lat="44.27974" lon="6.19282">
        <ele>1605.0583496</ele>
        <time>2013-07-28T10:12:40Z</time>
      </trkpt>
      <trkpt lat="44.2798" lon="6.1928">
        <ele>1605.0583496</ele>
        <time>2013-07-28T10:12:44Z</time>
      </trkpt>
      <trkpt lat="44.28009" lon="6.19259">
        <ele>1604.5776367</ele>
        <time>2013-07-28T10:12:59Z</time>
      </trkpt>
      <trkpt lat="44.28035" lon="6.1924">
        <ele>1601.2131348</ele>
        <time>2013-07-28T10:13:11Z</time>
      </trkpt>
      <trkpt lat="44.28043" lon="6.19226">
        <ele>1599.7712402</ele>
        <time>2013-07-28T10:13:16Z</time>
      </trkpt>
      <trkpt lat="44.28041" lon="6.19206">
        <ele>1598.8098145</ele>
        <time>2013-07-28T10:13:20Z</time>
      </trkpt>
      <trkpt lat="44.28042" lon="6.19141">
        <ele>1596.887207</ele>
        <time>2013-07-28T10:13:35Z</time>
      </trkpt>
      <trkpt lat="44.28043" lon="6.19137">
        <ele>1596.4067383</ele>
        <time>2013-07-28T10:13:36Z</time>
      </trkpt>
      <trkpt lat="44.28053" lon="6.19105">
        <ele>1597.3679199</ele>
        <time>2013-07-28T10:13:47Z</time>
      </trkpt>
      <trkpt lat="44.28061" lon="6.19087">
        <ele>1597.8486328</ele>
        <time>2013-07-28T10:13:56Z</time>
      </trkpt>
      <trkpt lat="44.28069" lon="6.19064">
        <ele>1597.8486328</ele>
        <time>2013-07-28T10:14:06Z</time>
      </trkpt>
      <trkpt lat="44.28075" lon="6.19049">
        <ele>1597.3679199</ele>
        <time>2013-07-28T10:14:12Z</time>
      </trkpt>
      <trkpt lat="44.28082" lon="6.19034">
        <ele>1597.3679199</ele>
        <time>2013-07-28T10:14:18Z</time>
      </trkpt>
      <trkpt lat="44.2808" lon="6.1901">
        <ele>1597.8486328</ele>
        <time>2013-07-28T10:14:30Z</time>
      </trkpt>
      <trkpt lat="44.28083" lon="6.1899">
        <ele>1597.8486328</ele>
        <time>2013-07-28T10:14:42Z</time>
      </trkpt>
      <trkpt lat="44.28083" lon="6.18952">
        <ele>1595.9257813</ele>
        <time>2013-07-28T10:14:58Z</time>
      </trkpt>
      <trkpt lat="44.28082" lon="6.18945">
        <ele>1595.4450684</ele>
        <time>2013-07-28T10:15:11Z</time>
      </trkpt>
      <trkpt lat="44.28083" lon="6.18926">
        <ele>1594.0031738</ele>
        <time>2013-07-28T10:15:23Z</time>
      </trkpt>
      <trkpt lat="44.2808" lon="6.18879">
        <ele>1593.041748</ele>
        <time>2013-07-28T10:15:37Z</time>
      </trkpt>
      <trkpt lat="44.28073" lon="6.18831">
        <ele>1593.5224609</ele>
        <time>2013-07-28T10:15:55Z</time>
      </trkpt>
      <trkpt lat="44.28071" lon="6.18825">
        <ele>1594.0031738</ele>
        <time>2013-07-28T10:16:10Z</time>
      </trkpt>
      <trkpt lat="44.2807" lon="6.18824">
        <ele>1593.5224609</ele>
        <time>2013-07-28T10:16:26Z</time>
      </trkpt>
      <trkpt lat="44.2807" lon="6.18824">
        <ele>1593.041748</ele>
        <time>2013-07-28T10:16:50Z</time>
      </trkpt>
      <trkpt lat="44.28071" lon="6.18824">
        <ele>1594.4836426</ele>
        <time>2013-07-28T10:17:02Z</time>
      </trkpt>
      <trkpt lat="44.28076" lon="6.18821">
        <ele>1594.4836426</ele>
        <time>2013-07-28T10:17:06Z</time>
      </trkpt>
      <trkpt lat="44.28095" lon="6.18782">
        <ele>1591.5998535</ele>
        <time>2013-07-28T10:17:19Z</time>
      </trkpt>
      <trkpt lat="44.28122" lon="6.18743">
        <ele>1588.2353516</ele>
        <time>2013-07-28T10:17:32Z</time>
      </trkpt>
      <trkpt lat="44.28143" lon="6.18742">
        <ele>1585.3513184</ele>
        <time>2013-07-28T10:17:44Z</time>
      </trkpt>
      <trkpt lat="44.28145" lon="6.18755">
        <ele>1584.3901367</ele>
        <time>2013-07-28T10:17:49Z</time>
      </trkpt>
      <trkpt lat="44.28157" lon="6.18737">
        <ele>1582.4675293</ele>
        <time>2013-07-28T10:17:58Z</time>
      </trkpt>
      <trkpt lat="44.28163" lon="6.18709">
        <ele>1580.064209</ele>
        <time>2013-07-28T10:18:04Z</time>
      </trkpt>
      <trkpt lat="44.28173" lon="6.18689">
        <ele>1579.1025391</ele>
        <time>2013-07-28T10:18:09Z</time>
      </trkpt>
      <trkpt lat="44.28168" lon="6.18679">
        <ele>1578.6220703</ele>
        <time>2013-07-28T10:18:14Z</time>
      </trkpt>
      <trkpt lat="44.28157" lon="6.18679">
        <ele>1577.1801758</ele>
        <time>2013-07-28T10:18:18Z</time>
      </trkpt>
      <trkpt lat="44.28131" lon="6.1868">
        <ele>1575.2573242</ele>
        <time>2013-07-28T10:18:25Z</time>
      </trkpt>
      <trkpt lat="44.28107" lon="6.18673">
        <ele>1572.854248</ele>
        <time>2013-07-28T10:18:31Z</time>
      </trkpt>
      <trkpt lat="44.28042" lon="6.18654">
        <ele>1570.4509277</ele>
        <time>2013-07-28T10:18:44Z</time>
      </trkpt>
      <trkpt lat="44.2798" lon="6.18661">
        <ele>1567.5668945</ele>
        <time>2013-07-28T10:18:58Z</time>
      </trkpt>
      <trkpt lat="44.27977" lon="6.18625">
        <ele>1566.6057129</ele>
        <time>2013-07-28T10:19:06Z</time>
      </trkpt>
      <trkpt lat="44.2801" lon="6.18581">
        <ele>1568.5283203</ele>
        <time>2013-07-28T10:19:24Z</time>
      </trkpt>
      <trkpt lat="44.28033" lon="6.18541">
        <ele>1569.9702148</ele>
        <time>2013-07-28T10:19:39Z</time>
      </trkpt>
      <trkpt lat="44.28063" lon="6.18478">
        <ele>1569.0090332</ele>
        <time>2013-07-28T10:19:59Z</time>
      </trkpt>
      <trkpt lat="44.28074" lon="6.18441">
        <ele>1568.0476074</ele>
        <time>2013-07-28T10:20:08Z</time>
      </trkpt>
      <trkpt lat="44.28076" lon="6.18401">
        <ele>1565.6445313</ele>
        <time>2013-07-28T10:20:17Z</time>
      </trkpt>
      <trkpt lat="44.281" lon="6.18345">
        <ele>1563.7214355</ele>
        <time>2013-07-28T10:20:28Z</time>
      </trkpt>
      <trkpt lat="44.28106" lon="6.18336">
        <ele>1562.7602539</ele>
        <time>2013-07-28T10:20:31Z</time>
      </trkpt>
      <trkpt lat="44.28145" lon="6.1831">
        <ele>1560.3569336</ele>
        <time>2013-07-28T10:20:46Z</time>
      </trkpt>
      <trkpt lat="44.28178" lon="6.18309">
        <ele>1556.9924316</ele>
        <time>2013-07-28T10:20:59Z</time>
      </trkpt>
      <trkpt lat="44.2821" lon="6.18295">
        <ele>1554.1086426</ele>
        <time>2013-07-28T10:21:11Z</time>
      </trkpt>
      <trkpt lat="44.28236" lon="6.18269">
        <ele>1552.6665039</ele>
        <time>2013-07-28T10:21:25Z</time>
      </trkpt>
      <trkpt lat="44.28254" lon="6.18208">
        <ele>1550.7438965</ele>
        <time>2013-07-28T10:21:41Z</time>
      </trkpt>
      <trkpt lat="44.28229" lon="6.18158">
        <ele>1550.7438965</ele>
        <time>2013-07-28T10:21:55Z</time>
      </trkpt>
      <trkpt lat="44.28216" lon="6.1809">
        <ele>1551.7053223</ele>
        <time>2013-07-28T10:22:13Z</time>
      </trkpt>
      <trkpt lat="44.28217" lon="6.18024">
        <ele>1553.1472168</ele>
        <time>2013-07-28T10:22:30Z</time>
      </trkpt>
      <trkpt lat="44.28211" lon="6.17944">
        <ele>1554.1086426</ele>
        <time>2013-07-28T10:22:51Z</time>
      </trkpt>
      <trkpt lat="44.2821" lon="6.17941">
        <ele>1554.1086426</ele>
        <time>2013-07-28T10:23:04Z</time>
      </trkpt>
      <trkpt lat="44.2821" lon="6.17941">
        <ele>1554.5891113</ele>
        <time>2013-07-28T10:23:29Z</time>
      </trkpt>
      <trkpt lat="44.2821" lon="6.17941">
        <ele>1554.1086426</ele>
        <time>2013-07-28T10:23:34Z</time>
      </trkpt>
      <trkpt lat="44.28205" lon="6.1793">
        <ele>1554.1086426</ele>
        <time>2013-07-28T10:23:48Z</time>
      </trkpt>
      <trkpt lat="44.28205" lon="6.1793">
        <ele>1554.1086426</ele>
        <time>2013-07-28T10:24:06Z</time>
      </trkpt>
      <trkpt lat="44.28205" lon="6.1793">
        <ele>1554.5891113</ele>
        <time>2013-07-28T10:24:33Z</time>
      </trkpt>
      <trkpt lat="44.28205" lon="6.1793">
        <ele>1551.7053223</ele>
        <time>2013-07-28T10:25:15Z</time>
      </trkpt>
      <trkpt lat="44.28205" lon="6.1793">
        <ele>1552.6665039</ele>
        <time>2013-07-28T10:25:57Z</time>
      </trkpt>
      <trkpt lat="44.28205" lon="6.1793">
        <ele>1551.2246094</ele>
        <time>2013-07-28T10:26:09Z</time>
      </trkpt>
      <trkpt lat="44.28205" lon="6.1793">
        <ele>1551.2246094</ele>
        <time>2013-07-28T10:26:31Z</time>
      </trkpt>
      <trkpt lat="44.28205" lon="6.1793">
        <ele>1550.7438965</ele>
        <time>2013-07-28T10:26:51Z</time>
      </trkpt>
      <trkpt lat="44.28205" lon="6.1793">
        <ele>1550.2634277</ele>
        <time>2013-07-28T10:27:00Z</time>
      </trkpt>
      <trkpt lat="44.28214" lon="6.17964">
        <ele>1551.2246094</ele>
        <time>2013-07-28T10:27:09Z</time>
      </trkpt>
      <trkpt lat="44.28215" lon="6.17993">
        <ele>1551.7053223</ele>
        <time>2013-07-28T10:27:16Z</time>
      </trkpt>
      <trkpt lat="44.28216" lon="6.18056">
        <ele>1550.7438965</ele>
        <time>2013-07-28T10:27:31Z</time>
      </trkpt>
      <trkpt lat="44.28223" lon="6.18141">
        <ele>1549.302002</ele>
        <time>2013-07-28T10:27:47Z</time>
      </trkpt>
      <trkpt lat="44.28247" lon="6.18191">
        <ele>1548.3405762</ele>
        <time>2013-07-28T10:28:00Z</time>
      </trkpt>
      <trkpt lat="44.28277" lon="6.18206">
        <ele>1548.8212891</ele>
        <time>2013-07-28T10:28:11Z</time>
      </trkpt>
      <trkpt lat="44.28289" lon="6.18206">
        <ele>1549.302002</ele>
        <time>2013-07-28T10:28:15Z</time>
      </trkpt>
      <trkpt lat="44.28296" lon="6.18206">
        <ele>1549.302002</ele>
        <time>2013-07-28T10:28:17Z</time>
      </trkpt>
      <trkpt lat="44.28324" lon="6.1821">
        <ele>1550.7438965</ele>
        <time>2013-07-28T10:28:28Z</time>
      </trkpt>
      <trkpt lat="44.28373" lon="6.18215">
        <ele>1552.6665039</ele>
        <time>2013-07-28T10:28:48Z</time>
      </trkpt>
      <trkpt lat="44.28407" lon="6.18216">
        <ele>1553.6279297</ele>
        <time>2013-07-28T10:29:03Z</time>
      </trkpt>
      <trkpt lat="44.28453" lon="6.18209">
        <ele>1553.6279297</ele>
        <time>2013-07-28T10:29:20Z</time>
      </trkpt>
      <trkpt lat="44.28509" lon="6.18204">
        <ele>1551.7053223</ele>
        <time>2013-07-28T10:29:36Z</time>
      </trkpt>
      <trkpt lat="44.28531" lon="6.18202">
        <ele>1550.2634277</ele>
        <time>2013-07-28T10:29:47Z</time>
      </trkpt>
      <trkpt lat="44.28531" lon="6.18202">
        <ele>1550.2634277</ele>
        <time>2013-07-28T10:30:17Z</time>
      </trkpt>
      <trkpt lat="44.28568" lon="6.18193">
        <ele>1548.8212891</ele>
        <time>2013-07-28T10:30:31Z</time>
      </trkpt>
      <trkpt lat="44.28573" lon="6.18187">
        <ele>1548.3405762</ele>
        <time>2013-07-28T10:30:33Z</time>
      </trkpt>
      <trkpt lat="44.28591" lon="6.18166">
        <ele>1546.4179688</ele>
        <time>2013-07-28T10:30:39Z</time>
      </trkpt>
      <trkpt lat="44.28593" lon="6.18165">
        <ele>1545.9372559</ele>
        <time>2013-07-28T10:30:40Z</time>
      </trkpt>
      <trkpt lat="44.28605" lon="6.18165">
        <ele>1545.9372559</ele>
        <time>2013-07-28T10:30:44Z</time>
      </trkpt>
      <trkpt lat="44.28618" lon="6.18156">
        <ele>1545.456543</ele>
        <time>2013-07-28T10:30:55Z</time>
      </trkpt>
      <trkpt lat="44.28618" lon="6.18156">
        <ele>1545.9372559</ele>
        <time>2013-07-28T10:31:15Z</time>
      </trkpt>
      <trkpt lat="44.28618" lon="6.18156">
        <ele>1545.456543</ele>
        <time>2013-07-28T10:31:22Z</time>
      </trkpt>
      <trkpt lat="44.28606" lon="6.1817">
        <ele>1542.5727539</ele>
        <time>2013-07-28T10:31:41Z</time>
      </trkpt>
      <trkpt lat="44.28606" lon="6.1817">
        <ele>1541.6113281</ele>
        <time>2013-07-28T10:31:55Z</time>
      </trkpt>
      <trkpt lat="44.28606" lon="6.1817">
        <ele>1540.6499023</ele>
        <time>2013-07-28T10:31:58Z</time>
      </trkpt>
      <trkpt lat="44.28659" lon="6.18186">
        <ele>1539.2080078</ele>
        <time>2013-07-28T10:32:14Z</time>
      </trkpt>
      <trkpt lat="44.28666" lon="6.18184">
        <ele>1538.2468262</ele>
        <time>2013-07-28T10:32:25Z</time>
      </trkpt>
      <trkpt lat="44.28688" lon="6.18177">
        <ele>1535.362793</ele>
        <time>2013-07-28T10:32:39Z</time>
      </trkpt>
      <trkpt lat="44.2869" lon="6.1818">
        <ele>1534.8823242</ele>
        <time>2013-07-28T10:32:48Z</time>
      </trkpt>
      <trkpt lat="44.28688" lon="6.18192">
        <ele>1532.9594727</ele>
        <time>2013-07-28T10:33:07Z</time>
      </trkpt>
      <trkpt lat="44.28688" lon="6.1819">
        <ele>1533.9208984</ele>
        <time>2013-07-28T10:33:27Z</time>
      </trkpt>
      <trkpt lat="44.28687" lon="6.18195">
        <ele>1532.4790039</ele>
        <time>2013-07-28T10:33:34Z</time>
      </trkpt>
      <trkpt lat="44.28686" lon="6.18201">
        <ele>1531.517334</ele>
        <time>2013-07-28T10:33:49Z</time>
      </trkpt>
      <trkpt lat="44.28685" lon="6.18202">
        <ele>1530.5561523</ele>
        <time>2013-07-28T10:33:50Z</time>
      </trkpt>
      <trkpt lat="44.2869" lon="6.18215">
        <ele>1529.1140137</ele>
        <time>2013-07-28T10:34:08Z</time>
      </trkpt>
      <trkpt lat="44.28694" lon="6.18213">
        <ele>1528.152832</ele>
        <time>2013-07-28T10:34:16Z</time>
      </trkpt>
      <trkpt lat="44.28706" lon="6.18206">
        <ele>1526.2302246</ele>
        <time>2013-07-28T10:34:28Z</time>
      </trkpt>
      <trkpt lat="44.28713" lon="6.18208">
        <ele>1525.2687988</ele>
        <time>2013-07-28T10:34:54Z</time>
      </trkpt>
      <trkpt lat="44.28716" lon="6.18207">
        <ele>1524.3076172</ele>
        <time>2013-07-28T10:35:09Z</time>
      </trkpt>
      <trkpt lat="44.28717" lon="6.18207">
        <ele>1524.3076172</ele>
        <time>2013-07-28T10:35:10Z</time>
      </trkpt>
      <trkpt lat="44.28741" lon="6.18208">
        <ele>1520.9431152</ele>
        <time>2013-07-28T10:35:25Z</time>
      </trkpt>
      <trkpt lat="44.28746" lon="6.18207">
        <ele>1520.4624023</ele>
        <time>2013-07-28T10:35:27Z</time>
      </trkpt>
      <trkpt lat="44.2876" lon="6.18207">
        <ele>1517.0979004</ele>
        <time>2013-07-28T10:35:35Z</time>
      </trkpt>
      <trkpt lat="44.28774" lon="6.18202">
        <ele>1515.6557617</ele>
        <time>2013-07-28T10:35:49Z</time>
      </trkpt>
      <trkpt lat="44.28789" lon="6.18203">
        <ele>1513.2524414</ele>
        <time>2013-07-28T10:36:02Z</time>
      </trkpt>
      <trkpt lat="44.28793" lon="6.18205">
        <ele>1512.2910156</ele>
        <time>2013-07-28T10:36:04Z</time>
      </trkpt>
      <trkpt lat="44.28813" lon="6.18211">
        <ele>1509.4072266</ele>
        <time>2013-07-28T10:36:14Z</time>
      </trkpt>
      <trkpt lat="44.28822" lon="6.18216">
        <ele>1510.3684082</ele>
        <time>2013-07-28T10:36:26Z</time>
      </trkpt>
      <trkpt lat="44.28829" lon="6.18242">
        <ele>1507.0039063</ele>
        <time>2013-07-28T10:36:39Z</time>
      </trkpt>
      <trkpt lat="44.28843" lon="6.18252">
        <ele>1507.0039063</ele>
        <time>2013-07-28T10:36:52Z</time>
      </trkpt>
      <trkpt lat="44.28849" lon="6.18256">
        <ele>1505.5620117</ele>
        <time>2013-07-28T10:37:04Z</time>
      </trkpt>
      <trkpt lat="44.28853" lon="6.1826">
        <ele>1504.6005859</ele>
        <time>2013-07-28T10:37:11Z</time>
      </trkpt>
      <trkpt lat="44.28863" lon="6.18269">
        <ele>1502.6779785</ele>
        <time>2013-07-28T10:37:26Z</time>
      </trkpt>
      <trkpt lat="44.28871" lon="6.18282">
        <ele>1500.7553711</ele>
        <time>2013-07-28T10:37:43Z</time>
      </trkpt>
      <trkpt lat="44.28871" lon="6.18283">
        <ele>1500.7553711</ele>
        <time>2013-07-28T10:37:44Z</time>
      </trkpt>
      <trkpt lat="44.28872" lon="6.18295">
        <ele>1498.3518066</ele>
        <time>2013-07-28T10:37:49Z</time>
      </trkpt>
      <trkpt lat="44.2887" lon="6.18303">
        <ele>1496.9099121</ele>
        <time>2013-07-28T10:37:53Z</time>
      </trkpt>
      <trkpt lat="44.2887" lon="6.18307">
        <ele>1496.4294434</ele>
        <time>2013-07-28T10:37:55Z</time>
      </trkpt>
      <trkpt lat="44.28875" lon="6.18323">
        <ele>1495.4680176</ele>
        <time>2013-07-28T10:38:02Z</time>
      </trkpt>
      <trkpt lat="44.28879" lon="6.18336">
        <ele>1493.0646973</ele>
        <time>2013-07-28T10:38:06Z</time>
      </trkpt>
      <trkpt lat="44.28901" lon="6.18377">
        <ele>1489.2194824</ele>
        <time>2013-07-28T10:38:21Z</time>
      </trkpt>
      <trkpt lat="44.28923" lon="6.18382">
        <ele>1490.1809082</ele>
        <time>2013-07-28T10:38:32Z</time>
      </trkpt>
      <trkpt lat="44.28936" lon="6.18389">
        <ele>1488.2583008</ele>
        <time>2013-07-28T10:38:44Z</time>
      </trkpt>
      <trkpt lat="44.28953" lon="6.184">
        <ele>1485.8549805</ele>
        <time>2013-07-28T10:38:58Z</time>
      </trkpt>
      <trkpt lat="44.28966" lon="6.18407">
        <ele>1483.451416</ele>
        <time>2013-07-28T10:39:12Z</time>
      </trkpt>
      <trkpt lat="44.28986" lon="6.18415">
        <ele>1481.0483398</ele>
        <time>2013-07-28T10:39:23Z</time>
      </trkpt>
      <trkpt lat="44.2901" lon="6.18408">
        <ele>1477.6835938</ele>
        <time>2013-07-28T10:39:36Z</time>
      </trkpt>
      <trkpt lat="44.29012" lon="6.18408">
        <ele>1477.6835938</ele>
        <time>2013-07-28T10:39:37Z</time>
      </trkpt>
      <trkpt lat="44.2903" lon="6.18408">
        <ele>1475.7609863</ele>
        <time>2013-07-28T10:39:44Z</time>
      </trkpt>
      <trkpt lat="44.29048" lon="6.18404">
        <ele>1472.3964844</ele>
        <time>2013-07-28T10:39:56Z</time>
      </trkpt>
      <trkpt lat="44.29051" lon="6.18404">
        <ele>1470.9545898</ele>
        <time>2013-07-28T10:40:00Z</time>
      </trkpt>
      <trkpt lat="44.29052" lon="6.18405">
        <ele>1470.9545898</ele>
        <time>2013-07-28T10:40:03Z</time>
      </trkpt>
      <trkpt lat="44.29056" lon="6.18405">
        <ele>1469.5126953</ele>
        <time>2013-07-28T10:40:17Z</time>
      </trkpt>
      <trkpt lat="44.29057" lon="6.18406">
        <ele>1469.0319824</ele>
        <time>2013-07-28T10:40:24Z</time>
      </trkpt>
      <trkpt lat="44.29066" lon="6.18401">
        <ele>1468.0705566</ele>
        <time>2013-07-28T10:40:37Z</time>
      </trkpt>
      <trkpt lat="44.29075" lon="6.184">
        <ele>1465.6672363</ele>
        <time>2013-07-28T10:40:52Z</time>
      </trkpt>
      <trkpt lat="44.29082" lon="6.18401">
        <ele>1465.1865234</ele>
        <time>2013-07-28T10:40:59Z</time>
      </trkpt>
      <trkpt lat="44.29087" lon="6.184">
        <ele>1464.2250977</ele>
        <time>2013-07-28T10:41:03Z</time>
      </trkpt>
      <trkpt lat="44.29096" lon="6.18396">
        <ele>1462.3024902</ele>
        <time>2013-07-28T10:41:11Z</time>
      </trkpt>
      <trkpt lat="44.29105" lon="6.184">
        <ele>1461.3413086</ele>
        <time>2013-07-28T10:41:18Z</time>
      </trkpt>
      <trkpt lat="44.29115" lon="6.18419">
        <ele>1458.4572754</ele>
        <time>2013-07-28T10:41:30Z</time>
      </trkpt>
      <trkpt lat="44.29115" lon="6.18421">
        <ele>1458.4572754</ele>
        <time>2013-07-28T10:41:43Z</time>
      </trkpt>
      <trkpt lat="44.29123" lon="6.18423">
        <ele>1458.4572754</ele>
        <time>2013-07-28T10:41:56Z</time>
      </trkpt>
      <trkpt lat="44.29137" lon="6.18432">
        <ele>1457.0153809</ele>
        <time>2013-07-28T10:42:02Z</time>
      </trkpt>
      <trkpt lat="44.29164" lon="6.18394">
        <ele>1453.170166</ele>
        <time>2013-07-28T10:42:13Z</time>
      </trkpt>
      <trkpt lat="44.29161" lon="6.1838">
        <ele>1452.6894531</ele>
        <time>2013-07-28T10:42:16Z</time>
      </trkpt>
      <trkpt lat="44.29155" lon="6.18366">
        <ele>1450.7666016</ele>
        <time>2013-07-28T10:42:19Z</time>
      </trkpt>
      <trkpt lat="44.29153" lon="6.18351">
        <ele>1449.324707</ele>
        <time>2013-07-28T10:42:22Z</time>
      </trkpt>
      <trkpt lat="44.29158" lon="6.1833">
        <ele>1448.3632813</ele>
        <time>2013-07-28T10:42:27Z</time>
      </trkpt>
      <trkpt lat="44.29163" lon="6.18313">
        <ele>1447.4020996</ele>
        <time>2013-07-28T10:42:30Z</time>
      </trkpt>
      <trkpt lat="44.29167" lon="6.18267">
        <ele>1444.0375977</ele>
        <time>2013-07-28T10:42:39Z</time>
      </trkpt>
      <trkpt lat="44.29177" lon="6.18256">
        <ele>1443.0761719</ele>
        <time>2013-07-28T10:42:44Z</time>
      </trkpt>
      <trkpt lat="44.29189" lon="6.18258">
        <ele>1442.1149902</ele>
        <time>2013-07-28T10:42:47Z</time>
      </trkpt>
      <trkpt lat="44.29229" lon="6.18267">
        <ele>1439.230957</ele>
        <time>2013-07-28T10:42:56Z</time>
      </trkpt>
      <trkpt lat="44.29233" lon="6.18268">
        <ele>1438.7504883</ele>
        <time>2013-07-28T10:42:57Z</time>
      </trkpt>
      <trkpt lat="44.29253" lon="6.18263">
        <ele>1437.3083496</ele>
        <time>2013-07-28T10:43:03Z</time>
      </trkpt>
      <trkpt lat="44.29288" lon="6.18218">
        <ele>1433.9436035</ele>
        <time>2013-07-28T10:43:16Z</time>
      </trkpt>
      <trkpt lat="44.29295" lon="6.18207">
        <ele>1432.501709</ele>
        <time>2013-07-28T10:43:27Z</time>
      </trkpt>
      <trkpt lat="44.29297" lon="6.18202">
        <ele>1432.0209961</ele>
        <time>2013-07-28T10:43:43Z</time>
      </trkpt>
      <trkpt lat="44.29299" lon="6.18198">
        <ele>1432.501709</ele>
        <time>2013-07-28T10:43:54Z</time>
      </trkpt>
      <trkpt lat="44.29299" lon="6.18198">
        <ele>1432.501709</ele>
        <time>2013-07-28T10:44:03Z</time>
      </trkpt>
      <trkpt lat="44.29319" lon="6.18148">
        <ele>1434.9050293</ele>
        <time>2013-07-28T10:44:20Z</time>
      </trkpt>
      <trkpt lat="44.29317" lon="6.1808">
        <ele>1436.8276367</ele>
        <time>2013-07-28T10:44:39Z</time>
      </trkpt>
      <trkpt lat="44.29306" lon="6.18039">
        <ele>1437.7890625</ele>
        <time>2013-07-28T10:44:52Z</time>
      </trkpt>
      <trkpt lat="44.29268" lon="6.17999">
        <ele>1438.7504883</ele>
        <time>2013-07-28T10:45:12Z</time>
      </trkpt>
      <trkpt lat="44.29257" lon="6.17978">
        <ele>1439.230957</ele>
        <time>2013-07-28T10:45:21Z</time>
      </trkpt>
      <trkpt lat="44.29258" lon="6.17968">
        <ele>1439.230957</ele>
        <time>2013-07-28T10:45:24Z</time>
      </trkpt>
      <trkpt lat="44.29288" lon="6.17975">
        <ele>1439.7116699</ele>
        <time>2013-07-28T10:45:37Z</time>
      </trkpt>
      <trkpt lat="44.29299" lon="6.17976">
        <ele>1439.7116699</ele>
        <time>2013-07-28T10:45:50Z</time>
      </trkpt>
      <trkpt lat="44.29308" lon="6.17976">
        <ele>1439.7116699</ele>
        <time>2013-07-28T10:46:11Z</time>
      </trkpt>
      <trkpt lat="44.29318" lon="6.17979">
        <ele>1439.7116699</ele>
        <time>2013-07-28T10:46:21Z</time>
      </trkpt>
      <trkpt lat="44.29322" lon="6.17981">
        <ele>1439.230957</ele>
        <time>2013-07-28T10:46:24Z</time>
      </trkpt>
      <trkpt lat="44.29343" lon="6.17985">
        <ele>1439.230957</ele>
        <time>2013-07-28T10:46:48Z</time>
      </trkpt>
      <trkpt lat="44.29352" lon="6.17991">
        <ele>1438.7504883</ele>
        <time>2013-07-28T10:47:04Z</time>
      </trkpt>
      <trkpt lat="44.29366" lon="6.17998">
        <ele>1438.7504883</ele>
        <time>2013-07-28T10:47:20Z</time>
      </trkpt>
      <trkpt lat="44.29403" lon="6.18025">
        <ele>1436.8276367</ele>
        <time>2013-07-28T10:47:34Z</time>
      </trkpt>
      <trkpt lat="44.29438" lon="6.18017">
        <ele>1436.8276367</ele>
        <time>2013-07-28T10:47:48Z</time>
      </trkpt>
      <trkpt lat="44.29462" lon="6.17976">
        <ele>1436.347168</ele>
        <time>2013-07-28T10:48:02Z</time>
      </trkpt>
      <trkpt lat="44.29478" lon="6.1795">
        <ele>1435.385498</ele>
        <time>2013-07-28T10:48:11Z</time>
      </trkpt>
      <trkpt lat="44.29514" lon="6.17938">
        <ele>1434.9050293</ele>
        <time>2013-07-28T10:48:26Z</time>
      </trkpt>
      <trkpt lat="44.29522" lon="6.17934">
        <ele>1434.4243164</ele>
        <time>2013-07-28T10:48:38Z</time>
      </trkpt>
      <trkpt lat="44.29535" lon="6.17929">
        <ele>1434.9050293</ele>
        <time>2013-07-28T10:48:51Z</time>
      </trkpt>
      <trkpt lat="44.29569" lon="6.17922">
        <ele>1437.7890625</ele>
        <time>2013-07-28T10:49:08Z</time>
      </trkpt>
      <trkpt lat="44.29598" lon="6.17905">
        <ele>1439.7116699</ele>
        <time>2013-07-28T10:49:23Z</time>
      </trkpt>
      <trkpt lat="44.29614" lon="6.1787">
        <ele>1440.1923828</ele>
        <time>2013-07-28T10:49:38Z</time>
      </trkpt>
      <trkpt lat="44.29609" lon="6.17833">
        <ele>1441.6342773</ele>
        <time>2013-07-28T10:49:51Z</time>
      </trkpt>
      <trkpt lat="44.29597" lon="6.17798">
        <ele>1444.0375977</ele>
        <time>2013-07-28T10:50:06Z</time>
      </trkpt>
      <trkpt lat="44.29588" lon="6.17765">
        <ele>1445.9602051</ele>
        <time>2013-07-28T10:50:19Z</time>
      </trkpt>
      <trkpt lat="44.29588" lon="6.17724">
        <ele>1445.9602051</ele>
        <time>2013-07-28T10:50:33Z</time>
      </trkpt>
      <trkpt lat="44.29572" lon="6.17699">
        <ele>1447.4020996</ele>
        <time>2013-07-28T10:50:47Z</time>
      </trkpt>
      <trkpt lat="44.2956" lon="6.17681">
        <ele>1446.440918</ele>
        <time>2013-07-28T10:50:54Z</time>
      </trkpt>
      <trkpt lat="44.29545" lon="6.17665">
        <ele>1445.4794922</ele>
        <time>2013-07-28T10:50:58Z</time>
      </trkpt>
      <trkpt lat="44.29512" lon="6.17623">
        <ele>1445.9602051</ele>
        <time>2013-07-28T10:51:10Z</time>
      </trkpt>
      <trkpt lat="44.29505" lon="6.17606">
        <ele>1445.4794922</ele>
        <time>2013-07-28T10:51:14Z</time>
      </trkpt>
      <trkpt lat="44.295" lon="6.17587">
        <ele>1444.5180664</ele>
        <time>2013-07-28T10:51:18Z</time>
      </trkpt>
      <trkpt lat="44.29499" lon="6.17562">
        <ele>1442.1149902</ele>
        <time>2013-07-28T10:51:23Z</time>
      </trkpt>
      <trkpt lat="44.29497" lon="6.17542">
        <ele>1440.6728516</ele>
        <time>2013-07-28T10:51:27Z</time>
      </trkpt>
      <trkpt lat="44.29507" lon="6.17502">
        <ele>1439.230957</ele>
        <time>2013-07-28T10:51:36Z</time>
      </trkpt>
      <trkpt lat="44.29524" lon="6.17461">
        <ele>1437.3083496</ele>
        <time>2013-07-28T10:51:44Z</time>
      </trkpt>
      <trkpt lat="44.29529" lon="6.17432">
        <ele>1435.8662109</ele>
        <time>2013-07-28T10:51:48Z</time>
      </trkpt>
      <trkpt lat="44.29533" lon="6.17353">
        <ele>1435.8662109</ele>
        <time>2013-07-28T10:52:02Z</time>
      </trkpt>
      <trkpt lat="44.29533" lon="6.1729">
        <ele>1438.7504883</ele>
        <time>2013-07-28T10:52:20Z</time>
      </trkpt>
      <trkpt lat="44.29529" lon="6.17243">
        <ele>1440.1923828</ele>
        <time>2013-07-28T10:52:36Z</time>
      </trkpt>
      <trkpt lat="44.29549" lon="6.17225">
        <ele>1440.1923828</ele>
        <time>2013-07-28T10:52:47Z</time>
      </trkpt>
      <trkpt lat="44.29584" lon="6.1722">
        <ele>1439.7116699</ele>
        <time>2013-07-28T10:52:58Z</time>
      </trkpt>
      <trkpt lat="44.29599" lon="6.17236">
        <ele>1439.230957</ele>
        <time>2013-07-28T10:53:02Z</time>
      </trkpt>
      <trkpt lat="44.29606" lon="6.17242">
        <ele>1438.2697754</ele>
        <time>2013-07-28T10:53:04Z</time>
      </trkpt>
      <trkpt lat="44.29626" lon="6.17244">
        <ele>1438.2697754</ele>
        <time>2013-07-28T10:53:09Z</time>
      </trkpt>
      <trkpt lat="44.29656" lon="6.17227">
        <ele>1437.7890625</ele>
        <time>2013-07-28T10:53:19Z</time>
      </trkpt>
      <trkpt lat="44.29684" lon="6.17183">
        <ele>1438.2697754</ele>
        <time>2013-07-28T10:53:32Z</time>
      </trkpt>
      <trkpt lat="44.29688" lon="6.17148">
        <ele>1436.347168</ele>
        <time>2013-07-28T10:53:38Z</time>
      </trkpt>
      <trkpt lat="44.29691" lon="6.17139">
        <ele>1435.8662109</ele>
        <time>2013-07-28T10:53:40Z</time>
      </trkpt>
      <trkpt lat="44.29706" lon="6.17115">
        <ele>1433.9436035</ele>
        <time>2013-07-28T10:53:46Z</time>
      </trkpt>
      <trkpt lat="44.29711" lon="6.17108">
        <ele>1432.0209961</ele>
        <time>2013-07-28T10:53:48Z</time>
      </trkpt>
      <trkpt lat="44.29743" lon="6.17084">
        <ele>1429.6176758</ele>
        <time>2013-07-28T10:53:58Z</time>
      </trkpt>
      <trkpt lat="44.29765" lon="6.17048">
        <ele>1425.7724609</ele>
        <time>2013-07-28T10:54:08Z</time>
      </trkpt>
      <trkpt lat="44.29768" lon="6.17036">
        <ele>1424.8112793</ele>
        <time>2013-07-28T10:54:10Z</time>
      </trkpt>
      <trkpt lat="44.29769" lon="6.17013">
        <ele>1422.8886719</ele>
        <time>2013-07-28T10:54:14Z</time>
      </trkpt>
      <trkpt lat="44.2978" lon="6.16965">
        <ele>1419.0432129</ele>
        <time>2013-07-28T10:54:24Z</time>
      </trkpt>
      <trkpt lat="44.29802" lon="6.16936">
        <ele>1415.6787109</ele>
        <time>2013-07-28T10:54:32Z</time>
      </trkpt>
      <trkpt lat="44.29827" lon="6.1691">
        <ele>1413.7558594</ele>
        <time>2013-07-28T10:54:42Z</time>
      </trkpt>
      <trkpt lat="44.29827" lon="6.1691">
        <ele>1414.2365723</ele>
        <time>2013-07-28T10:55:03Z</time>
      </trkpt>
      <trkpt lat="44.29842" lon="6.16887">
        <ele>1414.2365723</ele>
        <time>2013-07-28T10:55:15Z</time>
      </trkpt>
      <trkpt lat="44.29845" lon="6.16878">
        <ele>1414.7172852</ele>
        <time>2013-07-28T10:55:17Z</time>
      </trkpt>
      <trkpt lat="44.29851" lon="6.16816">
        <ele>1413.2753906</ele>
        <time>2013-07-28T10:55:28Z</time>
      </trkpt>
      <trkpt lat="44.2986" lon="6.16768">
        <ele>1411.3527832</ele>
        <time>2013-07-28T10:55:35Z</time>
      </trkpt>
      <trkpt lat="44.29865" lon="6.16745">
        <ele>1409.9106445</ele>
        <time>2013-07-28T10:55:38Z</time>
      </trkpt>
      <trkpt lat="44.29884" lon="6.16692">
        <ele>1407.9882813</ele>
        <time>2013-07-28T10:55:47Z</time>
      </trkpt>
      <trkpt lat="44.29894" lon="6.16681">
        <ele>1407.0268555</ele>
        <time>2013-07-28T10:55:50Z</time>
      </trkpt>
      <trkpt lat="44.29906" lon="6.16645">
        <ele>1404.6235352</ele>
        <time>2013-07-28T10:55:55Z</time>
      </trkpt>
      <trkpt lat="44.29907" lon="6.16616">
        <ele>1404.6235352</ele>
        <time>2013-07-28T10:55:59Z</time>
      </trkpt>
      <trkpt lat="44.29911" lon="6.1659">
        <ele>1403.6621094</ele>
        <time>2013-07-28T10:56:03Z</time>
      </trkpt>
      <trkpt lat="44.29923" lon="6.16569">
        <ele>1402.2199707</ele>
        <time>2013-07-28T10:56:07Z</time>
      </trkpt>
      <trkpt lat="44.29937" lon="6.16557">
        <ele>1402.2199707</ele>
        <time>2013-07-28T10:56:10Z</time>
      </trkpt>
      <trkpt lat="44.29987" lon="6.16488">
        <ele>1398.8554688</ele>
        <time>2013-07-28T10:56:23Z</time>
      </trkpt>
      <trkpt lat="44.30013" lon="6.16447">
        <ele>1397.4135742</ele>
        <time>2013-07-28T10:56:34Z</time>
      </trkpt>
      <trkpt lat="44.30012" lon="6.16396">
        <ele>1395.4909668</ele>
        <time>2013-07-28T10:56:42Z</time>
      </trkpt>
      <trkpt lat="44.30004" lon="6.16381">
        <ele>1394.0490723</ele>
        <time>2013-07-28T10:56:45Z</time>
      </trkpt>
      <trkpt lat="44.29997" lon="6.16363">
        <ele>1392.1264648</ele>
        <time>2013-07-28T10:56:48Z</time>
      </trkpt>
      <trkpt lat="44.29986" lon="6.16327">
        <ele>1389.7231445</ele>
        <time>2013-07-28T10:56:54Z</time>
      </trkpt>
      <trkpt lat="44.29999" lon="6.16266">
        <ele>1385.8776855</ele>
        <time>2013-07-28T10:57:04Z</time>
      </trkpt>
      <trkpt lat="44.30016" lon="6.16255">
        <ele>1384.435791</ele>
        <time>2013-07-28T10:57:09Z</time>
      </trkpt>
      <trkpt lat="44.30025" lon="6.16253">
        <ele>1383.9550781</ele>
        <time>2013-07-28T10:57:11Z</time>
      </trkpt>
      <trkpt lat="44.30043" lon="6.16249">
        <ele>1382.5131836</ele>
        <time>2013-07-28T10:57:15Z</time>
      </trkpt>
      <trkpt lat="44.30095" lon="6.16254">
        <ele>1379.6291504</ele>
        <time>2013-07-28T10:57:29Z</time>
      </trkpt>
      <trkpt lat="44.30138" lon="6.16233">
        <ele>1380.1098633</ele>
        <time>2013-07-28T10:57:43Z</time>
      </trkpt>
      <trkpt lat="44.30161" lon="6.16233">
        <ele>1378.6679688</ele>
        <time>2013-07-28T10:57:52Z</time>
      </trkpt>
      <trkpt lat="44.30178" lon="6.16214">
        <ele>1378.1872559</ele>
        <time>2013-07-28T10:57:58Z</time>
      </trkpt>
      <trkpt lat="44.302" lon="6.16175">
        <ele>1376.7453613</ele>
        <time>2013-07-28T10:58:10Z</time>
      </trkpt>
      <trkpt lat="44.3022" lon="6.16121">
        <ele>1375.3032227</ele>
        <time>2013-07-28T10:58:23Z</time>
      </trkpt>
      <trkpt lat="44.30229" lon="6.16069">
        <ele>1371.4577637</ele>
        <time>2013-07-28T10:58:35Z</time>
      </trkpt>
      <trkpt lat="44.3023" lon="6.16063">
        <ele>1371.4577637</ele>
        <time>2013-07-28T10:58:36Z</time>
      </trkpt>
      <trkpt lat="44.30236" lon="6.16042">
        <ele>1369.0546875</ele>
        <time>2013-07-28T10:58:40Z</time>
      </trkpt>
      <trkpt lat="44.30241" lon="6.16027">
        <ele>1367.1320801</ele>
        <time>2013-07-28T10:58:43Z</time>
      </trkpt>
      <trkpt lat="44.30263" lon="6.15977">
        <ele>1365.6901855</ele>
        <time>2013-07-28T10:58:56Z</time>
      </trkpt>
      <trkpt lat="44.30285" lon="6.15954">
        <ele>1365.6901855</ele>
        <time>2013-07-28T10:59:09Z</time>
      </trkpt>
      <trkpt lat="44.30285" lon="6.15954">
        <ele>1366.1706543</ele>
        <time>2013-07-28T10:59:27Z</time>
      </trkpt>
      <trkpt lat="44.30285" lon="6.15954">
        <ele>1365.6901855</ele>
        <time>2013-07-28T10:59:34Z</time>
      </trkpt>
      <trkpt lat="44.30285" lon="6.15954">
        <ele>1365.6901855</ele>
        <time>2013-07-28T10:59:54Z</time>
      </trkpt>
      <trkpt lat="44.30326" lon="6.15956">
        <ele>1367.1320801</ele>
        <time>2013-07-28T11:00:05Z</time>
      </trkpt>
      <trkpt lat="44.30349" lon="6.15957">
        <ele>1366.6513672</ele>
        <time>2013-07-28T11:00:24Z</time>
      </trkpt>
      <trkpt lat="44.30366" lon="6.15945">
        <ele>1366.6513672</ele>
        <time>2013-07-28T11:00:44Z</time>
      </trkpt>
      <trkpt lat="44.30366" lon="6.15945">
        <ele>1367.6125488</ele>
        <time>2013-07-28T11:01:03Z</time>
      </trkpt>
      <trkpt lat="44.30394" lon="6.159">
        <ele>1366.6513672</ele>
        <time>2013-07-28T11:01:24Z</time>
      </trkpt>
      <trkpt lat="44.30394" lon="6.159">
        <ele>1366.6513672</ele>
        <time>2013-07-28T11:01:33Z</time>
      </trkpt>
      <trkpt lat="44.30394" lon="6.159">
        <ele>1367.1320801</ele>
        <time>2013-07-28T11:01:49Z</time>
      </trkpt>
      <trkpt lat="44.30428" lon="6.1583">
        <ele>1363.767334</ele>
        <time>2013-07-28T11:02:03Z</time>
      </trkpt>
      <trkpt lat="44.30434" lon="6.15775">
        <ele>1361.8449707</ele>
        <time>2013-07-28T11:02:18Z</time>
      </trkpt>
      <trkpt lat="44.3044" lon="6.15763">
        <ele>1359.9221191</ele>
        <time>2013-07-28T11:02:23Z</time>
      </trkpt>
      <trkpt lat="44.30447" lon="6.15742">
        <ele>1357.0383301</ele>
        <time>2013-07-28T11:02:33Z</time>
      </trkpt>
      <trkpt lat="44.30443" lon="6.15719">
        <ele>1356.0769043</ele>
        <time>2013-07-28T11:02:45Z</time>
      </trkpt>
      <trkpt lat="44.30443" lon="6.1571">
        <ele>1355.5961914</ele>
        <time>2013-07-28T11:02:50Z</time>
      </trkpt>
      <trkpt lat="44.30443" lon="6.15686">
        <ele>1352.2314453</ele>
        <time>2013-07-28T11:03:03Z</time>
      </trkpt>
      <trkpt lat="44.30443" lon="6.15662">
        <ele>1349.3476563</ele>
        <time>2013-07-28T11:03:20Z</time>
      </trkpt>
      <trkpt lat="44.30443" lon="6.15633">
        <ele>1347.4250488</ele>
        <time>2013-07-28T11:03:35Z</time>
      </trkpt>
      <trkpt lat="44.30445" lon="6.156">
        <ele>1344.0605469</ele>
        <time>2013-07-28T11:03:45Z</time>
      </trkpt>
      <trkpt lat="44.30446" lon="6.15597">
        <ele>1344.0605469</ele>
        <time>2013-07-28T11:03:46Z</time>
      </trkpt>
      <trkpt lat="44.3045" lon="6.15576">
        <ele>1342.6186523</ele>
        <time>2013-07-28T11:03:51Z</time>
      </trkpt>
      <trkpt lat="44.30454" lon="6.15539">
        <ele>1340.6958008</ele>
        <time>2013-07-28T11:04:02Z</time>
      </trkpt>
      <trkpt lat="44.30467" lon="6.15498">
        <ele>1336.8503418</ele>
        <time>2013-07-28T11:04:15Z</time>
      </trkpt>
      <trkpt lat="44.30467" lon="6.15498">
        <ele>1336.8503418</ele>
        <time>2013-07-28T11:04:27Z</time>
      </trkpt>
      <trkpt lat="44.30467" lon="6.15498">
        <ele>1336.369873</ele>
        <time>2013-07-28T11:04:32Z</time>
      </trkpt>
      <trkpt lat="44.30469" lon="6.15494">
        <ele>1336.369873</ele>
        <time>2013-07-28T11:04:36Z</time>
      </trkpt>
      <trkpt lat="44.30469" lon="6.15463">
        <ele>1336.369873</ele>
        <time>2013-07-28T11:04:54Z</time>
      </trkpt>
      <trkpt lat="44.30467" lon="6.15444">
        <ele>1338.7731934</ele>
        <time>2013-07-28T11:05:16Z</time>
      </trkpt>
      <trkpt lat="44.30467" lon="6.15444">
        <ele>1337.3310547</ele>
        <time>2013-07-28T11:05:33Z</time>
      </trkpt>
      <trkpt lat="44.30467" lon="6.15444">
        <ele>1336.8503418</ele>
        <time>2013-07-28T11:05:42Z</time>
      </trkpt>
      <trkpt lat="44.30467" lon="6.15444">
        <ele>1334.9279785</ele>
        <time>2013-07-28T11:06:06Z</time>
      </trkpt>
      <trkpt lat="44.30467" lon="6.15444">
        <ele>1333.4858398</ele>
        <time>2013-07-28T11:06:10Z</time>
      </trkpt>
      <trkpt lat="44.30467" lon="6.15444">
        <ele>1330.6020508</ele>
        <time>2013-07-28T11:06:34Z</time>
      </trkpt>
      <trkpt lat="44.30464" lon="6.1532">
        <ele>1329.1599121</ele>
        <time>2013-07-28T11:06:47Z</time>
      </trkpt>
      <trkpt lat="44.30464" lon="6.1532">
        <ele>1327.2375488</ele>
        <time>2013-07-28T11:07:07Z</time>
      </trkpt>
      <trkpt lat="44.30464" lon="6.1532">
        <ele>1326.276123</ele>
        <time>2013-07-28T11:07:16Z</time>
      </trkpt>
      <trkpt lat="44.30464" lon="6.1532">
        <ele>1324.8342285</ele>
        <time>2013-07-28T11:07:33Z</time>
      </trkpt>
      <trkpt lat="44.30509" lon="6.15228">
        <ele>1324.3535156</ele>
        <time>2013-07-28T11:07:55Z</time>
      </trkpt>
      <trkpt lat="44.30515" lon="6.15209">
        <ele>1323.8725586</ele>
        <time>2013-07-28T11:08:16Z</time>
      </trkpt>
      <trkpt lat="44.30515" lon="6.15209">
        <ele>1321.9499512</ele>
        <time>2013-07-28T11:08:33Z</time>
      </trkpt>
      <trkpt lat="44.30515" lon="6.15209">
        <ele>1320.9887695</ele>
        <time>2013-07-28T11:08:55Z</time>
      </trkpt>
      <trkpt lat="44.30515" lon="6.15209">
        <ele>1320.9887695</ele>
        <time>2013-07-28T11:08:58Z</time>
      </trkpt>
      <trkpt lat="44.30484" lon="6.15115">
        <ele>1320.5080566</ele>
        <time>2013-07-28T11:09:24Z</time>
      </trkpt>
      <trkpt lat="44.30484" lon="6.15115">
        <ele>1320.0273438</ele>
        <time>2013-07-28T11:09:47Z</time>
      </trkpt>
      <trkpt lat="44.30484" lon="6.15115">
        <ele>1319.0661621</ele>
        <time>2013-07-28T11:10:11Z</time>
      </trkpt>
      <trkpt lat="44.30484" lon="6.15115">
        <ele>1317.6240234</ele>
        <time>2013-07-28T11:10:15Z</time>
      </trkpt>
      <trkpt lat="44.30475" lon="6.15031">
        <ele>1316.1821289</ele>
        <time>2013-07-28T11:10:20Z</time>
      </trkpt>
      <trkpt lat="44.30475" lon="6.1503">
        <ele>1315.2209473</ele>
        <time>2013-07-28T11:10:26Z</time>
      </trkpt>
      <trkpt lat="44.30483" lon="6.15019">
        <ele>1316.6628418</ele>
        <time>2013-07-28T11:10:45Z</time>
      </trkpt>
      <trkpt lat="44.30483" lon="6.15019">
        <ele>1316.1821289</ele>
        <time>2013-07-28T11:11:04Z</time>
      </trkpt>
      <trkpt lat="44.30483" lon="6.15019">
        <ele>1314.7402344</ele>
        <time>2013-07-28T11:11:11Z</time>
      </trkpt>
      <trkpt lat="44.30483" lon="6.15019">
        <ele>1312.817627</ele>
        <time>2013-07-28T11:11:27Z</time>
      </trkpt>
      <trkpt lat="44.30483" lon="6.15019">
        <ele>1311.3757324</ele>
        <time>2013-07-28T11:11:35Z</time>
      </trkpt>
      <trkpt lat="44.30532" lon="6.14977">
        <ele>1309.453125</ele>
        <time>2013-07-28T11:11:49Z</time>
      </trkpt>
      <trkpt lat="44.30532" lon="6.14977">
        <ele>1308.0112305</ele>
        <time>2013-07-28T11:12:01Z</time>
      </trkpt>
      <trkpt lat="44.30532" lon="6.14977">
        <ele>1307.0495605</ele>
        <time>2013-07-28T11:12:16Z</time>
      </trkpt>
      <trkpt lat="44.30532" lon="6.14977">
        <ele>1305.607666</ele>
        <time>2013-07-28T11:12:25Z</time>
      </trkpt>
      <trkpt lat="44.30532" lon="6.14977">
        <ele>1303.2043457</ele>
        <time>2013-07-28T11:12:44Z</time>
      </trkpt>
      <trkpt lat="44.30532" lon="6.14977">
        <ele>1302.7236328</ele>
        <time>2013-07-28T11:12:48Z</time>
      </trkpt>
      <trkpt lat="44.30586" lon="6.14975">
        <ele>1300.8010254</ele>
        <time>2013-07-28T11:13:02Z</time>
      </trkpt>
      <trkpt lat="44.30586" lon="6.14975">
        <ele>1300.3205566</ele>
        <time>2013-07-28T11:13:05Z</time>
      </trkpt>
      <trkpt lat="44.30586" lon="6.14975">
        <ele>1299.3591309</ele>
        <time>2013-07-28T11:13:14Z</time>
      </trkpt>
      <trkpt lat="44.30586" lon="6.14975">
        <ele>1298.3977051</ele>
        <time>2013-07-28T11:13:33Z</time>
      </trkpt>
      <trkpt lat="44.30614" lon="6.14948">
        <ele>1298.3977051</ele>
        <time>2013-07-28T11:13:38Z</time>
      </trkpt>
      <trkpt lat="44.30624" lon="6.1492">
        <ele>1296.4753418</ele>
        <time>2013-07-28T11:13:48Z</time>
      </trkpt>
      <trkpt lat="44.30646" lon="6.14894">
        <ele>1293.5913086</ele>
        <time>2013-07-28T11:13:59Z</time>
      </trkpt>
      <trkpt lat="44.30649" lon="6.14868">
        <ele>1292.630127</ele>
        <time>2013-07-28T11:14:09Z</time>
      </trkpt>
      <trkpt lat="44.3065" lon="6.14854">
        <ele>1291.668457</ele>
        <time>2013-07-28T11:14:16Z</time>
      </trkpt>
      <trkpt lat="44.30652" lon="6.14848">
        <ele>1291.1877441</ele>
        <time>2013-07-28T11:14:20Z</time>
      </trkpt>
      <trkpt lat="44.30659" lon="6.14818">
        <ele>1289.2651367</ele>
        <time>2013-07-28T11:14:34Z</time>
      </trkpt>
      <trkpt lat="44.30672" lon="6.14784">
        <ele>1287.3425293</ele>
        <time>2013-07-28T11:14:46Z</time>
      </trkpt>
      <trkpt lat="44.30681" lon="6.14779">
        <ele>1285.4199219</ele>
        <time>2013-07-28T11:14:54Z</time>
      </trkpt>
      <trkpt lat="44.30712" lon="6.14764">
        <ele>1283.0166016</ele>
        <time>2013-07-28T11:15:07Z</time>
      </trkpt>
      <trkpt lat="44.30721" lon="6.14756">
        <ele>1282.0554199</ele>
        <time>2013-07-28T11:15:12Z</time>
      </trkpt>
      <trkpt lat="44.30723" lon="6.14766">
        <ele>1280.6135254</ele>
        <time>2013-07-28T11:15:23Z</time>
      </trkpt>
      <trkpt lat="44.30717" lon="6.14774">
        <ele>1279.6520996</ele>
        <time>2013-07-28T11:15:27Z</time>
      </trkpt>
      <trkpt lat="44.30709" lon="6.14788">
        <ele>1279.1713867</ele>
        <time>2013-07-28T11:15:40Z</time>
      </trkpt>
      <trkpt lat="44.30709" lon="6.14788">
        <ele>1277.7294922</ele>
        <time>2013-07-28T11:15:57Z</time>
      </trkpt>
      <trkpt lat="44.30709" lon="6.14788">
        <ele>1276.7683105</ele>
        <time>2013-07-28T11:15:59Z</time>
      </trkpt>
      <trkpt lat="44.30709" lon="6.14788">
        <ele>1276.2875977</ele>
        <time>2013-07-28T11:16:19Z</time>
      </trkpt>
      <trkpt lat="44.30709" lon="6.14788">
        <ele>1274.845459</ele>
        <time>2013-07-28T11:16:32Z</time>
      </trkpt>
      <trkpt lat="44.30724" lon="6.14824">
        <ele>1272.9228516</ele>
        <time>2013-07-28T11:16:44Z</time>
      </trkpt>
      <trkpt lat="44.3073" lon="6.14823">
        <ele>1271.0002441</ele>
        <time>2013-07-28T11:16:56Z</time>
      </trkpt>
      <trkpt lat="44.3073" lon="6.14823">
        <ele>1269.5583496</ele>
        <time>2013-07-28T11:17:09Z</time>
      </trkpt>
      <trkpt lat="44.3073" lon="6.14823">
        <ele>1267.1550293</ele>
        <time>2013-07-28T11:17:26Z</time>
      </trkpt>
      <trkpt lat="44.3073" lon="6.14823">
        <ele>1265.2324219</ele>
        <time>2013-07-28T11:17:34Z</time>
      </trkpt>
      <trkpt lat="44.3073" lon="6.14823">
        <ele>1264.751709</ele>
        <time>2013-07-28T11:17:40Z</time>
      </trkpt>
      <trkpt lat="44.3073" lon="6.14823">
        <ele>1263.3098145</ele>
        <time>2013-07-28T11:17:50Z</time>
      </trkpt>
      <trkpt lat="44.3073" lon="6.14823">
        <ele>1261.8679199</ele>
        <time>2013-07-28T11:18:04Z</time>
      </trkpt>
      <trkpt lat="44.3073" lon="6.14823">
        <ele>1259.4643555</ele>
        <time>2013-07-28T11:18:18Z</time>
      </trkpt>
      <trkpt lat="44.3073" lon="6.14823">
        <ele>1256.5803223</ele>
        <time>2013-07-28T11:18:37Z</time>
      </trkpt>
      <trkpt lat="44.3073" lon="6.14823">
        <ele>1256.5803223</ele>
        <time>2013-07-28T11:18:55Z</time>
      </trkpt>
      <trkpt lat="44.30826" lon="6.14802">
        <ele>1255.6191406</ele>
        <time>2013-07-28T11:19:00Z</time>
      </trkpt>
      <trkpt lat="44.30845" lon="6.14811">
        <ele>1252.2543945</ele>
        <time>2013-07-28T11:19:09Z</time>
      </trkpt>
      <trkpt lat="44.30855" lon="6.14831">
        <ele>1250.3320313</ele>
        <time>2013-07-28T11:19:15Z</time>
      </trkpt>
      <trkpt lat="44.30871" lon="6.14849">
        <ele>1246.9672852</ele>
        <time>2013-07-28T11:19:21Z</time>
      </trkpt>
      <trkpt lat="44.30891" lon="6.14903">
        <ele>1243.1218262</ele>
        <time>2013-07-28T11:19:34Z</time>
      </trkpt>
      <trkpt lat="44.3089" lon="6.14954">
        <ele>1240.7185059</ele>
        <time>2013-07-28T11:19:46Z</time>
      </trkpt>
      <trkpt lat="44.30889" lon="6.15006">
        <ele>1238.7961426</ele>
        <time>2013-07-28T11:19:57Z</time>
      </trkpt>
      <trkpt lat="44.30887" lon="6.15036">
        <ele>1237.3540039</ele>
        <time>2013-07-28T11:20:05Z</time>
      </trkpt>
      <trkpt lat="44.30885" lon="6.15051">
        <ele>1235.4313965</ele>
        <time>2013-07-28T11:20:09Z</time>
      </trkpt>
      <trkpt lat="44.30887" lon="6.15064">
        <ele>1233.989502</ele>
        <time>2013-07-28T11:20:13Z</time>
      </trkpt>
      <trkpt lat="44.3089" lon="6.15071">
        <ele>1233.0280762</ele>
        <time>2013-07-28T11:20:15Z</time>
      </trkpt>
      <trkpt lat="44.30894" lon="6.15087">
        <ele>1230.625</ele>
        <time>2013-07-28T11:20:19Z</time>
      </trkpt>
      <trkpt lat="44.30897" lon="6.151">
        <ele>1229.1828613</ele>
        <time>2013-07-28T11:20:22Z</time>
      </trkpt>
      <trkpt lat="44.30901" lon="6.15115">
        <ele>1227.2602539</ele>
        <time>2013-07-28T11:20:28Z</time>
      </trkpt>
      <trkpt lat="44.30904" lon="6.15117">
        <ele>1227.2602539</ele>
        <time>2013-07-28T11:20:33Z</time>
      </trkpt>
      <trkpt lat="44.30911" lon="6.15108">
        <ele>1227.2602539</ele>
        <time>2013-07-28T11:20:47Z</time>
      </trkpt>
      <trkpt lat="44.30911" lon="6.15108">
        <ele>1226.779541</ele>
        <time>2013-07-28T11:21:07Z</time>
      </trkpt>
      <trkpt lat="44.30911" lon="6.15108">
        <ele>1225.8181152</ele>
        <time>2013-07-28T11:23:37Z</time>
      </trkpt>
      <trkpt lat="44.30911" lon="6.15108">
        <ele>1226.779541</ele>
        <time>2013-07-28T11:23:51Z</time>
      </trkpt>
      <trkpt lat="44.30911" lon="6.15108">
        <ele>1226.2988281</ele>
        <time>2013-07-28T11:23:55Z</time>
      </trkpt>
      <trkpt lat="44.3089" lon="6.1514">
        <ele>1226.2988281</ele>
        <time>2013-07-28T11:24:05Z</time>
      </trkpt>
      <trkpt lat="44.3088" lon="6.15164">
        <ele>1223.8955078</ele>
        <time>2013-07-28T11:24:09Z</time>
      </trkpt>
      <trkpt lat="44.30877" lon="6.1517">
        <ele>1223.8955078</ele>
        <time>2013-07-28T11:24:10Z</time>
      </trkpt>
      <trkpt lat="44.30861" lon="6.15203">
        <ele>1224.8569336</ele>
        <time>2013-07-28T11:24:15Z</time>
      </trkpt>
      <trkpt lat="44.30861" lon="6.15223">
        <ele>1224.3762207</ele>
        <time>2013-07-28T11:24:19Z</time>
      </trkpt>
      <trkpt lat="44.30861" lon="6.15234">
        <ele>1223.4150391</ele>
        <time>2013-07-28T11:24:21Z</time>
      </trkpt>
      <trkpt lat="44.30861" lon="6.15247">
        <ele>1222.9343262</ele>
        <time>2013-07-28T11:24:23Z</time>
      </trkpt>
      <trkpt lat="44.30867" lon="6.15281">
        <ele>1221.0117188</ele>
        <time>2013-07-28T11:24:28Z</time>
      </trkpt>
      <trkpt lat="44.30872" lon="6.15308">
        <ele>1220.050293</ele>
        <time>2013-07-28T11:24:31Z</time>
      </trkpt>
      <trkpt lat="44.30878" lon="6.15329">
        <ele>1218.1276855</ele>
        <time>2013-07-28T11:24:36Z</time>
      </trkpt>
      <trkpt lat="44.30914" lon="6.15379">
        <ele>1215.2438965</ele>
        <time>2013-07-28T11:24:39Z</time>
      </trkpt>
      <trkpt lat="44.30921" lon="6.15387">
        <ele>1214.7631836</ele>
        <time>2013-07-28T11:24:40Z</time>
      </trkpt>
      <trkpt lat="44.30936" lon="6.15401">
        <ele>1212.3598633</ele>
        <time>2013-07-28T11:24:42Z</time>
      </trkpt>
      <trkpt lat="44.30959" lon="6.1541">
        <ele>1208.0339355</ele>
        <time>2013-07-28T11:24:45Z</time>
      </trkpt>
      <trkpt lat="44.30968" lon="6.15411">
        <ele>1208.0339355</ele>
        <time>2013-07-28T11:24:46Z</time>
      </trkpt>
      <trkpt lat="44.30986" lon="6.15412">
        <ele>1206.111084</ele>
        <time>2013-07-28T11:24:48Z</time>
      </trkpt>
      <trkpt lat="44.31004" lon="6.15413">
        <ele>1204.6691895</ele>
        <time>2013-07-28T11:24:50Z</time>
      </trkpt>
      <trkpt lat="44.31022" lon="6.15413">
        <ele>1201.7854004</ele>
        <time>2013-07-28T11:24:52Z</time>
      </trkpt>
      <trkpt lat="44.31031" lon="6.15414">
        <ele>1201.7854004</ele>
        <time>2013-07-28T11:24:53Z</time>
      </trkpt>
      <trkpt lat="44.31045" lon="6.15414">
        <ele>1199.862793</ele>
        <time>2013-07-28T11:24:55Z</time>
      </trkpt>
      <trkpt lat="44.31055" lon="6.15411">
        <ele>1198.4206543</ele>
        <time>2013-07-28T11:24:57Z</time>
      </trkpt>
      <trkpt lat="44.31065" lon="6.15393">
        <ele>1196.498291</ele>
        <time>2013-07-28T11:25:00Z</time>
      </trkpt>
      <trkpt lat="44.31106" lon="6.1541">
        <ele>1191.6914063</ele>
        <time>2013-07-28T11:25:07Z</time>
      </trkpt>
      <trkpt lat="44.31119" lon="6.15418">
        <ele>1190.7299805</ele>
        <time>2013-07-28T11:25:09Z</time>
      </trkpt>
      <trkpt lat="44.3113" lon="6.15424">
        <ele>1189.2880859</ele>
        <time>2013-07-28T11:25:11Z</time>
      </trkpt>
      <trkpt lat="44.31135" lon="6.15426">
        <ele>1188.8076172</ele>
        <time>2013-07-28T11:25:12Z</time>
      </trkpt>
      <trkpt lat="44.3116" lon="6.1541">
        <ele>1186.4042969</ele>
        <time>2013-07-28T11:25:18Z</time>
      </trkpt>
      <trkpt lat="44.31173" lon="6.15394">
        <ele>1185.4428711</ele>
        <time>2013-07-28T11:25:20Z</time>
      </trkpt>
      <trkpt lat="44.31186" lon="6.15379">
        <ele>1182.0783691</ele>
        <time>2013-07-28T11:25:22Z</time>
      </trkpt>
      <trkpt lat="44.31201" lon="6.15354">
        <ele>1180.6364746</ele>
        <time>2013-07-28T11:25:25Z</time>
      </trkpt>
      <trkpt lat="44.31218" lon="6.15323">
        <ele>1178.2329102</ele>
        <time>2013-07-28T11:25:30Z</time>
      </trkpt>
      <trkpt lat="44.31225" lon="6.15346">
        <ele>1175.348877</ele>
        <time>2013-07-28T11:25:36Z</time>
      </trkpt>
      <trkpt lat="44.31222" lon="6.15353">
        <ele>1175.348877</ele>
        <time>2013-07-28T11:25:37Z</time>
      </trkpt>
      <trkpt lat="44.31209" lon="6.15375">
        <ele>1173.9069824</ele>
        <time>2013-07-28T11:25:40Z</time>
      </trkpt>
      <trkpt lat="44.31195" lon="6.15415">
        <ele>1171.5036621</ele>
        <time>2013-07-28T11:25:44Z</time>
      </trkpt>
      <trkpt lat="44.31187" lon="6.15434">
        <ele>1170.0617676</ele>
        <time>2013-07-28T11:25:46Z</time>
      </trkpt>
      <trkpt lat="44.31175" lon="6.15462">
        <ele>1168.1391602</ele>
        <time>2013-07-28T11:25:50Z</time>
      </trkpt>
      <trkpt lat="44.31175" lon="6.15474">
        <ele>1166.6972656</ele>
        <time>2013-07-28T11:25:52Z</time>
      </trkpt>
      <trkpt lat="44.31202" lon="6.15486">
        <ele>1164.7746582</ele>
        <time>2013-07-28T11:25:58Z</time>
      </trkpt>
      <trkpt lat="44.31218" lon="6.15482">
        <ele>1162.8518066</ele>
        <time>2013-07-28T11:26:00Z</time>
      </trkpt>
      <trkpt lat="44.31233" lon="6.15475">
        <ele>1160.9291992</ele>
        <time>2013-07-28T11:26:02Z</time>
      </trkpt>
      <trkpt lat="44.31247" lon="6.15468">
        <ele>1159.9677734</ele>
        <time>2013-07-28T11:26:04Z</time>
      </trkpt>
      <trkpt lat="44.31262" lon="6.15453">
        <ele>1158.0454102</ele>
        <time>2013-07-28T11:26:07Z</time>
      </trkpt>
      <trkpt lat="44.3126" lon="6.15402">
        <ele>1154.6806641</ele>
        <time>2013-07-28T11:26:13Z</time>
      </trkpt>
      <trkpt lat="44.31271" lon="6.1538">
        <ele>1153.7194824</ele>
        <time>2013-07-28T11:26:18Z</time>
      </trkpt>
      <trkpt lat="44.3128" lon="6.15398">
        <ele>1152.2773438</ele>
        <time>2013-07-28T11:26:21Z</time>
      </trkpt>
      <trkpt lat="44.31287" lon="6.15424">
        <ele>1150.8354492</ele>
        <time>2013-07-28T11:26:24Z</time>
      </trkpt>
      <trkpt lat="44.313" lon="6.15454">
        <ele>1149.8742676</ele>
        <time>2013-07-28T11:26:28Z</time>
      </trkpt>
      <trkpt lat="44.31315" lon="6.15459">
        <ele>1147.4707031</ele>
        <time>2013-07-28T11:26:32Z</time>
      </trkpt>
      <trkpt lat="44.31314" lon="6.15431">
        <ele>1145.0673828</ele>
        <time>2013-07-28T11:26:36Z</time>
      </trkpt>
      <trkpt lat="44.31309" lon="6.15412">
        <ele>1143.6254883</ele>
        <time>2013-07-28T11:26:38Z</time>
      </trkpt>
      <trkpt lat="44.31311" lon="6.1537">
        <ele>1141.222168</ele>
        <time>2013-07-28T11:26:44Z</time>
      </trkpt>
      <trkpt lat="44.31331" lon="6.15369">
        <ele>1138.8190918</ele>
        <time>2013-07-28T11:26:47Z</time>
      </trkpt>
      <trkpt lat="44.31354" lon="6.15361">
        <ele>1136.4157715</ele>
        <time>2013-07-28T11:26:51Z</time>
      </trkpt>
      <trkpt lat="44.3138" lon="6.15329">
        <ele>1133.5317383</ele>
        <time>2013-07-28T11:26:55Z</time>
      </trkpt>
      <trkpt lat="44.31394" lon="6.15313">
        <ele>1129.6862793</ele>
        <time>2013-07-28T11:26:57Z</time>
      </trkpt>
      <trkpt lat="44.31417" lon="6.15298">
        <ele>1128.2443848</ele>
        <time>2013-07-28T11:27:00Z</time>
      </trkpt>
      <trkpt lat="44.31429" lon="6.15291">
        <ele>1127.2832031</ele>
        <time>2013-07-28T11:27:02Z</time>
      </trkpt>
      <trkpt lat="44.31452" lon="6.15289">
        <ele>1124.8798828</ele>
        <time>2013-07-28T11:27:05Z</time>
      </trkpt>
      <trkpt lat="44.3146" lon="6.1529">
        <ele>1123.4379883</ele>
        <time>2013-07-28T11:27:06Z</time>
      </trkpt>
      <trkpt lat="44.31485" lon="6.15282">
        <ele>1121.5151367</ele>
        <time>2013-07-28T11:27:09Z</time>
      </trkpt>
      <trkpt lat="44.31498" lon="6.15267">
        <ele>1117.1894531</ele>
        <time>2013-07-28T11:27:11Z</time>
      </trkpt>
      <trkpt lat="44.31519" lon="6.15238">
        <ele>1115.7473145</ele>
        <time>2013-07-28T11:27:14Z</time>
      </trkpt>
      <trkpt lat="44.31537" lon="6.15219">
        <ele>1113.8244629</ele>
        <time>2013-07-28T11:27:16Z</time>
      </trkpt>
      <trkpt lat="44.3155" lon="6.15193">
        <ele>1110.9406738</ele>
        <time>2013-07-28T11:27:18Z</time>
      </trkpt>
      <trkpt lat="44.31561" lon="6.15168">
        <ele>1106.6147461</ele>
        <time>2013-07-28T11:27:20Z</time>
      </trkpt>
      <trkpt lat="44.31568" lon="6.15157">
        <ele>1106.6147461</ele>
        <time>2013-07-28T11:27:21Z</time>
      </trkpt>
      <trkpt lat="44.31574" lon="6.15148">
        <ele>1104.6921387</ele>
        <time>2013-07-28T11:27:22Z</time>
      </trkpt>
      <trkpt lat="44.31584" lon="6.15119">
        <ele>1102.7695313</ele>
        <time>2013-07-28T11:27:25Z</time>
      </trkpt>
      <trkpt lat="44.31583" lon="6.15107">
        <ele>1101.3276367</ele>
        <time>2013-07-28T11:27:26Z</time>
      </trkpt>
      <trkpt lat="44.3158" lon="6.15082">
        <ele>1099.4047852</ele>
        <time>2013-07-28T11:27:28Z</time>
      </trkpt>
      <trkpt lat="44.31576" lon="6.15057">
        <ele>1097.9628906</ele>
        <time>2013-07-28T11:27:30Z</time>
      </trkpt>
      <trkpt lat="44.31574" lon="6.1503">
        <ele>1096.5209961</ele>
        <time>2013-07-28T11:27:32Z</time>
      </trkpt>
      <trkpt lat="44.31572" lon="6.15002">
        <ele>1093.6369629</ele>
        <time>2013-07-28T11:27:34Z</time>
      </trkpt>
      <trkpt lat="44.3157" lon="6.1499">
        <ele>1093.6369629</ele>
        <time>2013-07-28T11:27:35Z</time>
      </trkpt>
      <trkpt lat="44.31569" lon="6.14979">
        <ele>1091.7143555</ele>
        <time>2013-07-28T11:27:36Z</time>
      </trkpt>
      <trkpt lat="44.31584" lon="6.14938">
        <ele>1088.3498535</ele>
        <time>2013-07-28T11:27:41Z</time>
      </trkpt>
      <trkpt lat="44.31589" lon="6.14931">
        <ele>1088.3498535</ele>
        <time>2013-07-28T11:27:42Z</time>
      </trkpt>
      <trkpt lat="44.31602" lon="6.14928">
        <ele>1086.9077148</ele>
        <time>2013-07-28T11:27:44Z</time>
      </trkpt>
      <trkpt lat="44.31629" lon="6.14928">
        <ele>1083.5429688</ele>
        <time>2013-07-28T11:27:48Z</time>
      </trkpt>
      <trkpt lat="44.31635" lon="6.14923">
        <ele>1083.5429688</ele>
        <time>2013-07-28T11:27:49Z</time>
      </trkpt>
      <trkpt lat="44.31646" lon="6.14911">
        <ele>1082.5817871</ele>
        <time>2013-07-28T11:27:51Z</time>
      </trkpt>
      <trkpt lat="44.31668" lon="6.14897">
        <ele>1081.1398926</ele>
        <time>2013-07-28T11:27:54Z</time>
      </trkpt>
      <trkpt lat="44.3168" lon="6.14883">
        <ele>1079.6977539</ele>
        <time>2013-07-28T11:27:56Z</time>
      </trkpt>
      <trkpt lat="44.31687" lon="6.14876">
        <ele>1078.7365723</ele>
        <time>2013-07-28T11:27:57Z</time>
      </trkpt>
      <trkpt lat="44.31736" lon="6.14838">
        <ele>1075.3718262</ele>
        <time>2013-07-28T11:28:03Z</time>
      </trkpt>
      <trkpt lat="44.31752" lon="6.14821">
        <ele>1072.96875</ele>
        <time>2013-07-28T11:28:05Z</time>
      </trkpt>
      <trkpt lat="44.31766" lon="6.14804">
        <ele>1071.5266113</ele>
        <time>2013-07-28T11:28:07Z</time>
      </trkpt>
      <trkpt lat="44.31778" lon="6.14787">
        <ele>1069.1235352</ele>
        <time>2013-07-28T11:28:09Z</time>
      </trkpt>
      <trkpt lat="44.31792" lon="6.14761">
        <ele>1066.7199707</ele>
        <time>2013-07-28T11:28:12Z</time>
      </trkpt>
      <trkpt lat="44.31799" lon="6.14744">
        <ele>1065.2780762</ele>
        <time>2013-07-28T11:28:14Z</time>
      </trkpt>
      <trkpt lat="44.31833" lon="6.1473">
        <ele>1062.394043</ele>
        <time>2013-07-28T11:28:19Z</time>
      </trkpt>
      <trkpt lat="44.31857" lon="6.14735">
        <ele>1059.5102539</ele>
        <time>2013-07-28T11:28:22Z</time>
      </trkpt>
      <trkpt lat="44.31869" lon="6.14738">
        <ele>1058.5488281</ele>
        <time>2013-07-28T11:28:24Z</time>
      </trkpt>
      <trkpt lat="44.31881" lon="6.14737">
        <ele>1057.1069336</ele>
        <time>2013-07-28T11:28:26Z</time>
      </trkpt>
      <trkpt lat="44.31894" lon="6.1471">
        <ele>1055.6650391</ele>
        <time>2013-07-28T11:28:30Z</time>
      </trkpt>
      <trkpt lat="44.31896" lon="6.14699">
        <ele>1054.7036133</ele>
        <time>2013-07-28T11:28:31Z</time>
      </trkpt>
      <trkpt lat="44.319" lon="6.14679">
        <ele>1053.2617188</ele>
        <time>2013-07-28T11:28:33Z</time>
      </trkpt>
      <trkpt lat="44.31904" lon="6.14657">
        <ele>1051.8195801</ele>
        <time>2013-07-28T11:28:35Z</time>
      </trkpt>
      <trkpt lat="44.31904" lon="6.14634">
        <ele>1049.4162598</ele>
        <time>2013-07-28T11:28:37Z</time>
      </trkpt>
      <trkpt lat="44.31904" lon="6.14599">
        <ele>1047.0129395</ele>
        <time>2013-07-28T11:28:40Z</time>
      </trkpt>
      <trkpt lat="44.31904" lon="6.14573">
        <ele>1046.5324707</ele>
        <time>2013-07-28T11:28:42Z</time>
      </trkpt>
      <trkpt lat="44.31936" lon="6.1452">
        <ele>1044.6096191</ele>
        <time>2013-07-28T11:28:48Z</time>
      </trkpt>
      <trkpt lat="44.31964" lon="6.14476">
        <ele>1042.206543</ele>
        <time>2013-07-28T11:28:53Z</time>
      </trkpt>
      <trkpt lat="44.31983" lon="6.14457">
        <ele>1039.8032227</ele>
        <time>2013-07-28T11:28:56Z</time>
      </trkpt>
      <trkpt lat="44.31991" lon="6.14451">
        <ele>1038.3613281</ele>
        <time>2013-07-28T11:28:57Z</time>
      </trkpt>
      <trkpt lat="44.32024" lon="6.14407">
        <ele>1034.996582</ele>
        <time>2013-07-28T11:29:02Z</time>
      </trkpt>
      <trkpt lat="44.32042" lon="6.14389">
        <ele>1034.0351563</ele>
        <time>2013-07-28T11:29:05Z</time>
      </trkpt>
      <trkpt lat="44.32048" lon="6.14377">
        <ele>1033.0737305</ele>
        <time>2013-07-28T11:29:07Z</time>
      </trkpt>
      <trkpt lat="44.32042" lon="6.14359">
        <ele>1030.6706543</ele>
        <time>2013-07-28T11:29:13Z</time>
      </trkpt>
      <trkpt lat="44.32035" lon="6.14369">
        <ele>1030.1899414</ele>
        <time>2013-07-28T11:29:15Z</time>
      </trkpt>
      <trkpt lat="44.32028" lon="6.14381">
        <ele>1030.1899414</ele>
        <time>2013-07-28T11:29:17Z</time>
      </trkpt>
      <trkpt lat="44.31983" lon="6.14425">
        <ele>1025.8640137</ele>
        <time>2013-07-28T11:29:25Z</time>
      </trkpt>
      <trkpt lat="44.31977" lon="6.14431">
        <ele>1025.8640137</ele>
        <time>2013-07-28T11:29:26Z</time>
      </trkpt>
      <trkpt lat="44.31933" lon="6.14467">
        <ele>1021.5380859</ele>
        <time>2013-07-28T11:29:32Z</time>
      </trkpt>
      <trkpt lat="44.31925" lon="6.14474">
        <ele>1021.5380859</ele>
        <time>2013-07-28T11:29:33Z</time>
      </trkpt>
      <trkpt lat="44.31911" lon="6.14483">
        <ele>1021.0576172</ele>
        <time>2013-07-28T11:29:35Z</time>
      </trkpt>
      <trkpt lat="44.31886" lon="6.14511">
        <ele>1018.6540527</ele>
        <time>2013-07-28T11:29:39Z</time>
      </trkpt>
      <trkpt lat="44.31867" lon="6.14539">
        <ele>1017.2121582</ele>
        <time>2013-07-28T11:29:42Z</time>
      </trkpt>
      <trkpt lat="44.31855" lon="6.14558">
        <ele>1014.8088379</ele>
        <time>2013-07-28T11:29:44Z</time>
      </trkpt>
      <trkpt lat="44.31833" lon="6.14574">
        <ele>1010.963623</ele>
        <time>2013-07-28T11:29:47Z</time>
      </trkpt>
      <trkpt lat="44.31819" lon="6.14586">
        <ele>1009.0410156</ele>
        <time>2013-07-28T11:29:49Z</time>
      </trkpt>
      <trkpt lat="44.31795" lon="6.14617">
        <ele>1007.1184082</ele>
        <time>2013-07-28T11:29:54Z</time>
      </trkpt>
      <trkpt lat="44.31783" lon="6.14607">
        <ele>1005.1958008</ele>
        <time>2013-07-28T11:30:01Z</time>
      </trkpt>
      <trkpt lat="44.31789" lon="6.14596">
        <ele>1003.7536621</ele>
        <time>2013-07-28T11:30:03Z</time>
      </trkpt>
      <trkpt lat="44.31797" lon="6.14584">
        <ele>1002.7922363</ele>
        <time>2013-07-28T11:30:05Z</time>
      </trkpt>
      <trkpt lat="44.31821" lon="6.14553">
        <ele>998.4663086</ele>
        <time>2013-07-28T11:30:09Z</time>
      </trkpt>
      <trkpt lat="44.31828" lon="6.14543">
        <ele>998.4663086</ele>
        <time>2013-07-28T11:30:10Z</time>
      </trkpt>
      <trkpt lat="44.31841" lon="6.14519">
        <ele>995.5825195</ele>
        <time>2013-07-28T11:30:12Z</time>
      </trkpt>
      <trkpt lat="44.31855" lon="6.14494">
        <ele>993.6599121</ele>
        <time>2013-07-28T11:30:14Z</time>
      </trkpt>
      <trkpt lat="44.31869" lon="6.14472">
        <ele>989.8146973</ele>
        <time>2013-07-28T11:30:16Z</time>
      </trkpt>
      <trkpt lat="44.31888" lon="6.14438">
        <ele>988.3728027</ele>
        <time>2013-07-28T11:30:19Z</time>
      </trkpt>
      <trkpt lat="44.319" lon="6.14411">
        <ele>985.9692383</ele>
        <time>2013-07-28T11:30:21Z</time>
      </trkpt>
      <trkpt lat="44.31915" lon="6.14388">
        <ele>981.1628418</ele>
        <time>2013-07-28T11:30:23Z</time>
      </trkpt>
      <trkpt lat="44.31922" lon="6.14377">
        <ele>981.1628418</ele>
        <time>2013-07-28T11:30:24Z</time>
      </trkpt>
      <trkpt lat="44.31935" lon="6.14351">
        <ele>978.7595215</ele>
        <time>2013-07-28T11:30:26Z</time>
      </trkpt>
      <trkpt lat="44.31946" lon="6.14322">
        <ele>976.3562012</ele>
        <time>2013-07-28T11:30:28Z</time>
      </trkpt>
      <trkpt lat="44.31957" lon="6.14298">
        <ele>972.5109863</ele>
        <time>2013-07-28T11:30:30Z</time>
      </trkpt>
      <trkpt lat="44.31963" lon="6.14288">
        <ele>972.5109863</ele>
        <time>2013-07-28T11:30:31Z</time>
      </trkpt>
      <trkpt lat="44.31971" lon="6.14275">
        <ele>971.0688477</ele>
        <time>2013-07-28T11:30:33Z</time>
      </trkpt>
      <trkpt lat="44.31985" lon="6.1425">
        <ele>969.1462402</ele>
        <time>2013-07-28T11:30:35Z</time>
      </trkpt>
      <trkpt lat="44.31994" lon="6.14223">
        <ele>965.7817383</ele>
        <time>2013-07-28T11:30:38Z</time>
      </trkpt>
      <trkpt lat="44.31994" lon="6.14213">
        <ele>964.8203125</ele>
        <time>2013-07-28T11:30:39Z</time>
      </trkpt>
      <trkpt lat="44.32014" lon="6.14175">
        <ele>961.4558105</ele>
        <time>2013-07-28T11:30:45Z</time>
      </trkpt>
      <trkpt lat="44.3202" lon="6.14168">
        <ele>960.4943848</ele>
        <time>2013-07-28T11:30:46Z</time>
      </trkpt>
      <trkpt lat="44.32042" lon="6.14152">
        <ele>958.0913086</ele>
        <time>2013-07-28T11:30:49Z</time>
      </trkpt>
      <trkpt lat="44.32049" lon="6.14147">
        <ele>957.1298828</ele>
        <time>2013-07-28T11:30:50Z</time>
      </trkpt>
      <trkpt lat="44.3207" lon="6.14108">
        <ele>954.2458496</ele>
        <time>2013-07-28T11:30:54Z</time>
      </trkpt>
      <trkpt lat="44.32075" lon="6.14083">
        <ele>952.322998</ele>
        <time>2013-07-28T11:30:56Z</time>
      </trkpt>
      <trkpt lat="44.32079" lon="6.14056">
        <ele>950.8811035</ele>
        <time>2013-07-28T11:30:58Z</time>
      </trkpt>
      <trkpt lat="44.32083" lon="6.14027">
        <ele>946.074707</ele>
        <time>2013-07-28T11:31:00Z</time>
      </trkpt>
      <trkpt lat="44.32085" lon="6.14012">
        <ele>946.074707</ele>
        <time>2013-07-28T11:31:01Z</time>
      </trkpt>
      <trkpt lat="44.32087" lon="6.14">
        <ele>944.1520996</ele>
        <time>2013-07-28T11:31:02Z</time>
      </trkpt>
      <trkpt lat="44.32096" lon="6.13966">
        <ele>942.2294922</ele>
        <time>2013-07-28T11:31:05Z</time>
      </trkpt>
      <trkpt lat="44.32106" lon="6.13947">
        <ele>938.8647461</ele>
        <time>2013-07-28T11:31:07Z</time>
      </trkpt>
      <trkpt lat="44.32124" lon="6.13921">
        <ele>937.4226074</ele>
        <time>2013-07-28T11:31:10Z</time>
      </trkpt>
      <trkpt lat="44.32137" lon="6.13904">
        <ele>935.5</ele>
        <time>2013-07-28T11:31:12Z</time>
      </trkpt>
      <trkpt lat="44.32147" lon="6.13888">
        <ele>932.135498</ele>
        <time>2013-07-28T11:31:14Z</time>
      </trkpt>
      <trkpt lat="44.32152" lon="6.13881">
        <ele>932.135498</ele>
        <time>2013-07-28T11:31:15Z</time>
      </trkpt>
      <trkpt lat="44.32163" lon="6.13871">
        <ele>930.6936035</ele>
        <time>2013-07-28T11:31:17Z</time>
      </trkpt>
      <trkpt lat="44.32183" lon="6.13857">
        <ele>927.3291016</ele>
        <time>2013-07-28T11:31:20Z</time>
      </trkpt>
      <trkpt lat="44.32196" lon="6.13849">
        <ele>926.3676758</ele>
        <time>2013-07-28T11:31:22Z</time>
      </trkpt>
      <trkpt lat="44.32216" lon="6.13841">
        <ele>923.4836426</ele>
        <time>2013-07-28T11:31:25Z</time>
      </trkpt>
      <trkpt lat="44.32245" lon="6.13842">
        <ele>921.0803223</ele>
        <time>2013-07-28T11:31:29Z</time>
      </trkpt>
      <trkpt lat="44.32258" lon="6.13841">
        <ele>919.6384277</ele>
        <time>2013-07-28T11:31:31Z</time>
      </trkpt>
      <trkpt lat="44.32268" lon="6.13838">
        <ele>919.6384277</ele>
        <time>2013-07-28T11:31:33Z</time>
      </trkpt>
      <trkpt lat="44.32287" lon="6.13833">
        <ele>916.7543945</ele>
        <time>2013-07-28T11:31:37Z</time>
      </trkpt>
      <trkpt lat="44.3229" lon="6.13833">
        <ele>916.7543945</ele>
        <time>2013-07-28T11:31:38Z</time>
      </trkpt>
      <trkpt lat="44.32294" lon="6.13833">
        <ele>916.2736816</ele>
        <time>2013-07-28T11:31:39Z</time>
      </trkpt>
      <trkpt lat="44.32312" lon="6.13845">
        <ele>916.2736816</ele>
        <time>2013-07-28T11:31:43Z</time>
      </trkpt>
      <trkpt lat="44.32318" lon="6.1386">
        <ele>915.3125</ele>
        <time>2013-07-28T11:31:45Z</time>
      </trkpt>
      <trkpt lat="44.32349" lon="6.13882">
        <ele>912.4284668</ele>
        <time>2013-07-28T11:31:50Z</time>
      </trkpt>
      <trkpt lat="44.32365" lon="6.13886">
        <ele>911.4672852</ele>
        <time>2013-07-28T11:31:52Z</time>
      </trkpt>
      <trkpt lat="44.324" lon="6.13897">
        <ele>909.0639648</ele>
        <time>2013-07-28T11:31:56Z</time>
      </trkpt>
      <trkpt lat="44.32421" lon="6.13904">
        <ele>907.1411133</ele>
        <time>2013-07-28T11:31:59Z</time>
      </trkpt>
      <trkpt lat="44.32434" lon="6.13908">
        <ele>905.6992188</ele>
        <time>2013-07-28T11:32:01Z</time>
      </trkpt>
      <trkpt lat="44.32457" lon="6.13901">
        <ele>902.3344727</ele>
        <time>2013-07-28T11:32:05Z</time>
      </trkpt>
      <trkpt lat="44.32467" lon="6.1389">
        <ele>901.8540039</ele>
        <time>2013-07-28T11:32:07Z</time>
      </trkpt>
      <trkpt lat="44.32498" lon="6.13901">
        <ele>898.4892578</ele>
        <time>2013-07-28T11:32:13Z</time>
      </trkpt>
      <trkpt lat="44.32508" lon="6.13914">
        <ele>897.5280762</ele>
        <time>2013-07-28T11:32:15Z</time>
      </trkpt>
      <trkpt lat="44.32517" lon="6.13928">
        <ele>896.0861816</ele>
        <time>2013-07-28T11:32:17Z</time>
      </trkpt>
      <trkpt lat="44.32543" lon="6.13933">
        <ele>893.6828613</ele>
        <time>2013-07-28T11:32:22Z</time>
      </trkpt>
      <trkpt lat="44.32549" lon="6.1393">
        <ele>892.7216797</ele>
        <time>2013-07-28T11:32:23Z</time>
      </trkpt>
      <trkpt lat="44.3256" lon="6.13923">
        <ele>891.2792969</ele>
        <time>2013-07-28T11:32:25Z</time>
      </trkpt>
      <trkpt lat="44.32587" lon="6.13931">
        <ele>888.8762207</ele>
        <time>2013-07-28T11:32:29Z</time>
      </trkpt>
      <trkpt lat="44.32623" lon="6.13959">
        <ele>885.0310059</ele>
        <time>2013-07-28T11:32:34Z</time>
      </trkpt>
      <trkpt lat="44.32638" lon="6.1397">
        <ele>883.5888672</ele>
        <time>2013-07-28T11:32:36Z</time>
      </trkpt>
      <trkpt lat="44.32664" lon="6.13988">
        <ele>882.6276855</ele>
        <time>2013-07-28T11:32:40Z</time>
      </trkpt>
      <trkpt lat="44.3268" lon="6.13988">
        <ele>879.7436523</ele>
        <time>2013-07-28T11:32:43Z</time>
      </trkpt>
      <trkpt lat="44.32692" lon="6.13967">
        <ele>877.8210449</ele>
        <time>2013-07-28T11:32:46Z</time>
      </trkpt>
      <trkpt lat="44.32697" lon="6.13947">
        <ele>876.3791504</ele>
        <time>2013-07-28T11:32:48Z</time>
      </trkpt>
      <trkpt lat="44.32699" lon="6.13927">
        <ele>874.4562988</ele>
        <time>2013-07-28T11:32:50Z</time>
      </trkpt>
      <trkpt lat="44.32689" lon="6.13888">
        <ele>873.0144043</ele>
        <time>2013-07-28T11:32:54Z</time>
      </trkpt>
      <trkpt lat="44.32685" lon="6.13863">
        <ele>870.1303711</ele>
        <time>2013-07-28T11:32:57Z</time>
      </trkpt>
      <trkpt lat="44.32688" lon="6.13842">
        <ele>868.2077637</ele>
        <time>2013-07-28T11:32:59Z</time>
      </trkpt>
      <trkpt lat="44.32689" lon="6.13831">
        <ele>866.7658691</ele>
        <time>2013-07-28T11:33:00Z</time>
      </trkpt>
      <trkpt lat="44.32689" lon="6.13798">
        <ele>865.3239746</ele>
        <time>2013-07-28T11:33:03Z</time>
      </trkpt>
      <trkpt lat="44.32689" lon="6.13771">
        <ele>862.9206543</ele>
        <time>2013-07-28T11:33:06Z</time>
      </trkpt>
      <trkpt lat="44.32694" lon="6.13755">
        <ele>861.4787598</ele>
        <time>2013-07-28T11:33:08Z</time>
      </trkpt>
      <trkpt lat="44.32705" lon="6.13743">
        <ele>859.5559082</ele>
        <time>2013-07-28T11:33:10Z</time>
      </trkpt>
      <trkpt lat="44.32726" lon="6.13726">
        <ele>857.1525879</ele>
        <time>2013-07-28T11:33:13Z</time>
      </trkpt>
      <trkpt lat="44.32743" lon="6.13717">
        <ele>855.7106934</ele>
        <time>2013-07-28T11:33:15Z</time>
      </trkpt>
      <trkpt lat="44.32758" lon="6.1371">
        <ele>854.2687988</ele>
        <time>2013-07-28T11:33:17Z</time>
      </trkpt>
      <trkpt lat="44.32781" lon="6.13695">
        <ele>851.3847656</ele>
        <time>2013-07-28T11:33:20Z</time>
      </trkpt>
      <trkpt lat="44.32794" lon="6.13681">
        <ele>849.9428711</ele>
        <time>2013-07-28T11:33:22Z</time>
      </trkpt>
      <trkpt lat="44.32806" lon="6.13665">
        <ele>848.0202637</ele>
        <time>2013-07-28T11:33:24Z</time>
      </trkpt>
      <trkpt lat="44.32826" lon="6.13636">
        <ele>844.6555176</ele>
        <time>2013-07-28T11:33:27Z</time>
      </trkpt>
      <trkpt lat="44.32837" lon="6.13614">
        <ele>842.7329102</ele>
        <time>2013-07-28T11:33:29Z</time>
      </trkpt>
      <trkpt lat="44.32847" lon="6.13591">
        <ele>840.8100586</ele>
        <time>2013-07-28T11:33:31Z</time>
      </trkpt>
      <trkpt lat="44.32868" lon="6.1356">
        <ele>837.4455566</ele>
        <time>2013-07-28T11:33:34Z</time>
      </trkpt>
      <trkpt lat="44.32883" lon="6.13539">
        <ele>835.5229492</ele>
        <time>2013-07-28T11:33:36Z</time>
      </trkpt>
      <trkpt lat="44.32899" lon="6.13518">
        <ele>834.0810547</ele>
        <time>2013-07-28T11:33:38Z</time>
      </trkpt>
      <trkpt lat="44.32926" lon="6.13489">
        <ele>831.1972656</ele>
        <time>2013-07-28T11:33:41Z</time>
      </trkpt>
      <trkpt lat="44.32969" lon="6.1345">
        <ele>832.1584473</ele>
        <time>2013-07-28T11:33:47Z</time>
      </trkpt>
      <trkpt lat="44.32988" lon="6.1338">
        <ele>830.2358398</ele>
        <time>2013-07-28T11:33:55Z</time>
      </trkpt>
      <trkpt lat="44.32987" lon="6.13361">
        <ele>830.2358398</ele>
        <time>2013-07-28T11:33:57Z</time>
      </trkpt>
      <trkpt lat="44.32959" lon="6.13274">
        <ele>829.2744141</ele>
        <time>2013-07-28T11:34:08Z</time>
      </trkpt>
      <trkpt lat="44.3294" lon="6.13165">
        <ele>830.2358398</ele>
        <time>2013-07-28T11:34:21Z</time>
      </trkpt>
      <trkpt lat="44.32934" lon="6.13107">
        <ele>832.6391602</ele>
        <time>2013-07-28T11:34:36Z</time>
      </trkpt>
      <trkpt lat="44.32932" lon="6.13084">
        <ele>833.1196289</ele>
        <time>2013-07-28T11:34:52Z</time>
      </trkpt>
      <trkpt lat="44.32932" lon="6.13084">
        <ele>833.1196289</ele>
        <time>2013-07-28T11:35:10Z</time>
      </trkpt>
      <trkpt lat="44.32932" lon="6.13084">
        <ele>831.1972656</ele>
        <time>2013-07-28T11:35:18Z</time>
      </trkpt>
      <trkpt lat="44.32932" lon="6.13084">
        <ele>832.6391602</ele>
        <time>2013-07-28T11:35:20Z</time>
      </trkpt>
      <trkpt lat="44.32932" lon="6.13084">
        <ele>833.6003418</ele>
        <time>2013-07-28T11:35:25Z</time>
      </trkpt>
      <trkpt lat="44.32932" lon="6.13084">
        <ele>831.6777344</ele>
        <time>2013-07-28T11:35:34Z</time>
      </trkpt>
      <trkpt lat="44.32932" lon="6.13084">
        <ele>831.6777344</ele>
        <time>2013-07-28T11:35:36Z</time>
      </trkpt>
    </trkseg>
  </trk>
</gpx>